Provisional Data: West Creek near Weber City, PA


Please select a monitoring station.
Please select start date.
Please select start date.

Toggle Unit: C/F Toggle Unit: C/F
Sample Time Temperature (C) Temperature (F) Specific Conductivity (mS/cm) pH   Turbidity (NTU+) DO (mg/L)
12/11/2021 12:00:00 AM 4.56 40.208 0.058 6.8 0.57 12.59
12/11/2021 12:15:00 AM 4.57 40.226 0.058 6.8 0.55 12.58
12/11/2021 12:30:00 AM 4.56 40.208 0.058 6.8 0.61 12.58
12/11/2021 12:45:00 AM 4.57 40.226 0.058 6.8 0.58 12.58
12/11/2021 1:00:00 AM 4.57 40.226 0.058 6.8 0.59 12.57
12/11/2021 1:15:00 AM 4.57 40.226 0.059 6.8 0.66 12.57
12/11/2021 1:30:00 AM 4.58 40.244 0.059 6.8 0.56 12.57
12/11/2021 1:45:00 AM 4.59 40.262 0.058 6.8 0.56 12.56
12/11/2021 2:00:00 AM 4.59 40.262 0.059 6.79 0.54 12.55
12/11/2021 2:15:00 AM 4.6 40.28 0.059 6.79 0.53 12.55
12/11/2021 2:30:00 AM 4.62 40.316 0.059 6.8 0.64 12.54
12/11/2021 2:45:00 AM 4.64 40.352 0.059 6.79 0.64 12.54
12/11/2021 3:00:00 AM 4.66 40.388 0.058 6.8 0.55 12.53
12/11/2021 3:15:00 AM 4.68 40.424 0.059 6.8 0.56 12.52
12/11/2021 3:30:00 AM 4.69 40.442 0.058 6.8 0.64 12.51
12/11/2021 3:45:00 AM 4.71 40.478 0.058 6.8 0.72 12.51
12/11/2021 4:00:00 AM 4.72 40.496 0.058 6.8 0.91 12.5
12/11/2021 4:15:00 AM 4.73 40.514 0.058 6.8 1.28 12.49
12/11/2021 4:30:00 AM 4.75 40.55 0.058 6.8 1.43 12.47
12/11/2021 4:45:00 AM 4.77 40.586 0.058 6.8 1.32 12.46
12/11/2021 5:00:00 AM 4.78 40.604 0.058 6.8 1.3 12.45
12/11/2021 5:15:00 AM 4.79 40.622 0.058 6.79 1.24 12.44
12/11/2021 5:30:00 AM 4.81 40.658 0.058 6.79 1.39 12.44
12/11/2021 5:45:00 AM 4.82 40.676 0.059 6.79 1.98 12.42
12/11/2021 6:00:00 AM 4.84 40.712 0.059 6.79 2.87 12.41
12/11/2021 6:15:00 AM 4.85 40.73 0.059 6.79 2.83 12.4
12/11/2021 6:30:00 AM 4.87 40.766 0.059 6.79 3.11 12.39
12/11/2021 6:45:00 AM 4.89 40.802 0.059 6.79 3.38 12.38
12/11/2021 7:00:00 AM 4.91 40.838 0.059 6.78 5.38 12.37
12/11/2021 7:15:00 AM 4.93 40.874 0.059 6.79 6.54 12.36
12/11/2021 7:30:00 AM 4.94 40.892 0.059 6.79 5.75 12.35
12/11/2021 7:45:00 AM 4.97 40.946 0.059 6.79 4.9 12.35
12/11/2021 8:00:00 AM 4.99 40.982 0.06 6.8 5.35 12.35
12/11/2021 8:15:00 AM 5.01 41.018 0.059 6.8 5.17 12.35
12/11/2021 8:30:00 AM 5.04 41.072 0.059 6.81 4.72 12.37
12/11/2021 8:45:00 AM 5.07 41.126 0.059 6.82 4.28 12.38
12/11/2021 9:00:00 AM 5.11 41.198 0.059 6.82 4.48 12.4
12/11/2021 9:15:00 AM 5.15 41.27 0.059 6.82 4.59 12.44
12/11/2021 9:30:00 AM 5.19 41.342 0.06 6.83 4.5 12.45
12/11/2021 9:45:00 AM 5.24 41.432 0.06 6.84 4.57 12.46
12/11/2021 10:00:00 AM 5.28 41.504 0.06 6.85 5.05 12.46
12/11/2021 10:15:00 AM 5.33 41.594 0.06 6.86 5.3 12.45
12/11/2021 10:30:00 AM 5.38 41.684 0.06 6.87 6 12.46
12/11/2021 10:45:00 AM 5.42 41.756 0.06 6.86 8.17 12.43
12/11/2021 11:00:00 AM 5.47 41.846 0.059 6.88 7.85 12.43
12/11/2021 11:15:00 AM 5.52 41.936 0.06 6.87 9.24 12.42
12/11/2021 11:30:00 AM 5.55 41.99 0.06 6.88 12.33 12.4
12/11/2021 11:45:00 AM 5.58 42.044 0.06 6.87 17.74 12.34
12/11/2021 12:00:00 PM 5.61 42.098 0.062 6.85 19.9 12.3
12/11/2021 12:15:00 PM 5.66 42.188 0.061 6.84 23.35 12.25
12/11/2021 12:30:00 PM 5.7 42.26 0.06 6.83 24.97 12.22
12/11/2021 12:45:00 PM 5.72 42.296 0.06 6.83 26.42 12.2
12/11/2021 1:00:00 PM 5.74 42.332 0.059 6.81 26.8 12.18
12/11/2021 1:15:00 PM 5.77 42.386 0.032 6.81 27.79 12.15
12/11/2021 1:30:00 PM 5.8 42.44 0.043 6.84 3091.27 12.13
12/11/2021 1:45:00 PM 5.84 42.512 0.043 6.83 137.23 12.11
12/11/2021 2:00:00 PM 5.88 42.584 0.048 6.82 25.02 12.09
12/11/2021 2:15:00 PM 5.92 42.656 0.062 6.83 22.77 12.08
12/11/2021 2:30:00 PM 5.95 42.71 0.064 6.83 21.2 12.05
12/11/2021 2:45:00 PM 5.98 42.764 0.065 6.84 24.98 12.03
12/11/2021 3:00:00 PM 6.02 42.836 0.066 6.84 28.33 12.02
12/11/2021 3:15:00 PM 6.07 42.926 0.069 6.85 29.17 12
12/11/2021 3:30:00 PM 6.1 42.98 0.07 6.86 36.87 11.96
12/11/2021 3:45:00 PM 6.15 43.07 0.072 6.89 40.91 11.95
12/11/2021 4:00:00 PM 6.2 43.16 0.073 6.88 42.18 11.92
12/11/2021 4:15:00 PM 6.24 43.232 0.074 6.89 43.75 11.91
12/11/2021 4:30:00 PM 6.33 43.394 0.074 6.9 44.49 11.89
12/11/2021 4:45:00 PM 6.36 43.448 0.075 6.9 44.75 11.86
12/11/2021 5:00:00 PM 6.41 43.538 0.076 6.91 43.08 11.84
12/11/2021 5:15:00 PM 6.44 43.592 0.077 6.91 42.74 11.83
12/11/2021 5:30:00 PM 6.45 43.61 0.077 6.91 41.49 11.82
12/11/2021 5:45:00 PM 6.46 43.628 0.078 6.91 42.03 11.81
12/11/2021 6:00:00 PM 6.46 43.628 0.078 6.91 41.25 11.8
12/11/2021 6:15:00 PM 6.44 43.592 0.078 6.92 39.74 11.8
12/11/2021 6:30:00 PM 6.43 43.574 0.078 6.92 38.19 11.8
12/11/2021 6:45:00 PM 6.42 43.556 0.078 6.92 35.66 11.8
12/11/2021 7:00:00 PM 6.39 43.502 0.078 6.91 32.82 11.81
12/11/2021 7:15:00 PM 6.35 43.43 0.077 6.9 35.34 11.82
12/11/2021 7:30:00 PM 6.32 43.376 0.055 6.9 26.82 11.82
12/11/2021 7:45:00 PM 6.28 43.304 0.063 6.9 27.62 11.85
12/11/2021 8:00:00 PM 6.25 43.25 0.078 6.89 24.66 11.87
12/11/2021 8:15:00 PM 6.21 43.178 0.078 6.9 23.37 11.87
12/11/2021 8:30:00 PM 6.19 43.142 0.078 6.9 22.16 11.88
12/11/2021 8:45:00 PM 6.17 43.106 0.078 6.9 20.91 11.89
12/11/2021 9:00:00 PM 6.15 43.07 0.079 6.9 19.38 11.91
12/11/2021 9:15:00 PM 6.12 43.016 0.079 6.9 18.93 11.92
12/11/2021 9:30:00 PM 6.1 42.98 0.079 6.9 17.61 11.92
12/11/2021 9:45:00 PM 6.08 42.944 0.079 6.89 17.25 11.93
12/11/2021 10:00:00 PM 6.05 42.89 0.079 6.89 16.35 11.94
12/11/2021 10:15:00 PM 6.02 42.836 0.08 6.9 15.8 11.95
12/11/2021 10:30:00 PM 6 42.8 0.08 6.9 15.28 11.96
12/11/2021 10:45:00 PM 5.98 42.764 0.08 6.89 14.93 11.97
12/11/2021 11:00:00 PM 5.95 42.71 0.08 6.89 14.54 11.98
12/11/2021 11:15:00 PM 5.93 42.674 0.08 6.89 14.09 11.99
12/11/2021 11:30:00 PM 5.91 42.638 0.08 6.89 13.67 11.99
12/11/2021 11:45:00 PM 5.9 42.62 0.079 6.9 13.68 12
12/12/2021 12:00:00 AM 5.88 42.584 0.079 6.89 13.34 12.01
12/12/2021 12:15:00 AM 5.87 42.566 0.079 6.9 13.26 12.01
12/12/2021 12:30:00 AM 5.85 42.53 0.08 6.89 12.76 12.03
12/12/2021 12:45:00 AM 5.83 42.494 0.079 6.89 12.65 12.03
12/12/2021 1:00:00 AM 5.82 42.476 0.079 6.9 12.45 12.04
12/12/2021 1:15:00 AM 5.8 42.44 0.079 6.89 12.56 12.05
12/12/2021 1:30:00 AM 5.79 42.422 0.079 6.89 12.86 12.06
12/12/2021 1:45:00 AM 5.77 42.386 0.078 6.89 13.57 12.07
12/12/2021 2:00:00 AM 5.75 42.35 0.078 6.89 14.52 12.08
12/12/2021 2:15:00 AM 5.72 42.296 0.078 6.88 15.73 12.09
12/12/2021 2:30:00 AM 5.68 42.224 0.078 6.89 16.54 12.11
12/12/2021 2:45:00 AM 5.65 42.17 0.078 6.89 25.14 12.12
12/12/2021 3:00:00 AM 5.62 42.116 0.077 6.89 17.71 12.14
12/12/2021 3:15:00 AM 5.57 42.026 0.077 6.89 18.14 12.16
12/12/2021 3:30:00 AM 5.53 41.954 0.077 6.89 18.39 12.17
12/12/2021 3:45:00 AM 5.51 41.918 0.077 6.88 19.06 12.18
12/12/2021 4:00:00 AM 5.46 41.828 0.077 6.87 19.19 12.2
12/12/2021 4:15:00 AM 5.41 41.738 0.07 6.85 19.16 12.22
12/12/2021 4:30:00 AM 5.38 41.684 0.076 6.86 19.49 12.24
12/12/2021 4:45:00 AM 5.34 41.612 0.076 6.86 18.42 12.26
12/12/2021 5:00:00 AM 5.3 41.54 0.075 6.86 18 12.28
12/12/2021 5:15:00 AM 5.27 41.486 0.075 6.86 16.72 12.3
12/12/2021 5:30:00 AM 5.25 41.45 0.075 6.85 15.47 12.31
12/12/2021 5:45:00 AM 5.22 41.396 0.075 6.85 14.3 12.32
12/12/2021 6:00:00 AM 5.19 41.342 0.075 6.86 13.43 12.33
12/12/2021 6:15:00 AM 5.15 41.27 0.075 6.86 12.11 12.35
12/12/2021 6:30:00 AM 5.11 41.198 0.074 6.87 11.63 12.37
12/12/2021 6:45:00 AM 5.07 41.126 0.074 6.86 10.69 12.39
12/12/2021 7:00:00 AM 5.04 41.072 0.074 6.86 10 12.41
12/12/2021 7:15:00 AM 5 41 0.074 6.88 12.49 12.42
12/12/2021 7:30:00 AM 4.95 40.91 0.074 6.87 9.02 12.44
12/12/2021 7:45:00 AM 4.91 40.838 0.073 6.86 9.01 12.47
12/12/2021 8:00:00 AM 4.88 40.784 0.073 6.86 8.23 12.49
12/12/2021 8:15:00 AM 4.86 40.748 0.073 6.86 7.81 12.52
12/12/2021 8:30:00 AM 4.84 40.712 0.073 6.86 7.68 12.57
12/12/2021 8:45:00 AM 4.83 40.694 0.072 6.87 7.33 12.6
12/12/2021 9:00:00 AM 4.82 40.676 0.072 6.87 7.08 12.64
12/12/2021 9:15:00 AM 4.81 40.658 0.072 6.88 6.79 12.69
12/12/2021 9:30:00 AM 4.81 40.658 0.071 6.88 6.63 12.73
12/12/2021 9:45:00 AM 4.81 40.658 0.071 6.89 6.44 12.76
12/12/2021 10:00:00 AM 4.8 40.64 0.071 6.9 6.22 12.78
12/12/2021 10:15:00 AM 4.79 40.622 0.07 6.9 6.08 12.81
12/12/2021 10:30:00 AM 4.78 40.604 0.07 6.9 5.92 12.82
12/12/2021 10:45:00 AM 4.76 40.568 0.07 6.9 5.8 12.84
12/12/2021 11:00:00 AM 4.75 40.55 0.07 6.91 5.55 12.85
12/12/2021 11:15:00 AM 4.74 40.532 0.069 6.91 5.32 12.86
12/12/2021 11:30:00 AM 4.73 40.514 0.069 6.91 5.13 12.87
12/12/2021 11:45:00 AM 4.73 40.514 0.069 6.91 4.99 12.89
12/12/2021 12:00:00 PM 4.74 40.532 0.069 6.91 4.93 12.89
12/12/2021 12:15:00 PM 4.76 40.568 0.069 6.92 4.6 12.9
12/12/2021 12:30:00 PM 4.77 40.586 0.068 6.92 4.48 12.91
12/12/2021 12:45:00 PM 4.79 40.622 0.068 6.92 4.35 12.92
12/12/2021 1:00:00 PM 4.81 40.658 0.068 6.91 4.4 12.91
12/12/2021 1:15:00 PM 4.82 40.676 0.068 6.92 4.21 12.91
12/12/2021 1:30:00 PM 4.84 40.712 0.068 6.92 4.27 12.91
12/12/2021 1:45:00 PM 4.86 40.748 0.067 6.93 4.12 12.91
12/12/2021 2:00:00 PM 4.88 40.784 0.067 6.93 4.76 12.9
12/12/2021 2:15:00 PM 4.9 40.82 0.067 6.93 3.89 12.9
12/12/2021 2:30:00 PM 4.93 40.874 0.067 6.93 3.83 12.87
12/12/2021 2:45:00 PM 4.95 40.91 0.067 6.92 3.85 12.86
12/12/2021 3:00:00 PM 4.96 40.928 0.067 6.92 3.67 12.86
12/12/2021 3:15:00 PM 4.97 40.946 0.066 6.92 3.58 12.84
12/12/2021 3:30:00 PM 4.96 40.928 0.066 6.92 3.6 12.83
12/12/2021 3:45:00 PM 4.96 40.928 0.066 6.91 3.57 12.81
12/12/2021 4:00:00 PM 4.95 40.91 0.066 6.91 3.57 12.81
12/12/2021 4:15:00 PM 4.92 40.856 0.066 6.9 3.47 12.79
12/12/2021 4:30:00 PM 4.89 40.802 0.065 6.89 3.39 12.77
12/12/2021 4:45:00 PM 4.86 40.748 0.065 6.89 3.4 12.75
12/12/2021 5:00:00 PM 4.82 40.676 0.065 6.88 3.48 12.73
12/12/2021 5:15:00 PM 4.77 40.586 0.065 6.87 3.32 12.72
12/12/2021 5:30:00 PM 4.73 40.514 0.065 6.86 3.37 12.71
12/12/2021 5:45:00 PM 4.68 40.424 0.064 6.86 238.08 12.7
12/12/2021 6:00:00 PM 4.64 40.352 0.064 6.84 3.34 12.7
12/12/2021 6:15:00 PM 4.59 40.262 0.064 6.84 3.44 12.7
12/12/2021 6:30:00 PM 4.55 40.19 0.064 6.83 3.19 12.7
12/12/2021 6:45:00 PM 4.51 40.118 0.064 6.83 3.17 12.71
12/12/2021 7:00:00 PM 4.47 40.046 0.064 6.82 3.08 12.71
12/12/2021 7:15:00 PM 4.43 39.974 0.064 6.81 3.06 12.72
12/12/2021 7:30:00 PM 4.39 39.902 0.064 6.8 2.76 12.72
12/12/2021 7:45:00 PM 4.36 39.848 0.064 6.8 70.45 12.73
12/12/2021 8:00:00 PM 4.33 39.794 0.064 6.81 2125.28 12.74
12/12/2021 8:15:00 PM 4.3 39.74 0.064 6.79 3.41 12.74
12/12/2021 8:30:00 PM 4.27 39.686 0.063 6.8 418.6 12.75
12/12/2021 8:45:00 PM 4.24 39.632 0.063 6.8 21.57 12.76
12/12/2021 9:00:00 PM 4.21 39.578 0.063 6.8 24.17 12.77
12/12/2021 9:15:00 PM 4.19 39.542 0.063 6.8 101.07 12.78
12/12/2021 9:30:00 PM 4.15 39.47 0.063 6.8 731.89 12.8
12/12/2021 9:45:00 PM 4.12 39.416 0.063 6.8 50.02 12.81
12/12/2021 10:00:00 PM 4.09 39.362 0.063 6.8 52.11 12.82
12/12/2021 10:15:00 PM 4.06 39.308 0.063 6.79 188.95 12.82
12/12/2021 10:30:00 PM 4.03 39.254 0.062 6.78 110.14 12.83
12/12/2021 10:45:00 PM 4 39.2 0.063 6.78 118.44 12.84
12/12/2021 11:00:00 PM 3.97 39.146 0.062 6.79 166.29 12.85
12/12/2021 11:15:00 PM 3.95 39.11 0.062 6.79 364.75 12.86
12/12/2021 11:30:00 PM 3.93 39.074 0.062 6.79 158.2 12.86
12/12/2021 11:45:00 PM 3.91 39.038 0.062 6.78 108.1 12.86
12/13/2021 12:00:00 AM 3.9 39.02 0.062 6.78 274.34 12.88
12/13/2021 12:15:00 AM 3.89 39.002 0.062 6.78 158.1 12.88
12/13/2021 12:30:00 AM 3.87 38.966 0.062 6.78 172.72 12.89
12/13/2021 12:45:00 AM 3.85 38.93 0.062 6.78 224.23 12.91
12/13/2021 1:00:00 AM 3.83 38.894 0.061 6.78 91.11 12.91
12/13/2021 1:15:00 AM 3.81 38.858 0.062 6.79 106.73 12.92
12/13/2021 1:30:00 AM 3.79 38.822 0.061 6.79 74.46 12.93
12/13/2021 1:45:00 AM 3.76 38.768 0.061 6.78 49.6 12.95
12/13/2021 2:00:00 AM 3.74 38.732 0.061 6.78 383.5 12.95
12/13/2021 2:15:00 AM 3.71 38.678 0.061 6.78 233.79 12.96
12/13/2021 2:30:00 AM 3.69 38.642 0.061 6.78 105.38 12.97
12/13/2021 2:45:00 AM 3.67 38.606 0.061 6.78 156.23 12.98
12/13/2021 3:00:00 AM 3.66 38.588 0.061 6.78 116.81 12.99
12/13/2021 3:15:00 AM 3.64 38.552 0.061 6.78 34.68 12.99
12/13/2021 3:30:00 AM 3.63 38.534 0.061 6.78 63.45 13
12/13/2021 3:45:00 AM 3.62 38.516 0.061 6.77 31.04 13.01
12/13/2021 4:00:00 AM 3.61 38.498 0.061 6.77 138.17 13.01
12/13/2021 4:15:00 AM 3.59 38.462 0.061 6.77 129.44 13.02
12/13/2021 4:30:00 AM 3.57 38.426 0.061 6.77 46.44 13.03
12/13/2021 4:45:00 AM 3.55 38.39 0.061 6.77 222.11 13.04
12/13/2021 5:00:00 AM 3.52 38.336 0.061 6.77 190.73 13.05
12/13/2021 5:15:00 AM 3.49 38.282 0.06 6.78 951.63 13.06
12/13/2021 5:30:00 AM 3.47 38.246 0.06 6.77 170.07 13.06
12/13/2021 5:45:00 AM 3.45 38.21 0.06 6.76 266.72 13.07
12/13/2021 6:00:00 AM 3.42 38.156 0.06 6.76 221.67 13.09
12/13/2021 6:15:00 AM 3.4 38.12 0.06 6.76 265.72 13.1
12/13/2021 6:30:00 AM 3.38 38.084 0.06 6.76 240.7 13.11
12/13/2021 6:45:00 AM 3.35 38.03 0.06 6.76 176.02 13.11
12/13/2021 7:00:00 AM 3.33 37.994 0.06 6.75 114.52 13.12
12/13/2021 7:15:00 AM 3.31 37.958 0.06 6.75 219.84 13.13
12/13/2021 7:30:00 AM 3.28 37.904 0.06 6.75 205.79 13.14
12/13/2021 7:45:00 AM 3.26 37.868 0.06 6.75 128.51 13.16
12/13/2021 8:00:00 AM 3.24 37.832 0.06 6.76 66.07 13.19
12/13/2021 8:15:00 AM 3.23 37.814 0.06 6.75 76.21 13.21
12/13/2021 8:30:00 AM 3.21 37.778 0.059 6.76 255.59 13.24
12/13/2021 8:45:00 AM 3.2 37.76 0.059 6.76 31.07 13.26
12/13/2021 9:00:00 AM 3.18 37.724 0.059 6.77 30.1 13.29
12/13/2021 9:15:00 AM 3.18 37.724 0.059 6.77 308.93 13.31
12/13/2021 9:30:00 AM 3.17 37.706 0.059 6.78 218.03 13.34
12/13/2021 9:45:00 AM 3.17 37.706 0.059 6.79 185.06 13.36
12/13/2021 10:00:00 AM 3.17 37.706 0.059 6.79 339.27 13.38
12/13/2021 10:15:00 AM 3.19 37.742 0.059 6.8 111.02 13.39
12/13/2021 10:30:00 AM 3.21 37.778 0.059 6.81 194.41 13.41
12/13/2021 10:45:00 AM 3.24 37.832 0.059 6.81 501.72 13.42
12/13/2021 11:00:00 AM 3.27 37.886 0.059 6.82 281.68 13.43
12/13/2021 11:15:00 AM 3.3 37.94 0.058 6.82 327.18 13.43
12/13/2021 11:30:00 AM 3.34 38.012 0.058 6.82 205.89 13.44
12/13/2021 11:45:00 AM 3.38 38.084 0.059 6.83 290.75 13.44
12/13/2021 12:00:00 PM 3.44 38.192 0.058 6.84 105.98 13.44
12/13/2021 12:15:00 PM 3.5 38.3 0.058 6.84 106.19 13.43
12/13/2021 12:30:00 PM 3.57 38.426 0.058 6.84 337.02 13.41
12/13/2021 12:45:00 PM 3.64 38.552 0.058 6.85 254.17 13.4
12/13/2021 1:00:00 PM 3.71 38.678 0.058 6.85 251.53 13.37
12/13/2021 1:15:00 PM 3.79 38.822 0.058 6.85 355.95 13.35
12/13/2021 1:30:00 PM 3.86 38.948 0.058 6.86 441.41 13.32
12/13/2021 1:45:00 PM 3.94 39.092 0.058 6.86 701.39 13.3
12/13/2021 2:00:00 PM 4 39.2 0.058 6.86 176.2 13.28
12/13/2021 2:15:00 PM 4.06 39.308 0.058 6.87 475.51 13.26
12/13/2021 2:30:00 PM 4.11 39.398 0.057 6.87 512.93 13.23
12/13/2021 2:45:00 PM 4.15 39.47 0.058 6.87 388.41 13.21
12/13/2021 3:00:00 PM 4.19 39.542 0.058 6.87 387.07 13.18
12/13/2021 3:15:00 PM 4.22 39.596 0.058 6.87 337.39 13.16
12/13/2021 3:30:00 PM 4.25 39.65 0.057 6.87 80.47 13.13
12/13/2021 3:45:00 PM 4.27 39.686 0.057 6.87 270.78 13.11
12/13/2021 4:00:00 PM 4.28 39.704 0.057 6.86 572.86 13.09
12/13/2021 4:15:00 PM 4.28 39.704 0.058 6.86 167.08 13.07
12/13/2021 4:30:00 PM 4.28 39.704 0.057 6.85 147.1 13.05
12/13/2021 4:45:00 PM 4.26 39.668 0.057 6.85 107.01 13.02
12/13/2021 5:00:00 PM 4.24 39.632 0.057 6.85 784.24 12.99
12/13/2021 5:15:00 PM 4.22 39.596 0.057 6.83 726.04 12.97
12/13/2021 5:30:00 PM 4.19 39.542 0.057 6.82 412.75 12.95
12/13/2021 5:45:00 PM 4.16 39.488 0.057 6.82 207.42 12.94
12/13/2021 6:00:00 PM 4.12 39.416 0.058 6.81 347.28 12.93
12/13/2021 6:15:00 PM 4.09 39.362 0.057 6.8 400.5 12.92
12/13/2021 6:30:00 PM 4.05 39.29 0.057 6.8 201.78 12.92
12/13/2021 6:45:00 PM 4.02 39.236 0.057 6.79 773 12.92
12/13/2021 7:00:00 PM 3.99 39.182 0.057 6.8 1142.93 12.93
12/13/2021 7:15:00 PM 3.96 39.128 0.057 6.78 886.81 12.93
12/13/2021 7:30:00 PM 3.94 39.092 0.058 6.77 243.31 12.94
12/13/2021 7:45:00 PM 3.91 39.038 0.057 6.77 675.22 12.94
12/13/2021 8:00:00 PM 3.89 39.002 0.057 6.77 649.09 12.93
12/13/2021 8:15:00 PM 3.86 38.948 0.058 6.77 693.76 12.94
12/13/2021 8:30:00 PM 3.85 38.93 0.057 6.77 289.67 12.95
12/13/2021 8:45:00 PM 3.83 38.894 0.057 6.77 553.21 12.95
12/13/2021 9:00:00 PM 3.81 38.858 0.057 6.77 307.7 12.95
12/13/2021 9:15:00 PM 3.79 38.822 0.057 6.77 123.95 12.97
12/13/2021 9:30:00 PM 3.77 38.786 0.058 6.77 114.85 12.97
12/13/2021 9:45:00 PM 3.75 38.75 0.057 6.77 274.35 12.97
12/13/2021 10:00:00 PM 3.73 38.714 0.057 6.77 467.3 12.98
12/13/2021 10:15:00 PM 3.7 38.66 0.057 6.77 199.3 12.99
12/13/2021 10:30:00 PM 3.68 38.624 0.057 6.77 188.14 13.01
12/13/2021 10:45:00 PM 3.66 38.588 0.057 6.77 359.82 13.02
12/13/2021 11:00:00 PM 3.64 38.552 0.057 6.77 636.56 13.02
12/13/2021 11:15:00 PM 3.62 38.516 0.058 6.77 435.85 13.03
12/13/2021 11:30:00 PM 3.6 38.48 0.057 6.77 1354.46 13.04
12/13/2021 11:45:00 PM 3.58 38.444 0.057 6.76 1522.33 13.05
12/14/2021 12:00:00 AM 3.56 38.408 0.057 6.76 1320.71 13.05
12/14/2021 12:15:00 AM 3.55 38.39 0.057 6.76 1477.64 13.06
12/14/2021 12:30:00 AM 3.53 38.354 0.057 6.76 1036.71 13.08
12/14/2021 12:45:00 AM 3.51 38.318 0.057 6.76 1099.76 13.08
12/14/2021 1:00:00 AM 3.49 38.282 0.057 6.76 1118.97 13.09
12/14/2021 1:15:00 AM 3.47 38.246 0.057 6.76 1084.46 13.09
12/14/2021 1:30:00 AM 3.45 38.21 0.057 6.76 1080.11 13.11
12/14/2021 1:45:00 AM 3.42 38.156 0.057 6.75 1088.16 13.12
12/14/2021 2:00:00 AM 3.4 38.12 0.057 6.75 1274.42 13.12
12/14/2021 2:15:00 AM 3.37 38.066 0.057 6.75 1380.4 13.14
12/14/2021 2:30:00 AM 3.35 38.03 0.057 6.75 1832.81 13.15
12/14/2021 2:45:00 AM 3.32 37.976 0.057 6.75 1183.89 13.16
12/14/2021 3:00:00 AM 3.29 37.922 0.057 6.75 1424.36 13.17
12/14/2021 3:15:00 AM 3.26 37.868 0.057 6.75 1191.75 13.18
12/14/2021 3:30:00 AM 3.23 37.814 0.057 6.75 870.07 13.2
12/14/2021 3:45:00 AM 3.2 37.76 0.057 6.75 1228.31 13.2
12/14/2021 4:00:00 AM 3.17 37.706 0.057 6.75 635.81 13.22
12/14/2021 4:15:00 AM 3.15 37.67 0.058 6.75 1514.74 13.23
12/14/2021 4:30:00 AM 3.12 37.616 0.057 6.75 845.73 13.25
12/14/2021 4:45:00 AM 3.08 37.544 0.058 6.75 1306.24 13.26
12/14/2021 5:00:00 AM 3.06 37.508 0.057 6.75 1279.98 13.27
12/14/2021 5:15:00 AM 3.03 37.454 0.057 6.74 1105.76 13.29
12/14/2021 5:30:00 AM 3 37.4 0.058 6.74 875.9 13.3
12/14/2021 5:45:00 AM 2.96 37.328 0.057 6.74 1234.83 13.32
12/14/2021 6:00:00 AM 2.94 37.292 0.057 6.74 428.17 13.32
12/14/2021 6:15:00 AM 2.9 37.22 0.057 6.74 803.71 13.33
12/14/2021 6:30:00 AM 2.87 37.166 0.057 6.74 643.48 13.35
12/14/2021 6:45:00 AM 2.84 37.112 0.057 6.74 772.15 13.36
12/14/2021 7:00:00 AM 2.81 37.058 0.057 6.73 1114.1 13.38
12/14/2021 7:15:00 AM 2.78 37.004 0.057 6.73 957.53 13.39
12/14/2021 7:30:00 AM 2.75 36.95 0.057 6.73 1026.15 13.4
12/14/2021 7:45:00 AM 2.72 36.896 0.057 6.73 649.29 13.43
12/14/2021 8:00:00 AM 2.7 36.86 0.057 6.73 1915.65 13.47
12/14/2021 8:15:00 AM 2.67 36.806 0.057 6.74 382.34 13.5
12/14/2021 8:30:00 AM 2.65 36.77 0.057 6.74 748.67 13.53
12/14/2021 8:45:00 AM 2.64 36.752 0.057 6.75 1415.71 13.57
12/14/2021 9:00:00 AM 2.62 36.716 0.057 6.76 1.4 13.61
12/14/2021 9:15:00 AM 2.61 36.698 0.057 6.75 1.3 13.64
12/14/2021 9:30:00 AM 2.61 36.698 0.057 6.76 1.37 13.67
12/14/2021 9:45:00 AM 2.6 36.68 0.057 6.77 1.32 13.7
12/14/2021 10:00:00 AM 2.61 36.698 0.057 6.78 1.26 13.73
12/14/2021 10:15:00 AM 2.62 36.716 0.057 6.78 1.19 13.75
12/14/2021 10:30:00 AM 2.64 36.752 0.057 6.78 1.11 13.77
12/14/2021 10:45:00 AM 2.66 36.788 0.057 6.79 1.14 13.78
12/14/2021 11:00:00 AM 2.68 36.824 0.057 6.8 1.19 13.79
12/14/2021 11:15:00 AM 2.71 36.878 0.057 6.79 1.1 13.79
12/14/2021 11:30:00 AM 2.74 36.932 0.057 6.79 1.09 13.8
12/14/2021 11:45:00 AM 2.79 37.022 0.057 6.8 1.21 13.8
12/14/2021 12:00:00 PM 2.84 37.112 0.057 6.81 0.97 13.79
12/14/2021 12:15:00 PM 2.9 37.22 0.057 6.82 0.95 13.79
12/14/2021 12:30:00 PM 2.96 37.328 0.057 6.83 0.96 13.78
12/14/2021 12:45:00 PM 3.03 37.454 0.057 6.83 0.98 13.76
12/14/2021 1:00:00 PM 3.11 37.598 0.057 6.84 0.97 13.74
12/14/2021 1:15:00 PM 3.18 37.724 0.057 6.84 0.88 13.71
12/14/2021 1:30:00 PM 3.26 37.868 0.057 6.84 0.9 13.69
12/14/2021 1:45:00 PM 3.33 37.994 0.056 6.85 0.94 13.67
12/14/2021 2:00:00 PM 3.4 38.12 0.056 6.85 0.89 13.64
12/14/2021 2:15:00 PM 3.46 38.228 0.056 6.86 0.96 13.61
12/14/2021 2:30:00 PM 3.52 38.336 0.056 6.86 0.86 13.59
12/14/2021 2:45:00 PM 3.57 38.426 0.057 6.87 0.91 13.55
12/14/2021 3:00:00 PM 3.62 38.516 0.057 6.87 0.91 13.52
12/14/2021 3:15:00 PM 3.65 38.57 0.057 6.87 0.89 13.5
12/14/2021 3:30:00 PM 3.68 38.624 0.057 6.87 0.91 13.47
12/14/2021 3:45:00 PM 3.71 38.678 0.057 6.87 0.87 13.46
12/14/2021 4:00:00 PM 3.73 38.714 0.057 6.86 0.87 13.45
12/14/2021 4:15:00 PM 3.74 38.732 0.057 6.86 0.98 13.42
12/14/2021 4:30:00 PM 3.74 38.732 0.057 6.86 0.94 13.39
12/14/2021 4:45:00 PM 3.73 38.714 0.057 6.85 0.87 13.36
12/14/2021 5:00:00 PM 3.71 38.678 0.057 6.84 0.86 13.33
12/14/2021 5:15:00 PM 3.68 38.624 0.057 6.83 0.89 13.3
12/14/2021 5:30:00 PM 3.66 38.588 0.057 6.83 1.09 13.29
12/14/2021 5:45:00 PM 3.63 38.534 0.057 6.82 0.97 13.27
12/14/2021 6:00:00 PM 3.59 38.462 0.057 6.81 0.98 13.25
12/14/2021 6:15:00 PM 3.56 38.408 0.057 6.81 1.01 13.26
12/14/2021 6:30:00 PM 3.53 38.354 0.057 6.8 0.97 13.24
12/14/2021 6:45:00 PM 3.51 38.318 0.057 6.79 0.99 13.24
12/14/2021 7:00:00 PM 3.48 38.264 0.057 6.79 0.97 13.24
12/14/2021 7:15:00 PM 3.46 38.228 0.057 6.78 1.09 13.24
12/14/2021 7:30:00 PM 3.44 38.192 0.057 6.78 1.07 13.24
12/14/2021 7:45:00 PM 3.42 38.156 0.057 6.77 1.01 13.24
12/14/2021 8:00:00 PM 3.4 38.12 0.057 6.77 1.06 13.25
12/14/2021 8:15:00 PM 3.39 38.102 0.057 6.77 1.01 13.25
12/14/2021 8:30:00 PM 3.37 38.066 0.057 6.77 1.06 13.25
12/14/2021 8:45:00 PM 3.36 38.048 0.057 6.77 0.93 13.26
12/14/2021 9:00:00 PM 3.34 38.012 0.057 6.76 1.07 13.26
12/14/2021 9:15:00 PM 3.33 37.994 0.057 6.76 0.97 13.26
12/14/2021 9:30:00 PM 3.31 37.958 0.057 6.76 0.97 13.27
12/14/2021 9:45:00 PM 3.29 37.922 0.057 6.75 1.05 13.28
12/14/2021 10:00:00 PM 3.27 37.886 0.057 6.75 0.93 13.28
12/14/2021 10:15:00 PM 3.25 37.85 0.057 6.75 1.01 13.29
12/14/2021 10:30:00 PM 3.24 37.832 0.057 6.75 0.97 13.29
12/14/2021 10:45:00 PM 3.23 37.814 0.057 6.75 1 13.29
12/14/2021 11:00:00 PM 3.22 37.796 0.057 6.75 0.9 13.3
12/14/2021 11:15:00 PM 3.2 37.76 0.057 6.75 0.98 13.31
12/14/2021 11:30:00 PM 3.19 37.742 0.057 6.74 0.89 13.31
12/14/2021 11:45:00 PM 3.18 37.724 0.057 6.74 0.97 13.31
12/15/2021 12:00:00 AM 3.17 37.706 0.057 6.75 0.92 13.31
12/15/2021 12:15:00 AM 3.16 37.688 0.057 6.74 0.92 13.32
12/15/2021 12:30:00 AM 3.15 37.67 0.057 6.74 0.98 13.32
12/15/2021 12:45:00 AM 3.14 37.652 0.057 6.74 0.89 13.32
12/15/2021 1:00:00 AM 3.12 37.616 0.057 6.73 0.89 13.32
12/15/2021 1:15:00 AM 3.11 37.598 0.057 6.74 0.92 13.32
12/15/2021 1:30:00 AM 3.1 37.58 0.057 6.74 0.85 13.33
12/15/2021 1:45:00 AM 3.08 37.544 0.057 6.74 0.91 13.33
12/15/2021 2:00:00 AM 3.06 37.508 0.057 6.74 0.9 13.33
12/15/2021 2:15:00 AM 3.05 37.49 0.057 6.74 0.91 13.33
12/15/2021 2:30:00 AM 3.03 37.454 0.057 6.74 0.9 13.34
12/15/2021 2:45:00 AM 3.01 37.418 0.057 6.74 1 13.35
12/15/2021 3:00:00 AM 2.99 37.382 0.057 6.74 0.94 13.35
12/15/2021 3:15:00 AM 2.97 37.346 0.057 6.74 0.91 13.36
12/15/2021 3:30:00 AM 2.95 37.31 0.057 6.74 1.03 13.37
12/15/2021 3:45:00 AM 2.92 37.256 0.057 6.74 0.97 13.37
12/15/2021 4:00:00 AM 2.9 37.22 0.057 6.74 0.94 13.38
12/15/2021 4:15:00 AM 2.88 37.184 0.057 6.74 0.95 13.39
12/15/2021 4:30:00 AM 2.86 37.148 0.057 6.74 0.86 13.4
12/15/2021 4:45:00 AM 2.84 37.112 0.057 6.74 0.93 13.41
12/15/2021 5:00:00 AM 2.83 37.094 0.057 6.74 0.89 13.42
12/15/2021 5:15:00 AM 2.83 37.094 0.057 6.74 0.91 13.42
12/15/2021 5:30:00 AM 2.83 37.094 0.057 6.74 0.94 13.43
12/15/2021 5:45:00 AM 2.82 37.076 0.057 6.74 1.03 13.43
12/15/2021 6:00:00 AM 2.8 37.04 0.057 6.73 0.93 13.44
12/15/2021 6:15:00 AM 2.79 37.022 0.057 6.74 0.94 13.44
12/15/2021 6:30:00 AM 2.78 37.004 0.057 6.73 0.87 13.44
12/15/2021 6:45:00 AM 2.76 36.968 0.057 6.73 0.9 13.45
12/15/2021 7:00:00 AM 2.75 36.95 0.057 6.73 0.85 13.46
12/15/2021 7:15:00 AM 2.75 36.95 0.057 6.73 0.82 13.46
12/15/2021 7:30:00 AM 2.75 36.95 0.057 6.73 0.87 13.46
12/15/2021 7:45:00 AM 2.75 36.95 0.057 6.73 0.87 13.48
12/15/2021 8:00:00 AM 2.75 36.95 0.058 6.74 0.84 13.5
12/15/2021 8:15:00 AM 2.76 36.968 0.057 6.74 0.79 13.53
12/15/2021 8:30:00 AM 2.78 37.004 0.057 6.75 0.77 13.56
12/15/2021 8:45:00 AM 2.8 37.04 0.057 6.76 0.79 13.59
12/15/2021 9:00:00 AM 2.83 37.094 0.057 6.77 0.74 13.6
12/15/2021 9:15:00 AM 2.86 37.148 0.057 6.78 0.7 13.63
12/15/2021 9:30:00 AM 2.9 37.22 0.057 6.78 0.73 13.65
12/15/2021 9:45:00 AM 2.93 37.274 0.057 6.79 0.71 13.66
12/15/2021 10:00:00 AM 2.98 37.364 0.057 6.8 0.73 13.67
12/15/2021 10:15:00 AM 3.03 37.454 0.057 6.81 0.71 13.68
12/15/2021 10:30:00 AM 3.09 37.562 0.057 6.82 0.71 13.69
12/15/2021 10:45:00 AM 3.15 37.67 0.057 6.82 0.7 13.69
12/15/2021 11:00:00 AM 3.22 37.796 0.057 6.84 0.74 13.69
12/15/2021 11:15:00 AM 3.27 37.886 0.057 6.84 0.77 13.68
12/15/2021 11:30:00 AM 3.33 37.994 0.057 6.85 0.74 13.67
12/15/2021 11:45:00 AM 3.39 38.102 0.057 6.86 0.67 13.66
12/15/2021 12:00:00 PM 3.45 38.21 0.057 6.86 0.63 13.64
12/15/2021 12:15:00 PM 3.51 38.318 0.057 6.87 0.64 13.63
12/15/2021 12:30:00 PM 3.56 38.408 0.057 6.87 0.63 13.6
12/15/2021 12:45:00 PM 3.62 38.516 0.057 6.87 0.65 13.58
12/15/2021 1:00:00 PM 3.67 38.606 0.057 6.88 0.67 13.56
12/15/2021 1:15:00 PM 3.73 38.714 0.057 6.88 0.64 13.53
12/15/2021 1:30:00 PM 3.77 38.786 0.057 6.88 0.65 13.51
12/15/2021 1:45:00 PM 3.81 38.858 0.057 6.88 0.63 13.49
12/15/2021 2:00:00 PM 3.85 38.93 0.057 6.87 0.66 13.45
12/15/2021 2:15:00 PM 3.9 39.02 0.057 6.87 0.71 13.44
12/15/2021 2:30:00 PM 3.94 39.092 0.057 6.88 0.65 13.41
12/15/2021 2:45:00 PM 3.98 39.164 0.057 6.88 0.7 13.39
12/15/2021 3:00:00 PM 4.03 39.254 0.057 6.88 0.64 13.38
12/15/2021 3:15:00 PM 4.08 39.344 0.057 6.88 0.63 13.36
12/15/2021 3:30:00 PM 4.11 39.398 0.057 6.87 0.68 13.31
12/15/2021 3:45:00 PM 4.14 39.452 0.057 6.86 0.71 13.26
12/15/2021 4:00:00 PM 4.17 39.506 0.057 6.85 0.62 13.21
12/15/2021 4:15:00 PM 4.2 39.56 0.057 6.85 0.71 13.16
12/15/2021 4:30:00 PM 4.23 39.614 0.057 6.84 0.71 13.11
12/15/2021 4:45:00 PM 4.25 39.65 0.057 6.83 0.7 13.08
12/15/2021 5:00:00 PM 4.27 39.686 0.057 6.82 0.67 13.04
12/15/2021 5:15:00 PM 4.29 39.722 0.057 6.81 0.75 13
12/15/2021 5:30:00 PM 4.31 39.758 0.058 6.8 0.81 12.97
12/15/2021 5:45:00 PM 4.33 39.794 0.058 6.8 0.77 12.94
12/15/2021 6:00:00 PM 4.36 39.848 0.058 6.79 0.75 12.91
12/15/2021 6:15:00 PM 4.38 39.884 0.058 6.79 0.77 12.89
12/15/2021 6:30:00 PM 4.4 39.92 0.057 6.78 0.78 12.87
12/15/2021 6:45:00 PM 4.42 39.956 0.057 6.78 0.87 12.85
12/15/2021 7:00:00 PM 4.44 39.992 0.057 6.78 0.82 12.83
12/15/2021 7:15:00 PM 4.46 40.028 0.057 6.77 0.79 12.81
12/15/2021 7:30:00 PM 4.49 40.082 0.057 6.77 0.78 12.8
12/15/2021 7:45:00 PM 4.51 40.118 0.058 6.77 0.72 12.79
12/15/2021 8:00:00 PM 4.54 40.172 0.057 6.76 0.85 12.78
12/15/2021 8:15:00 PM 4.56 40.208 0.058 6.76 0.84 12.76
12/15/2021 8:30:00 PM 4.58 40.244 0.057 6.76 0.87 12.75
12/15/2021 8:45:00 PM 4.61 40.298 0.057 6.76 0.83 12.73
12/15/2021 9:00:00 PM 4.64 40.352 0.057 6.75 0.87 12.72
12/15/2021 9:15:00 PM 4.66 40.388 0.057 6.75 0.86 12.71
12/15/2021 9:30:00 PM 4.69 40.442 0.057 6.75 0.77 12.69
12/15/2021 9:45:00 PM 4.71 40.478 0.057 6.75 0.81 12.68
12/15/2021 10:00:00 PM 4.73 40.514 0.057 6.75 0.83 12.67
12/15/2021 10:15:00 PM 4.76 40.568 0.057 6.75 0.97 12.66
12/15/2021 10:30:00 PM 4.77 40.586 0.057 6.75 0.82 12.64
12/15/2021 10:45:00 PM 4.8 40.64 0.057 6.75 0.93 12.64
12/15/2021 11:00:00 PM 4.82 40.676 0.057 6.74 0.84 12.63
12/15/2021 11:15:00 PM 4.84 40.712 0.057 6.74 0.88 12.62
12/15/2021 11:30:00 PM 4.86 40.748 0.057 6.74 0.87 12.6
12/15/2021 11:45:00 PM 4.88 40.784 0.058 6.74 0.81 12.6
12/16/2021 12:00:00 AM 4.9 40.82 0.058 6.74 0.8 12.59
12/16/2021 12:15:00 AM 4.92 40.856 0.057 6.74 0.83 12.58
12/16/2021 12:30:00 AM 4.94 40.892 0.057 6.74 0.81 12.56
12/16/2021 12:45:00 AM 4.96 40.928 0.058 6.74 0.83 12.56
12/16/2021 1:00:00 AM 4.97 40.946 0.058 6.74 0.81 12.55
12/16/2021 1:15:00 AM 4.99 40.982 0.057 6.74 0.85 12.53
12/16/2021 1:30:00 AM 5.01 41.018 0.057 6.74 0.83 12.53
12/16/2021 1:45:00 AM 5.03 41.054 0.058 6.74 0.81 12.51
12/16/2021 2:00:00 AM 5.05 41.09 0.057 6.74 0.87 12.51
12/16/2021 2:15:00 AM 5.06 41.108 0.057 6.74 0.77 12.5
12/16/2021 2:30:00 AM 5.07 41.126 0.057 6.74 0.81 12.5
12/16/2021 2:45:00 AM 5.08 41.144 0.057 6.74 0.76 12.49
12/16/2021 3:00:00 AM 5.1 41.18 0.057 6.74 0.76 12.48
12/16/2021 3:15:00 AM 5.1 41.18 0.057 6.74 0.91 12.48
12/16/2021 3:30:00 AM 5.11 41.198 0.057 6.74 0.86 12.47
12/16/2021 3:45:00 AM 5.12 41.216 0.057 6.74 0.86 12.47
12/16/2021 4:00:00 AM 5.12 41.216 0.057 6.74 0.83 12.46
12/16/2021 4:15:00 AM 5.12 41.216 0.057 6.73 1.1 12.46
12/16/2021 4:30:00 AM 5.12 41.216 0.057 6.74 0.86 12.46
12/16/2021 4:45:00 AM 5.12 41.216 0.057 6.74 0.86 12.45
12/16/2021 5:00:00 AM 5.11 41.198 0.057 6.74 0.83 12.45
12/16/2021 5:15:00 AM 5.1 41.18 0.058 6.74 0.81 12.45
12/16/2021 5:30:00 AM 5.08 41.144 0.057 6.74 0.84 12.45
12/16/2021 5:45:00 AM 5.06 41.108 0.056 6.74 0.9 12.46
12/16/2021 6:00:00 AM 5.05 41.09 0.051 6.74 0.88 12.45
12/16/2021 6:15:00 AM 5.03 41.054 0.049 6.75 0.84 12.46
12/16/2021 6:30:00 AM 5.01 41.018 0.046 6.75 15.26 12.47
12/16/2021 6:45:00 AM 4.99 40.982 0.055 6.76 0.91 12.47
12/16/2021 7:00:00 AM 4.97 40.946 0.057 6.75 757.77 12.47
12/16/2021 7:15:00 AM 4.95 40.91 0.054 6.76 0.97 12.48
12/16/2021 7:30:00 AM 4.93 40.874 0.052 6.75 0.86 12.49
12/16/2021 7:45:00 AM 4.9 40.82 0.051 6.76 0.92 12.5
12/16/2021 8:00:00 AM 4.89 40.802 0.05 6.76 0.87 12.53
12/16/2021 8:15:00 AM 4.87 40.766 0.053 6.77 0.86 12.56
12/16/2021 8:30:00 AM 4.87 40.766 0.053 6.78 0.81 12.61
12/16/2021 8:45:00 AM 4.86 40.748 0.051 6.79 0.75 12.65
12/16/2021 9:00:00 AM 4.85 40.73 0.052 6.8 0.71 12.68
12/16/2021 9:15:00 AM 4.86 40.748 0.051 6.81 0.74 12.71
12/16/2021 9:30:00 AM 4.86 40.748 0.052 6.82 0.8 12.74
12/16/2021 9:45:00 AM 4.88 40.784 0.051 6.83 0.71 12.77
12/16/2021 10:00:00 AM 4.9 40.82 0.052 6.83 0.68 12.81
12/16/2021 10:15:00 AM 4.93 40.874 0.051 6.85 0.69 12.82
12/16/2021 10:30:00 AM 4.97 40.946 0.053 6.85 0.65 12.84
12/16/2021 10:45:00 AM 5.05 41.09 0.051 6.86 0.68 12.85
12/16/2021 11:00:00 AM 5.12 41.216 0.051 6.88 0.69 12.85
12/16/2021 11:15:00 AM 5.18 41.324 0.052 6.89 0.67 12.85
12/16/2021 11:30:00 AM 5.26 41.468 0.052 6.9 0.66 12.85
12/16/2021 11:45:00 AM 5.33 41.594 0.052 6.9 0.68 12.84
12/16/2021 12:00:00 PM 5.42 41.756 0.051 6.91 0.66 12.83
12/16/2021 12:15:00 PM 5.52 41.936 0.053 6.92 0.68 12.82
12/16/2021 12:30:00 PM 5.59 42.062 0.051 6.92 0.66 12.79
12/16/2021 12:45:00 PM 5.67 42.206 0.052 6.94 0.71 12.77
12/16/2021 1:00:00 PM 5.76 42.368 0.049 6.95 0.65 12.75
12/16/2021 1:15:00 PM 5.83 42.494 0.052 6.95 0.69 12.72
12/16/2021 1:30:00 PM 5.91 42.638 0.052 6.95 0.71 12.68
12/16/2021 1:45:00 PM 5.99 42.782 0.052 6.95 0.73 12.65
12/16/2021 2:00:00 PM 6.08 42.944 0.052 6.95 0.69 12.6
12/16/2021 2:15:00 PM 6.16 43.088 0.052 6.96 0.72 12.57
12/16/2021 2:30:00 PM 6.24 43.232 0.051 6.96 0.71 12.51
12/16/2021 2:45:00 PM 6.32 43.376 0.051 6.96 0.74 12.48
12/16/2021 3:00:00 PM 6.39 43.502 0.052 6.96 0.77 12.43
12/16/2021 3:15:00 PM 6.45 43.61 0.051 6.95 0.81 12.39
12/16/2021 3:30:00 PM 6.51 43.718 0.052 6.94 0.82 12.34
12/16/2021 3:45:00 PM 6.56 43.808 0.05 6.93 0.71 12.29
12/16/2021 4:00:00 PM 6.61 43.898 0.051 6.92 0.8 12.23
12/16/2021 4:15:00 PM 6.65 43.97 0.051 6.91 0.85 12.19
12/16/2021 4:30:00 PM 6.68 44.024 0.051 6.9 0.9 12.14
12/16/2021 4:45:00 PM 6.72 44.096 0.051 6.89 0.83 12.09
12/16/2021 5:00:00 PM 6.76 44.168 0.052 6.88 0.91 12.04
12/16/2021 5:15:00 PM 6.81 44.258 0.052 6.88 0.86 12
12/16/2021 5:30:00 PM 6.86 44.348 0.051 6.87 0.93 11.97
12/16/2021 5:45:00 PM 6.92 44.456 0.051 6.86 1.06 11.94
12/16/2021 6:00:00 PM 6.96 44.528 0.051 6.86 1.13 11.9
12/16/2021 6:15:00 PM 7.02 44.636 0.05 6.85 0.96 11.87
12/16/2021 6:30:00 PM 7.07 44.726 0.05 6.85 1.01 11.85
12/16/2021 6:45:00 PM 7.11 44.798 0.052 6.85 1.04 11.83
12/16/2021 7:00:00 PM 7.15 44.87 0.05 6.84 1.09 11.8
12/16/2021 7:15:00 PM 7.2 44.96 0.051 6.84 1.09 11.79
12/16/2021 7:30:00 PM 7.24 45.032 0.05 6.84 1.12 11.77
12/16/2021 7:45:00 PM 7.27 45.086 0.051 6.84 1.08 11.75
12/16/2021 8:00:00 PM 7.31 45.158 0.05 6.84 1.05 11.73
12/16/2021 8:15:00 PM 7.35 45.23 0.051 6.84 1.01 11.72
12/16/2021 8:30:00 PM 7.38 45.284 0.051 6.83 1.11 11.71
12/16/2021 8:45:00 PM 7.41 45.338 0.051 6.83 1.06 11.69
12/16/2021 9:00:00 PM 7.44 45.392 0.051 6.83 1.05 11.68
12/16/2021 9:15:00 PM 7.47 45.446 0.059 6.84 1.94 11.67
12/16/2021 9:30:00 PM 7.52 45.536 0.059 6.83 1.09 11.65
12/16/2021 9:45:00 PM 7.55 45.59 0.059 6.83 1.07 11.64
12/16/2021 10:00:00 PM 7.57 45.626 0.059 6.83 1.04 11.63
12/16/2021 10:15:00 PM 7.58 45.644 0.059 6.83 1.09 11.62
12/16/2021 10:30:00 PM 7.59 45.662 0.059 6.83 1.11 11.61
12/16/2021 10:45:00 PM 7.59 45.662 0.059 6.83 1.1 11.6
12/16/2021 11:00:00 PM 7.58 45.644 0.059 6.83 1.08 11.6
12/16/2021 11:15:00 PM 7.57 45.626 0.059 6.83 1.01 11.6
12/16/2021 11:30:00 PM 7.55 45.59 0.059 6.83 0.98 11.6
12/16/2021 11:45:00 PM 7.53 45.554 0.06 6.83 0.99 11.6
12/17/2021 12:00:00 AM 7.51 45.518 0.059 6.83 0.96 11.61
12/17/2021 12:15:00 AM 7.49 45.482 0.059 6.82 1.04 11.61
12/17/2021 12:30:00 AM 7.46 45.428 0.059 6.83 1.06 11.62
12/17/2021 12:45:00 AM 7.43 45.374 0.059 6.82 0.99 11.63
12/17/2021 1:00:00 AM 7.4 45.32 0.06 6.82 0.96 11.64
12/17/2021 1:15:00 AM 7.37 45.266 0.059 6.82 0.94 11.65
12/17/2021 1:30:00 AM 7.32 45.176 0.059 6.82 0.99 11.65
12/17/2021 1:45:00 AM 7.28 45.104 0.06 6.82 0.99 11.67
12/17/2021 2:00:00 AM 7.23 45.014 0.06 6.82 1.1 11.68
12/17/2021 2:15:00 AM 7.17 44.906 0.06 6.82 1.03 11.7
12/17/2021 2:30:00 AM 7.11 44.798 0.06 6.82 1.14 11.71
12/17/2021 2:45:00 AM 7.05 44.69 0.06 6.82 0.98 11.73
12/17/2021 3:00:00 AM 7 44.6 0.06 6.82 1.05 11.75
12/17/2021 3:15:00 AM 6.94 44.492 0.06 6.82 1.02 11.77
12/17/2021 3:30:00 AM 6.88 44.384 0.06 6.82 1 11.79
12/17/2021 3:45:00 AM 6.83 44.294 0.06 6.82 1.02 11.81
12/17/2021 4:00:00 AM 6.78 44.204 0.06 6.82 1.21 11.83
12/17/2021 4:15:00 AM 6.72 44.096 0.06 6.82 1.06 11.84
12/17/2021 4:30:00 AM 6.66 43.988 0.06 6.81 1.07 11.86
12/17/2021 4:45:00 AM 6.6 43.88 0.06 6.81 1.09 11.88
12/17/2021 5:00:00 AM 6.54 43.772 0.06 6.81 1.02 11.91
12/17/2021 5:15:00 AM 6.48 43.664 0.06 6.81 1 11.93
12/17/2021 5:30:00 AM 6.42 43.556 0.06 6.81 1.05 11.95
12/17/2021 5:45:00 AM 6.35 43.43 0.06 6.81 0.99 11.98
12/17/2021 6:00:00 AM 6.3 43.34 0.06 6.81 1.03 11.99
12/17/2021 6:15:00 AM 6.23 43.214 0.06 6.81 1.02 12.01
12/17/2021 6:30:00 AM 6.18 43.124 0.06 6.81 0.98 12.04
12/17/2021 6:45:00 AM 6.13 43.034 0.06 6.81 1 12.06
12/17/2021 7:00:00 AM 6.07 42.926 0.06 6.81 1.03 12.08
12/17/2021 7:15:00 AM 6.02 42.836 0.06 6.81 0.98 12.09
12/17/2021 7:30:00 AM 5.97 42.746 0.06 6.81 1.05 12.12
12/17/2021 7:45:00 AM 5.91 42.638 0.06 6.81 0.93 12.14
12/17/2021 8:00:00 AM 5.86 42.548 0.06 6.81 0.94 12.19
12/17/2021 8:15:00 AM 5.81 42.458 0.06 6.82 0.95 12.23
12/17/2021 8:30:00 AM 5.76 42.368 0.06 6.82 0.94 12.29
12/17/2021 8:45:00 AM 5.71 42.278 0.06 6.83 0.87 12.34
12/17/2021 9:00:00 AM 5.67 42.206 0.06 6.84 1.02 12.38
12/17/2021 9:15:00 AM 5.63 42.134 0.06 6.85 1.03 12.43
12/17/2021 9:30:00 AM 5.6 42.08 0.06 6.85 0.89 12.47
12/17/2021 9:45:00 AM 5.58 42.044 0.06 6.86 0.84 12.51
12/17/2021 10:00:00 AM 5.56 42.008 0.06 6.87 0.83 12.55
12/17/2021 10:15:00 AM 5.55 41.99 0.06 6.88 0.8 12.59
12/17/2021 10:30:00 AM 5.55 41.99 0.06 6.89 0.75 12.62
12/17/2021 10:45:00 AM 5.55 41.99 0.06 6.9 0.77 12.65
12/17/2021 11:00:00 AM 5.54 41.972 0.06 6.9 0.75 12.67
12/17/2021 11:15:00 AM 5.54 41.972 0.06 6.91 0.77 12.7
12/17/2021 11:30:00 AM 5.54 41.972 0.06 6.92 0.7 12.72
12/17/2021 11:45:00 AM 5.54 41.972 0.06 6.92 0.75 12.73
12/17/2021 12:00:00 PM 5.55 41.99 0.06 6.92 0.73 12.75
12/17/2021 12:15:00 PM 5.55 41.99 0.06 6.93 0.78 12.77
12/17/2021 12:30:00 PM 5.56 42.008 0.06 6.94 0.7 12.78
12/17/2021 12:45:00 PM 5.57 42.026 0.061 6.94 0.71 12.78
12/17/2021 1:00:00 PM 5.59 42.062 0.06 6.95 0.77 12.8
12/17/2021 1:15:00 PM 5.62 42.116 0.06 6.95 0.72 12.81
12/17/2021 1:30:00 PM 5.67 42.206 0.06 6.96 0.82 12.82
12/17/2021 1:45:00 PM 5.72 42.296 0.06 6.97 0.76 12.83
12/17/2021 2:00:00 PM 5.77 42.386 0.06 6.98 2153.76 12.84
12/17/2021 2:15:00 PM 5.82 42.476 0.06 6.99 0.73 12.83
12/17/2021 2:30:00 PM 5.87 42.566 0.06 6.99 0.71 12.83
12/17/2021 2:45:00 PM 5.91 42.638 0.06 7 0.71 12.82
12/17/2021 3:00:00 PM 5.94 42.692 0.06 7 0.79 12.79
12/17/2021 3:15:00 PM 5.97 42.746 0.061 7 0.74 12.78
12/17/2021 3:30:00 PM 5.99 42.782 0.06 7 0.73 12.76
12/17/2021 3:45:00 PM 6 42.8 0.06 6.99 0.84 12.73
12/17/2021 4:00:00 PM 5.99 42.782 0.061 6.99 0.74 12.71
12/17/2021 4:15:00 PM 5.98 42.764 0.061 6.98 0.76 12.66
12/17/2021 4:30:00 PM 5.95 42.71 0.061 6.96 0.79 12.61
12/17/2021 4:45:00 PM 5.92 42.656 0.061 6.94 0.82 12.54
12/17/2021 5:00:00 PM 5.88 42.584 0.061 6.93 0.82 12.5
12/17/2021 5:15:00 PM 5.84 42.512 0.062 6.91 0.89 12.46
12/17/2021 5:30:00 PM 5.8 42.44 0.061 6.9 0.89 12.45
12/17/2021 5:45:00 PM 5.75 42.35 0.062 6.89 0.96 12.43
12/17/2021 6:00:00 PM 5.7 42.26 0.062 6.87 0.84 12.42
12/17/2021 6:15:00 PM 5.66 42.188 0.062 6.87 0.9 12.41
12/17/2021 6:30:00 PM 5.61 42.098 0.063 6.86 0.92 12.4
12/17/2021 6:45:00 PM 5.55 41.99 0.063 6.85 0.97 12.41
12/17/2021 7:00:00 PM 5.5 41.9 0.062 6.84 0.92 12.41
12/17/2021 7:15:00 PM 5.45 41.81 0.063 6.84 0.86 12.42
12/17/2021 7:30:00 PM 5.41 41.738 0.062 6.84 0.91 12.42
12/17/2021 7:45:00 PM 5.36 41.648 0.062 6.83 0.93 12.43
12/17/2021 8:00:00 PM 5.32 41.576 0.063 6.83 0.87 12.44
12/17/2021 8:15:00 PM 5.28 41.504 0.062 6.83 0.93 12.45
12/17/2021 8:30:00 PM 5.24 41.432 0.063 6.82 0.9 12.45
12/17/2021 8:45:00 PM 5.2 41.36 0.063 6.82 0.85 12.46
12/17/2021 9:00:00 PM 5.17 41.306 0.063 6.82 0.9 12.47
12/17/2021 9:15:00 PM 5.14 41.252 0.063 6.82 0.85 12.48
12/17/2021 9:30:00 PM 5.11 41.198 0.063 6.82 0.86 12.49
12/17/2021 9:45:00 PM 5.08 41.144 0.063 6.82 0.8 12.5
12/17/2021 10:00:00 PM 5.06 41.108 0.063 6.82 0.85 12.51
12/17/2021 10:15:00 PM 5.03 41.054 0.063 6.82 0.83 12.52
12/17/2021 10:30:00 PM 5.01 41.018 0.063 6.82 0.8 12.52
12/17/2021 10:45:00 PM 4.99 40.982 0.063 6.82 0.87 12.53
12/17/2021 11:00:00 PM 4.97 40.946 0.063 6.82 0.79 12.54
12/17/2021 11:15:00 PM 4.95 40.91 0.063 6.82 0.82 12.55
12/17/2021 11:30:00 PM 4.93 40.874 0.063 6.82 0.77 12.56
12/17/2021 11:45:00 PM 4.9 40.82 0.063 6.81 0.76 12.56
12/18/2021 12:00:00 AM 4.89 40.802 0.063 6.81 0.81 12.57
12/18/2021 12:15:00 AM 4.87 40.766 0.063 6.81 0.73 12.58
12/18/2021 12:30:00 AM 4.85 40.73 0.063 6.81 0.69 12.58
12/18/2021 12:45:00 AM 4.83 40.694 0.063 6.81 0.75 12.59
12/18/2021 1:00:00 AM 4.81 40.658 0.062 6.81 0.72 12.59
12/18/2021 1:15:00 AM 4.79 40.622 0.063 6.81 0.78 12.59
12/18/2021 1:30:00 AM 4.78 40.604 0.062 6.81 0.7 12.6
12/18/2021 1:45:00 AM 4.76 40.568 0.062 6.81 0.74 12.61
12/18/2021 2:00:00 AM 4.75 40.55 0.062 6.8 0.75 12.61
12/18/2021 2:15:00 AM 4.74 40.532 0.063 6.81 0.78 12.61
12/18/2021 2:30:00 AM 4.73 40.514 0.062 6.8 0.83 12.62
12/18/2021 2:45:00 AM 4.72 40.496 0.062 6.8 0.7 12.63
12/18/2021 3:00:00 AM 4.71 40.478 0.062 6.8 0.73 12.63
12/18/2021 3:15:00 AM 4.7 40.46 0.062 6.8 0.74 12.63
12/18/2021 3:30:00 AM 4.69 40.442 0.062 6.8 0.71 12.63
12/18/2021 3:45:00 AM 4.69 40.442 0.063 6.8 0.76 12.63
12/18/2021 4:00:00 AM 4.68 40.424 0.062 6.8 0.66 12.64
12/18/2021 4:15:00 AM 4.67 40.406 0.063 6.8 0.65 12.64
12/18/2021 4:30:00 AM 4.66 40.388 0.062 6.8 0.6 12.64
12/18/2021 4:45:00 AM 4.65 40.37 0.062 6.8 0.69 12.64
12/18/2021 5:00:00 AM 4.65 40.37 0.062 6.8 0.69 12.64
12/18/2021 5:15:00 AM 4.64 40.352 0.062 6.8 0.65 12.64
12/18/2021 5:30:00 AM 4.63 40.334 0.062 6.8 0.66 12.65
12/18/2021 5:45:00 AM 4.63 40.334 0.062 6.8 0.66 12.65
12/18/2021 6:00:00 AM 4.62 40.316 0.062 6.8 0.7 12.65
12/18/2021 6:15:00 AM 4.61 40.298 0.062 6.8 0.64 12.65
12/18/2021 6:30:00 AM 4.6 40.28 0.062 6.8 0.7 12.65
12/18/2021 6:45:00 AM 4.59 40.262 0.062 6.8 0.7 12.65
12/18/2021 7:00:00 AM 4.58 40.244 0.062 6.81 0.66 12.65
12/18/2021 7:15:00 AM 4.56 40.208 0.062 6.81 0.72 12.66
12/18/2021 7:30:00 AM 4.55 40.19 0.062 6.8 0.66 12.66
12/18/2021 7:45:00 AM 4.54 40.172 0.062 6.81 0.68 12.67
12/18/2021 8:00:00 AM 4.52 40.136 0.062 6.81 0.65 12.68
12/18/2021 8:15:00 AM 4.51 40.118 0.062 6.81 0.7 12.7
12/18/2021 8:30:00 AM 4.5 40.1 0.062 6.81 0.7 12.72
12/18/2021 8:45:00 AM 4.5 40.1 0.062 6.82 0.68 12.74
12/18/2021 9:00:00 AM 4.49 40.082 0.062 6.82 0.72 12.77
12/18/2021 9:15:00 AM 4.49 40.082 0.062 6.83 0.69 12.8
12/18/2021 9:30:00 AM 4.49 40.082 0.062 6.84 0.63 12.83
12/18/2021 9:45:00 AM 4.5 40.1 0.062 6.85 0.63 12.86
12/18/2021 10:00:00 AM 4.5 40.1 0.062 6.86 0.69 12.89
12/18/2021 10:15:00 AM 4.5 40.1 0.062 6.86 0.62 12.9
12/18/2021 10:30:00 AM 4.5 40.1 0.062 6.87 0.65 12.91
12/18/2021 10:45:00 AM 4.53 40.154 0.061 6.88 0.62 12.96
12/18/2021 11:00:00 AM 4.55 40.19 0.061 6.89 0.73 12.99
12/18/2021 11:15:00 AM 4.56 40.208 0.061 6.9 0.74 13.01
12/18/2021 11:30:00 AM 4.57 40.226 0.061 6.91 0.81 13.02
12/18/2021 11:45:00 AM 4.58 40.244 0.061 6.91 0.79 13.01
12/18/2021 12:00:00 PM 4.59 40.262 0.061 6.91 0.94 12.98
12/18/2021 12:15:00 PM 4.6 40.28 0.061 6.9 0.93 12.96
12/18/2021 12:30:00 PM 4.61 40.298 0.061 6.91 0.99 12.96
12/18/2021 12:45:00 PM 4.63 40.334 0.061 6.91 1.05 12.97
12/18/2021 1:00:00 PM 4.64 40.352 0.061 6.91 1.04 12.97
12/18/2021 1:15:00 PM 4.65 40.37 0.061 6.91 1.08 12.96
12/18/2021 1:30:00 PM 4.66 40.388 0.061 6.91 1.03 12.95
12/18/2021 1:45:00 PM 4.67 40.406 0.061 6.91 1.1 12.94
12/18/2021 2:00:00 PM 4.69 40.442 0.061 6.91 1.18 12.94
12/18/2021 2:15:00 PM 4.7 40.46 0.061 6.91 1.34 12.93
12/18/2021 2:30:00 PM 4.72 40.496 0.061 6.92 1.46 12.92
12/18/2021 2:45:00 PM 4.74 40.532 0.061 6.92 1.59 12.91
12/18/2021 3:00:00 PM 4.75 40.55 0.061 6.91 1.66 12.87
12/18/2021 3:15:00 PM 4.77 40.586 0.061 6.9 1.62 12.85
12/18/2021 3:30:00 PM 4.78 40.604 0.061 6.9 1.76 12.81
12/18/2021 3:45:00 PM 4.79 40.622 0.061 6.89 1.82 12.77
12/18/2021 4:00:00 PM 4.8 40.64 0.061 6.88 1.68 12.74
12/18/2021 4:15:00 PM 4.81 40.658 0.061 6.88 1.75 12.69
12/18/2021 4:30:00 PM 4.82 40.676 0.062 6.87 1.74 12.66
12/18/2021 4:45:00 PM 4.83 40.694 0.061 6.86 1.84 12.62
12/18/2021 5:00:00 PM 4.84 40.712 0.062 6.85 1.92 12.59
12/18/2021 5:15:00 PM 4.84 40.712 0.062 6.85 2.06 12.56
12/18/2021 5:30:00 PM 4.85 40.73 0.062 6.84 3.07 12.54
12/18/2021 5:45:00 PM 4.85 40.73 0.062 6.84 3.34 12.52
12/18/2021 6:00:00 PM 4.86 40.748 0.062 6.83 3.53 12.51
12/18/2021 6:15:00 PM 4.87 40.766 0.062 6.83 3.88 12.5
12/18/2021 6:30:00 PM 4.87 40.766 0.062 6.83 4.02 12.48
12/18/2021 6:45:00 PM 4.88 40.784 0.062 6.83 3.34 12.47
12/18/2021 7:00:00 PM 4.89 40.802 0.043 6.83 3.6 12.46
12/18/2021 7:15:00 PM 4.9 40.82 0.029 6.82 2385.7 12.46
12/18/2021 7:30:00 PM 4.91 40.838 0.061 6.84 5.26 12.45
12/18/2021 7:45:00 PM 4.91 40.838 0.062 6.84 991.76 12.45
12/18/2021 8:00:00 PM 4.92 40.856 0.062 6.81 6.91 12.44
12/18/2021 8:15:00 PM 4.93 40.874 0.063 6.82 7.66 12.43
12/18/2021 8:30:00 PM 4.94 40.892 0.06 6.82 2073.26 12.43
12/18/2021 8:45:00 PM 4.95 40.91 0.05 6.81 224.76 12.43
12/18/2021 9:00:00 PM 4.96 40.928 0.059 6.81 497.47 12.42
12/18/2021 9:15:00 PM 4.97 40.946 0.063 6.79 1370.58 12.41
12/18/2021 9:30:00 PM 4.98 40.964 0.059 6.78 178.76 12.41
12/18/2021 9:45:00 PM 4.99 40.982 0.065 6.79 18.65 12.41
12/18/2021 10:00:00 PM 4.99 40.982 0.066 6.8 851.08 12.4
12/18/2021 10:15:00 PM 5 41 0.067 6.79 9.2 12.41
12/18/2021 10:30:00 PM 5 41 0.068 6.79 9.42 12.41
12/18/2021 10:45:00 PM 5 41 0.069 6.78 9.07 12.41
12/18/2021 11:00:00 PM 5 41 0.07 6.79 9.17 12.41
12/18/2021 11:15:00 PM 5 41 0.071 6.79 9.31 12.41
12/18/2021 11:30:00 PM 4.99 40.982 0.072 6.79 9.04 12.41
12/18/2021 11:45:00 PM 4.98 40.964 0.07 6.8 1789.06 12.41
12/19/2021 12:00:00 AM 4.97 40.946 0.075 6.81 17.63 12.42
12/19/2021 12:15:00 AM 4.96 40.928 0.076 6.82 10.54 12.43
12/19/2021 12:30:00 AM 4.95 40.91 0.065 6.82 1656.99 12.43
12/19/2021 12:45:00 AM 4.94 40.892 0.077 6.85 9961.77 12.42
12/19/2021 1:00:00 AM 4.92 40.856 0.077 6.87 190.48 12.44
12/19/2021 1:15:00 AM 4.9 40.82 0.076 6.85 1320.49 12.45
12/19/2021 1:30:00 AM 4.88 40.784 0.079 6.86 28.14 12.46
12/19/2021 1:45:00 AM 4.84 40.712 0.08 6.87 14.47 12.46
12/19/2021 2:00:00 AM 4.84 40.712 0.081 6.87 19 12.47
12/19/2021 2:15:00 AM 4.84 40.712 0.083 6.88 18.81 12.48
12/19/2021 2:30:00 AM 4.82 40.676 0.08 6.88 15.58 12.48
12/19/2021 2:45:00 AM 4.8 40.64 0.079 6.88 14.05 12.49
12/19/2021 3:00:00 AM 4.78 40.604 0.082 6.89 19.43 12.5
12/19/2021 3:15:00 AM 4.76 40.568 0.078 6.89 20.68 12.51
12/19/2021 3:30:00 AM 4.74 40.532 0.083 6.9 15.47 12.52
12/19/2021 3:45:00 AM 4.72 40.496 0.08 6.9 15.32 12.52
12/19/2021 4:00:00 AM 4.7 40.46 0.084 6.89 13.99 12.54
12/19/2021 4:15:00 AM 4.68 40.424 0.084 6.9 13.62 12.54
12/19/2021 4:30:00 AM 4.66 40.388 0.084 6.9 13.29 12.55
12/19/2021 4:45:00 AM 4.64 40.352 0.084 6.89 12.79 12.56
12/19/2021 5:00:00 AM 4.62 40.316 0.084 6.9 12.37 12.57
12/19/2021 5:15:00 AM 4.6 40.28 0.084 6.9 11.92 12.58
12/19/2021 5:30:00 AM 4.58 40.244 0.084 6.9 33.44 12.58
12/19/2021 5:45:00 AM 4.56 40.208 0.084 6.89 11.04 12.59
12/19/2021 6:00:00 AM 4.53 40.154 0.084 6.89 10.92 12.61
12/19/2021 6:15:00 AM 4.5 40.1 0.084 6.89 10.48 12.62
12/19/2021 6:30:00 AM 4.47 40.046 0.085 6.89 10.12 12.63
12/19/2021 6:45:00 AM 4.43 39.974 0.084 6.89 9.99 12.64
12/19/2021 7:00:00 AM 4.41 39.938 0.084 6.89 9.65 12.66
12/19/2021 7:15:00 AM 4.38 39.884 0.085 6.89 9.34 12.67
12/19/2021 7:30:00 AM 4.36 39.848 0.084 6.89 8.87 12.68
12/19/2021 7:45:00 AM 4.33 39.794 0.084 6.89 8.68 12.69
12/19/2021 8:00:00 AM 4.3 39.74 0.084 6.89 8.51 12.7
12/19/2021 8:15:00 AM 4.27 39.686 0.084 6.89 8.25 12.72
12/19/2021 8:30:00 AM 4.25 39.65 0.084 6.89 8.04 12.74
12/19/2021 8:45:00 AM 4.23 39.614 0.084 6.89 7.53 12.76
12/19/2021 9:00:00 AM 4.21 39.578 0.083 6.89 7.52 12.79
12/19/2021 9:15:00 AM 4.18 39.524 0.083 6.9 7.16 12.83
12/19/2021 9:30:00 AM 4.17 39.506 0.083 6.9 7.06 12.87
12/19/2021 9:45:00 AM 4.15 39.47 0.083 6.91 6.88 12.92
12/19/2021 10:00:00 AM 4.15 39.47 0.082 6.92 6.58 12.97
12/19/2021 10:15:00 AM 4.15 39.47 0.082 6.93 6.39 13.02
12/19/2021 10:30:00 AM 4.16 39.488 0.082 6.94 6.16 13.06
12/19/2021 10:45:00 AM 4.17 39.506 0.081 6.95 6.02 13.1
12/19/2021 11:00:00 AM 4.17 39.506 0.081 6.96 5.84 13.14
12/19/2021 11:15:00 AM 4.19 39.542 0.081 6.97 5.7 13.16
12/19/2021 11:30:00 AM 4.19 39.542 0.081 6.98 5.47 13.19
12/19/2021 11:45:00 AM 4.19 39.542 0.08 6.98 5.38 13.21
12/19/2021 12:00:00 PM 4.2 39.56 0.08 6.99 5.25 13.22
12/19/2021 12:15:00 PM 4.2 39.56 0.08 6.99 5.08 13.24
12/19/2021 12:30:00 PM 4.2 39.56 0.08 7 4.99 13.25
12/19/2021 12:45:00 PM 4.22 39.596 0.079 7 4.95 13.26
12/19/2021 1:00:00 PM 4.24 39.632 0.079 7.01 4.68 13.27
12/19/2021 1:15:00 PM 4.26 39.668 0.079 7.01 4.7 13.28
12/19/2021 1:30:00 PM 4.26 39.668 0.079 7.02 4.61 13.28
12/19/2021 1:45:00 PM 4.28 39.704 0.078 7.02 4.5 13.29
12/19/2021 2:00:00 PM 4.27 39.686 0.078 7.02 4.49 13.28
12/19/2021 2:15:00 PM 4.28 39.704 0.078 7.02 4.17 13.29
12/19/2021 2:30:00 PM 4.28 39.704 0.078 7.02 4.12 13.29
12/19/2021 2:45:00 PM 4.28 39.704 0.075 7.03 36.81 13.26
12/19/2021 3:00:00 PM 4.27 39.686 0.076 7.01 4.01 13.28
12/19/2021 3:15:00 PM 4.25 39.65 0.077 7.02 2449.61 13.27
12/19/2021 3:30:00 PM 4.23 39.614 0.077 7.02 3.72 13.27
12/19/2021 3:45:00 PM 4.2 39.56 0.076 7.02 625.72 13.24
12/19/2021 4:00:00 PM 4.18 39.524 0.076 7.01 3.83 13.23
12/19/2021 4:15:00 PM 4.14 39.452 0.076 7 9 13.19
12/19/2021 4:30:00 PM 4.11 39.398 0.076 6.98 532.17 13.15
12/19/2021 4:45:00 PM 4.07 39.326 0.072 6.97 703.03 13.12
12/19/2021 5:00:00 PM 4.03 39.254 0.076 6.96 2187.05 13.09
12/19/2021 5:15:00 PM 3.98 39.164 0.076 6.95 3.63 13.07
12/19/2021 5:30:00 PM 3.93 39.074 0.076 6.93 2402.07 13.06
12/19/2021 5:45:00 PM 3.87 38.966 0.076 6.93 3.19 13.05
12/19/2021 6:00:00 PM 3.81 38.858 0.075 6.92 3.11 13.05
12/19/2021 6:15:00 PM 3.76 38.768 0.075 6.91 3.91 13.05
12/19/2021 6:30:00 PM 3.71 38.678 0.076 6.9 3.12 13.04
12/19/2021 6:45:00 PM 3.67 38.606 0.075 6.89 3.13 13.05
12/19/2021 7:00:00 PM 3.62 38.516 0.075 6.88 2.89 13.05
12/19/2021 7:15:00 PM 3.57 38.426 0.075 6.88 10.68 13.07
12/19/2021 7:30:00 PM 3.53 38.354 0.075 6.87 246.29 13.08
12/19/2021 7:45:00 PM 3.47 38.246 0.074 6.87 2.76 13.09
12/19/2021 8:00:00 PM 3.42 38.156 0.074 6.87 2.62 13.11
12/19/2021 8:15:00 PM 3.36 38.048 0.074 6.86 2.64 13.12
12/19/2021 8:30:00 PM 3.31 37.958 0.074 6.87 2.49 13.14
12/19/2021 8:45:00 PM 3.26 37.868 0.073 6.87 2.46 13.15
12/19/2021 9:00:00 PM 3.21 37.778 0.073 6.87 2.46 13.17
12/19/2021 9:15:00 PM 3.16 37.688 0.073 6.85 4249.63 13.19
12/19/2021 9:30:00 PM 3.1 37.58 0.073 6.85 2.34 13.21
12/19/2021 9:45:00 PM 3.04 37.472 0.073 6.84 2.42 13.23
12/19/2021 10:00:00 PM 2.98 37.364 0.073 6.84 2.24 13.26
12/19/2021 10:15:00 PM 2.93 37.274 0.072 6.84 2.29 13.28
12/19/2021 10:30:00 PM 2.87 37.166 0.072 6.84 2.2 13.29
12/19/2021 10:45:00 PM 2.81 37.058 0.072 6.84 2.19 13.32
12/19/2021 11:00:00 PM 2.74 36.932 0.072 6.84 2.13 13.33
12/19/2021 11:15:00 PM 2.69 36.842 0.072 6.83 2.05 13.36
12/19/2021 11:30:00 PM 2.63 36.734 0.072 6.8 2.07 13.38
12/19/2021 11:45:00 PM 2.57 36.626 0.072 6.8 1.97 13.4
12/20/2021 12:00:00 AM 2.52 36.536 0.072 6.79 1.91 13.42
12/20/2021 12:15:00 AM 2.47 36.446 0.072 6.79 1.9 13.45
12/20/2021 12:30:00 AM 2.42 36.356 0.072 6.78 1.83 13.46
12/20/2021 12:45:00 AM 2.37 36.266 0.072 6.77 1.83 13.48
12/20/2021 1:00:00 AM 2.32 36.176 0.071 6.76 1.84 13.5
12/20/2021 1:15:00 AM 2.27 36.086 0.071 6.76 1.84 13.51
12/20/2021 1:30:00 AM 2.22 35.996 0.071 6.75 1.73 13.53
12/20/2021 1:45:00 AM 2.18 35.924 0.071 6.75 1.72 13.55
12/20/2021 2:00:00 AM 2.13 35.834 0.071 6.75 1.65 13.56
12/20/2021 2:15:00 AM 2.08 35.744 0.071 6.75 1.67 13.59
12/20/2021 2:30:00 AM 2.03 35.654 0.071 6.74 1.59 13.6
12/20/2021 2:45:00 AM 1.98 35.564 0.07 6.75 1.57 13.63
12/20/2021 3:00:00 AM 1.94 35.492 0.07 6.74 1.63 13.64
12/20/2021 3:15:00 AM 1.89 35.402 0.07 6.74 1.71 13.67
12/20/2021 3:30:00 AM 1.84 35.312 0.07 6.74 1.63 13.69
12/20/2021 3:45:00 AM 1.8 35.24 0.07 6.75 1.52 13.7
12/20/2021 4:00:00 AM 1.75 35.15 0.07 6.75 1.55 13.72
12/20/2021 4:15:00 AM 1.71 35.078 0.07 6.75 1.5 13.74
12/20/2021 4:30:00 AM 1.66 34.988 0.07 6.75 1.54 13.76
12/20/2021 4:45:00 AM 1.62 34.916 0.07 6.75 1.45 13.77
12/20/2021 5:00:00 AM 1.57 34.826 0.07 6.76 1.43 13.79
12/20/2021 5:15:00 AM 1.53 34.754 0.069 6.76 1.45 13.81
12/20/2021 5:30:00 AM 1.5 34.7 0.069 6.76 1.58 13.83
12/20/2021 5:45:00 AM 1.47 34.646 0.069 6.76 1.67 13.84
12/20/2021 6:00:00 AM 1.44 34.592 0.069 6.76 1.62 13.86
12/20/2021 6:15:00 AM 1.4 34.52 0.069 6.77 1.46 13.87
12/20/2021 6:30:00 AM 1.36 34.448 0.069 6.77 1.44 13.89
12/20/2021 6:45:00 AM 1.32 34.376 0.069 6.76 1.38 13.91
12/20/2021 7:00:00 AM 1.3 34.34 0.069 6.77 1.38 13.92
12/20/2021 7:15:00 AM 1.28 34.304 0.069 6.76 65.75 13.93
12/20/2021 7:30:00 AM 1.26 34.268 0.068 6.77 1.29 13.95
12/20/2021 7:45:00 AM 1.25 34.25 0.068 6.77 1.29 13.97
12/20/2021 8:00:00 AM 1.23 34.214 0.068 6.77 1.22 13.99
12/20/2021 8:15:00 AM 1.23 34.214 0.068 6.78 1.19 14.03
12/20/2021 8:30:00 AM 1.22 34.196 0.068 6.79 1.23 14.06
12/20/2021 8:45:00 AM 1.22 34.196 0.068 6.8 1.1 14.1
12/20/2021 9:00:00 AM 1.23 34.214 0.068 6.81 1.07 14.14
12/20/2021 9:15:00 AM 1.24 34.232 0.068 6.81 1.09 14.18
12/20/2021 9:30:00 AM 1.26 34.268 0.067 6.82 1.03 14.21
12/20/2021 9:45:00 AM 1.27 34.286 0.067 6.83 1.06 14.24
12/20/2021 10:00:00 AM 1.26 34.268 0.067 6.84 1.06 14.25
12/20/2021 10:15:00 AM 1.27 34.286 0.067 6.84 1.02 14.26
12/20/2021 10:30:00 AM 1.28 34.304 0.067 6.84 1.01 14.27
12/20/2021 10:45:00 AM 1.29 34.322 0.067 6.85 1.01 14.28
12/20/2021 11:00:00 AM 1.31 34.358 0.067 6.85 0.92 14.29
12/20/2021 11:15:00 AM 1.33 34.394 0.067 6.86 0.93 14.29
12/20/2021 11:30:00 AM 1.36 34.448 0.066 6.86 0.94 14.29
12/20/2021 11:45:00 AM 1.39 34.502 0.066 6.87 0.93 14.29
12/20/2021 12:00:00 PM 1.42 34.556 0.066 6.87 0.96 14.28
12/20/2021 12:15:00 PM 1.46 34.628 0.066 6.87 0.88 14.28
12/20/2021 12:30:00 PM 1.52 34.736 0.066 6.87 0.91 14.26
12/20/2021 12:45:00 PM 1.57 34.826 0.066 6.88 0.85 14.25
12/20/2021 1:00:00 PM 1.62 34.916 0.066 6.88 0.82 14.23
12/20/2021 1:15:00 PM 1.67 35.006 0.066 6.88 0.87 14.21
12/20/2021 1:30:00 PM 1.73 35.114 0.065 6.88 0.81 14.19
12/20/2021 1:45:00 PM 1.78 35.204 0.065 6.89 0.82 14.17
12/20/2021 2:00:00 PM 1.84 35.312 0.065 6.89 0.85 14.15
12/20/2021 2:15:00 PM 1.88 35.384 0.066 6.89 0.81 14.11
12/20/2021 2:30:00 PM 1.92 35.456 0.065 6.89 0.79 14.09
12/20/2021 2:45:00 PM 1.98 35.564 0.065 6.89 0.78 14.06
12/20/2021 3:00:00 PM 2.02 35.636 0.065 6.89 0.79 14.03
12/20/2021 3:15:00 PM 2.05 35.69 0.065 6.89 0.79 14
12/20/2021 3:30:00 PM 2.09 35.762 0.065 6.89 0.79 13.96
12/20/2021 3:45:00 PM 2.13 35.834 0.065 6.89 0.75 13.93
12/20/2021 4:00:00 PM 2.16 35.888 0.065 6.89 0.8 13.9
12/20/2021 4:15:00 PM 2.17 35.906 0.064 6.88 0.76 13.87
12/20/2021 4:30:00 PM 2.18 35.924 0.064 6.88 0.75 13.84
12/20/2021 4:45:00 PM 2.18 35.924 0.064 6.87 0.75 13.81
12/20/2021 5:00:00 PM 2.16 35.888 0.064 6.86 0.74 13.78
12/20/2021 5:15:00 PM 2.13 35.834 0.064 6.85 0.77 13.76
12/20/2021 5:30:00 PM 2.1 35.78 0.064 6.85 0.8 13.73
12/20/2021 5:45:00 PM 2.07 35.726 0.064 6.84 0.84 13.72
12/20/2021 6:00:00 PM 2.03 35.654 0.064 6.83 0.9 13.71
12/20/2021 6:15:00 PM 1.99 35.582 0.064 6.83 0.82 13.71
12/20/2021 6:30:00 PM 1.95 35.51 0.064 6.82 0.84 13.71
12/20/2021 6:45:00 PM 1.92 35.456 0.064 6.82 0.8 13.7
12/20/2021 7:00:00 PM 1.88 35.384 0.064 6.81 0.82 13.7
12/20/2021 7:15:00 PM 1.85 35.33 0.064 6.81 0.86 13.7
12/20/2021 7:30:00 PM 1.82 35.276 0.064 6.8 0.79 13.7
12/20/2021 7:45:00 PM 1.8 35.24 0.064 6.8 0.83 13.71
12/20/2021 8:00:00 PM 1.77 35.186 0.064 6.8 0.81 13.71
12/20/2021 8:15:00 PM 1.74 35.132 0.064 6.79 0.8 13.71
12/20/2021 8:30:00 PM 1.72 35.096 0.063 6.79 0.76 13.72
12/20/2021 8:45:00 PM 1.7 35.06 0.063 6.78 0.77 13.72
12/20/2021 9:00:00 PM 1.68 35.024 0.063 6.78 0.77 13.72
12/20/2021 9:15:00 PM 1.66 34.988 0.063 6.78 0.78 13.73
12/20/2021 9:30:00 PM 1.64 34.952 0.063 6.78 0.77 13.73
12/20/2021 9:45:00 PM 1.62 34.916 0.063 6.78 0.84 13.74
12/20/2021 10:00:00 PM 1.59 34.862 0.063 6.78 0.79 13.74
12/20/2021 10:15:00 PM 1.57 34.826 0.063 6.77 0.78 13.75
12/20/2021 10:30:00 PM 1.55 34.79 0.063 6.77 0.74 13.76
12/20/2021 10:45:00 PM 1.53 34.754 0.063 6.77 0.74 13.76
12/20/2021 11:00:00 PM 1.5 34.7 0.063 6.77 0.74 13.77
12/20/2021 11:15:00 PM 1.48 34.664 0.063 6.77 0.77 13.78
12/20/2021 11:30:00 PM 1.46 34.628 0.063 6.77 0.77 13.79
12/20/2021 11:45:00 PM 1.43 34.574 0.063 6.77 0.73 13.8
12/21/2021 12:00:00 AM 1.41 34.538 0.063 6.77 0.74 13.81
12/21/2021 12:15:00 AM 1.38 34.484 0.063 6.76 0.73 13.81
12/21/2021 12:30:00 AM 1.36 34.448 0.063 6.76 0.73 13.82
12/21/2021 12:45:00 AM 1.34 34.412 0.063 6.76 0.76 13.83
12/21/2021 1:00:00 AM 1.32 34.376 0.063 6.76 0.72 13.83
12/21/2021 1:15:00 AM 1.3 34.34 0.063 6.76 0.73 13.84
12/21/2021 1:30:00 AM 1.28 34.304 0.063 6.76 0.76 13.85
12/21/2021 1:45:00 AM 1.26 34.268 0.063 6.76 0.74 13.85
12/21/2021 2:00:00 AM 1.24 34.232 0.063 6.76 0.69 13.86
12/21/2021 2:15:00 AM 1.22 34.196 0.062 6.76 0.7 13.86
12/21/2021 2:30:00 AM 1.2 34.16 0.062 6.76 0.75 13.87
12/21/2021 2:45:00 AM 1.18 34.124 0.063 6.76 0.71 13.87
12/21/2021 3:00:00 AM 1.17 34.106 0.062 6.75 0.67 13.88
12/21/2021 3:15:00 AM 1.16 34.088 0.062 6.75 0.67 13.89
12/21/2021 3:30:00 AM 1.16 34.088 0.062 6.75 0.73 13.89
12/21/2021 3:45:00 AM 1.15 34.07 0.062 6.76 0.71 13.9
12/21/2021 4:00:00 AM 1.14 34.052 0.062 6.76 0.81 13.9
12/21/2021 4:15:00 AM 1.12 34.016 0.062 6.75 0.76 13.91
12/21/2021 4:30:00 AM 1.11 33.998 0.062 6.75 619.88 13.92
12/21/2021 4:45:00 AM 1.1 33.98 0.062 6.75 0.7 13.92
12/21/2021 5:00:00 AM 1.09 33.962 0.062 6.75 0.72 13.92
12/21/2021 5:15:00 AM 1.09 33.962 0.062 6.75 1.63 13.93
12/21/2021 5:30:00 AM 1.09 33.962 0.062 6.75 0.7 13.93
12/21/2021 5:45:00 AM 1.09 33.962 0.062 6.75 0.89 13.93
12/21/2021 6:00:00 AM 1.1 33.98 0.062 6.75 0.8 13.93
12/21/2021 6:15:00 AM 1.11 33.998 0.062 6.75 0.84 13.94
12/21/2021 6:30:00 AM 1.12 34.016 0.062 6.75 0.76 13.94
12/21/2021 6:45:00 AM 1.13 34.034 0.062 6.75 0.69 13.94
12/21/2021 7:00:00 AM 1.14 34.052 0.062 6.75 0.68 13.93
12/21/2021 7:15:00 AM 1.15 34.07 0.062 6.75 0.64 13.93
12/21/2021 7:30:00 AM 1.17 34.106 0.062 6.75 0.66 13.93
12/21/2021 7:45:00 AM 1.18 34.124 0.062 6.75 0.6 13.93
12/21/2021 8:00:00 AM 1.2 34.16 0.062 6.75 0.68 13.93
12/21/2021 8:15:00 AM 1.21 34.178 0.063 6.76 0.67 13.94
12/21/2021 8:30:00 AM 1.23 34.214 0.062 6.76 0.6 13.96
12/21/2021 8:45:00 AM 1.26 34.268 0.062 6.77 0.6 13.98
12/21/2021 9:00:00 AM 1.29 34.322 0.062 6.78 0.64 14.01
12/21/2021 9:15:00 AM 1.32 34.376 0.062 6.79 0.69 14.03
12/21/2021 9:30:00 AM 1.35 34.43 0.062 6.79 0.57 14.05
12/21/2021 9:45:00 AM 1.39 34.502 0.062 6.8 0.63 14.07
12/21/2021 10:00:00 AM 1.43 34.574 0.061 6.81 0.69 14.09
12/21/2021 10:15:00 AM 1.48 34.664 0.061 6.81 0.57 14.1
12/21/2021 10:30:00 AM 1.53 34.754 0.061 6.82 0.63 14.1
12/21/2021 10:45:00 AM 1.58 34.844 0.062 6.83 0.5 14.11
12/21/2021 11:00:00 AM 1.63 34.934 0.061 6.84 0.7 14.11
12/21/2021 11:15:00 AM 1.68 35.024 0.062 6.84 0.5 14.11
12/21/2021 11:30:00 AM 1.73 35.114 0.044 6.84 352.02 14.1
12/21/2021 11:45:00 AM 1.79 35.222 0.061 6.85 0.58 14.1
12/21/2021 12:00:00 PM 1.87 35.366 0.061 6.85 0.52 14.09
12/21/2021 12:15:00 PM 1.93 35.474 0.06 6.86 0.48 14.07
12/21/2021 12:30:00 PM 2 35.6 0.06 6.86 0.53 14.06
12/21/2021 12:45:00 PM 2.09 35.762 0.06 6.87 0.54 14.04
12/21/2021 1:00:00 PM 2.13 35.834 0.06 6.87 0.52 14.02
12/21/2021 1:15:00 PM 2.18 35.924 0.06 6.87 0.53 13.99
12/21/2021 1:30:00 PM 2.24 36.032 0.06 6.88 0.48 13.96
12/21/2021 1:45:00 PM 2.26 36.068 0.061 6.88 0.53 13.93
12/21/2021 2:00:00 PM 2.28 36.104 0.06 6.88 0.66 13.91
12/21/2021 2:15:00 PM 2.32 36.176 0.061 6.88 0.47 13.89
12/21/2021 2:30:00 PM 2.35 36.23 0.06 6.89 0.5 13.85
12/21/2021 2:45:00 PM 2.38 36.284 0.06 6.89 0.48 13.82
12/21/2021 3:00:00 PM 2.41 36.338 0.061 6.89 0.47 13.8
12/21/2021 3:15:00 PM 2.44 36.392 0.061 6.89 0.46 13.78
12/21/2021 3:30:00 PM 2.47 36.446 0.061 6.88 0.5 13.75
12/21/2021 3:45:00 PM 2.5 36.5 0.061 6.88 0.51 13.72
12/21/2021 4:00:00 PM 2.53 36.554 0.061 6.88 0.49 13.69
12/21/2021 4:15:00 PM 2.54 36.572 0.061 6.87 0.53 13.65
12/21/2021 4:30:00 PM 2.54 36.572 0.061 6.87 0.5 13.62
12/21/2021 4:45:00 PM 2.54 36.572 0.061 6.86 0.54 13.57
12/21/2021 5:00:00 PM 2.52 36.536 0.061 6.85 0.52 13.54
12/21/2021 5:15:00 PM 2.51 36.518 0.061 6.84 0.51 13.5
12/21/2021 5:30:00 PM 2.48 36.464 0.061 6.83 0.55 13.48
12/21/2021 5:45:00 PM 2.46 36.428 0.061 6.83 0.61 13.46
12/21/2021 6:00:00 PM 2.43 36.374 0.061 6.82 0.62 13.44
12/21/2021 6:15:00 PM 2.41 36.338 0.061 6.81 0.6 13.42
12/21/2021 6:30:00 PM 2.38 36.284 0.061 6.81 0.6 13.42
12/21/2021 6:45:00 PM 2.34 36.212 0.06 6.8 0.62 13.41
12/21/2021 7:00:00 PM 2.31 36.158 0.06 6.8 0.67 13.4
12/21/2021 7:15:00 PM 2.28 36.104 0.06 6.8 0.71 13.41
12/21/2021 7:30:00 PM 2.25 36.05 0.06 6.79 0.67 13.4
12/21/2021 7:45:00 PM 2.22 35.996 0.06 6.79 0.64 13.4
12/21/2021 8:00:00 PM 2.19 35.942 0.06 6.79 0.58 13.41
12/21/2021 8:15:00 PM 2.16 35.888 0.06 6.78 0.64 13.4
12/21/2021 8:30:00 PM 2.14 35.852 0.061 6.78 0.62 13.4
12/21/2021 8:45:00 PM 2.12 35.816 0.06 6.79 0.62 13.41
12/21/2021 9:00:00 PM 2.1 35.78 0.06 6.78 12.9 13.41
12/21/2021 9:15:00 PM 2.08 35.744 0.06 6.78 0.55 13.41
12/21/2021 9:30:00 PM 2.06 35.708 0.06 6.77 0.57 13.41
12/21/2021 9:45:00 PM 2.04 35.672 0.06 6.77 0.56 13.41
12/21/2021 10:00:00 PM 2.02 35.636 0.06 6.77 0.53 13.42
12/21/2021 10:15:00 PM 2 35.6 0.06 6.77 0.57 13.42
12/21/2021 10:30:00 PM 1.98 35.564 0.06 6.76 0.58 13.42
12/21/2021 10:45:00 PM 1.96 35.528 0.06 6.77 0.56 13.43
12/21/2021 11:00:00 PM 1.94 35.492 0.06 6.76 0.52 13.43
12/21/2021 11:15:00 PM 1.92 35.456 0.06 6.76 0.6 13.43
12/21/2021 11:30:00 PM 1.89 35.402 0.06 6.76 0.56 13.45
12/21/2021 11:45:00 PM 1.86 35.348 0.06 6.76 0.59 13.45
12/22/2021 12:00:00 AM 1.83 35.294 0.061 6.76 0.56 13.46
12/22/2021 12:15:00 AM 1.81 35.258 0.06 6.76 0.56 13.47
12/22/2021 12:30:00 AM 1.78 35.204 0.06 6.76 0.62 13.48
12/22/2021 12:45:00 AM 1.75 35.15 0.06 6.75 0.58 13.49
12/22/2021 1:00:00 AM 1.73 35.114 0.06 6.75 0.57 13.49
12/22/2021 1:15:00 AM 1.71 35.078 0.06 6.75 0.56 13.5
12/22/2021 1:30:00 AM 1.69 35.042 0.06 6.75 0.55 13.51
12/22/2021 1:45:00 AM 1.66 34.988 0.06 6.75 0.55 13.51
12/22/2021 2:00:00 AM 1.64 34.952 0.06 6.75 0.58 13.52
12/22/2021 2:15:00 AM 1.62 34.916 0.06 6.75 0.58 13.52
12/22/2021 2:30:00 AM 1.6 34.88 0.06 6.75 0.5 13.53
12/22/2021 2:45:00 AM 1.58 34.844 0.06 6.75 0.61 13.53
12/22/2021 3:00:00 AM 1.58 34.844 0.06 6.75 0.56 13.54
12/22/2021 3:15:00 AM 1.57 34.826 0.06 6.75 0.55 13.54
12/22/2021 3:30:00 AM 1.58 34.844 0.06 6.75 0.51 13.54
12/22/2021 3:45:00 AM 1.58 34.844 0.06 6.75 0.58 13.54
12/22/2021 4:00:00 AM 1.59 34.862 0.06 6.75 0.61 13.54
12/22/2021 4:15:00 AM 1.6 34.88 0.06 6.75 0.53 13.54
12/22/2021 4:30:00 AM 1.6 34.88 0.06 6.75 0.61 13.54
12/22/2021 4:45:00 AM 1.61 34.898 0.06 6.75 0.71 13.55
12/22/2021 5:00:00 AM 1.61 34.898 0.061 6.75 0.63 13.55
12/22/2021 5:15:00 AM 1.61 34.898 0.06 6.75 0.57 13.55
12/22/2021 5:30:00 AM 1.61 34.898 0.061 6.75 0.58 13.55
12/22/2021 5:45:00 AM 1.61 34.898 0.06 6.75 0.52 13.55
12/22/2021 6:00:00 AM 1.62 34.916 0.06 6.75 0.57 13.54
12/22/2021 6:15:00 AM 1.63 34.934 0.06 6.74 0.49 13.54
12/22/2021 6:30:00 AM 1.64 34.952 0.06 6.75 0.68 13.54
12/22/2021 6:45:00 AM 1.65 34.97 0.06 6.74 0.72 13.54
12/22/2021 7:00:00 AM 1.67 35.006 0.06 6.74 0.67 13.54
12/22/2021 7:15:00 AM 1.69 35.042 0.061 6.74 0.64 13.54
12/22/2021 7:30:00 AM 1.71 35.078 0.06 6.74 0.63 13.53
12/22/2021 7:45:00 AM 1.74 35.132 0.06 6.74 0.56 13.53
12/22/2021 8:00:00 AM 1.76 35.168 0.06 6.75 0.64 13.53
12/22/2021 8:15:00 AM 1.79 35.222 0.06 6.75 0.62 13.53
12/22/2021 8:30:00 AM 1.81 35.258 0.06 6.76 0.59 13.54
12/22/2021 8:45:00 AM 1.84 35.312 0.06 6.76 0.56 13.57
12/22/2021 9:00:00 AM 1.87 35.366 0.061 6.77 0.61 13.6
12/22/2021 9:15:00 AM 1.9 35.42 0.06 6.78 0.56 13.63
12/22/2021 9:30:00 AM 1.94 35.492 0.06 6.79 0.54 13.66
12/22/2021 9:45:00 AM 1.97 35.546 0.06 6.8 0.57 13.68
12/22/2021 10:00:00 AM 2 35.6 0.06 6.81 0.59 13.7
12/22/2021 10:15:00 AM 2.04 35.672 0.06 6.82 0.52 13.72
12/22/2021 10:30:00 AM 2.08 35.744 0.06 6.83 0.6 13.73
12/22/2021 10:45:00 AM 2.11 35.798 0.06 6.84 0.5 13.74
12/22/2021 11:00:00 AM 2.15 35.87 0.06 6.86 0.74 13.74
12/22/2021 11:15:00 AM 2.16 35.888 0.06 6.89 0.79 13.74
12/22/2021 11:30:00 AM 2.2 35.96 0.06 6.88 0.95 13.75
12/22/2021 11:45:00 AM 2.23 36.014 0.06 6.88 0.49 13.75
12/22/2021 12:00:00 PM 2.25 36.05 0.06 6.88 0.49 13.75
12/22/2021 12:15:00 PM 2.29 36.122 0.059 6.89 0.47 13.75
12/22/2021 12:30:00 PM 2.3 36.14 0.06 6.89 0.47 13.75
12/22/2021 12:45:00 PM 2.33 36.194 0.06 6.89 0.48 13.75
12/22/2021 1:00:00 PM 2.34 36.212 0.06 6.9 0.47 13.76
12/22/2021 1:15:00 PM 2.35 36.23 0.06 6.9 0.44 13.75
12/22/2021 1:30:00 PM 2.36 36.248 0.06 6.9 0.51 13.75
12/22/2021 1:45:00 PM 2.38 36.284 0.06 6.9 0.45 13.75
12/22/2021 2:00:00 PM 2.4 36.32 0.06 6.9 0.5 13.74
12/22/2021 2:15:00 PM 2.4 36.32 0.06 6.9 0.49 13.74
12/22/2021 2:30:00 PM 2.4 36.32 0.06 6.9 0.53 13.74
12/22/2021 2:45:00 PM 2.4 36.32 0.06 6.9 0.55 13.73
12/22/2021 3:00:00 PM 2.39 36.302 0.06 6.9 0.51 13.71
12/22/2021 3:15:00 PM 2.37 36.266 0.06 6.89 0.52 13.71
12/22/2021 3:30:00 PM 2.36 36.248 0.059 6.89 0.57 13.7
12/22/2021 3:45:00 PM 2.34 36.212 0.06 6.89 0.53 13.69
12/22/2021 4:00:00 PM 2.33 36.194 0.059 6.89 0.58 13.67
12/22/2021 4:15:00 PM 2.32 36.176 0.06 6.88 0.58 13.64
12/22/2021 4:30:00 PM 2.29 36.122 0.059 6.88 0.85 13.62
12/22/2021 4:45:00 PM 2.25 36.05 0.06 6.87 0.84 13.6
12/22/2021 5:00:00 PM 2.22 35.996 0.06 6.86 0.86 13.58
12/22/2021 5:15:00 PM 2.18 35.924 0.06 6.85 0.9 13.57
12/22/2021 5:30:00 PM 2.16 35.888 0.06 6.85 0.89 13.56
12/22/2021 5:45:00 PM 2.13 35.834 0.06 6.84 0.9 13.55
12/22/2021 6:00:00 PM 2.09 35.762 0.06 6.84 0.88 13.55
12/22/2021 6:15:00 PM 2.07 35.726 0.06 6.83 0.92 13.55
12/22/2021 6:30:00 PM 2.05 35.69 0.06 6.83 0.9 13.55
12/22/2021 6:45:00 PM 2.02 35.636 0.06 6.82 0.92 13.55
12/22/2021 7:00:00 PM 2 35.6 0.06 6.82 0.98 13.55
12/22/2021 7:15:00 PM 1.98 35.564 0.06 6.82 0.91 13.56
12/22/2021 7:30:00 PM 1.96 35.528 0.06 6.82 1.01 13.56
12/22/2021 7:45:00 PM 1.94 35.492 0.06 6.82 1.03 13.57
12/22/2021 8:00:00 PM 1.93 35.474 0.06 6.82 0.93 13.57
12/22/2021 8:15:00 PM 1.9 35.42 0.06 6.82 1 13.58
12/22/2021 8:30:00 PM 1.88 35.384 0.06 6.82 0.96 13.58
12/22/2021 8:45:00 PM 1.87 35.366 0.06 6.82 0.93 13.59
12/22/2021 9:00:00 PM 1.85 35.33 0.06 6.82 1 13.6
12/22/2021 9:15:00 PM 1.84 35.312 0.06 6.82 0.94 13.6
12/22/2021 9:30:00 PM 1.82 35.276 0.06 6.82 0.95 13.61
12/22/2021 9:45:00 PM 1.8 35.24 0.06 6.82 0.97 13.62
12/22/2021 10:00:00 PM 1.78 35.204 0.06 6.82 0.97 13.63
12/22/2021 10:15:00 PM 1.76 35.168 0.06 6.82 0.97 13.63
12/22/2021 10:30:00 PM 1.75 35.15 0.06 6.82 1.05 13.64
12/22/2021 10:45:00 PM 1.73 35.114 0.06 6.82 0.95 13.65
12/22/2021 11:00:00 PM 1.72 35.096 0.06 6.81 0.94 13.65
12/22/2021 11:15:00 PM 1.7 35.06 0.06 6.81 0.93 13.66
12/22/2021 11:30:00 PM 1.68 35.024 0.06 6.81 0.91 13.67
12/22/2021 11:45:00 PM 1.67 35.006 0.06 6.81 0.93 13.67
12/23/2021 12:00:00 AM 1.65 34.97 0.06 6.81 0.84 13.68
12/23/2021 12:15:00 AM 1.63 34.934 0.06 6.8 0.92 13.69
12/23/2021 12:30:00 AM 1.62 34.916 0.06 6.8 0.91 13.7
12/23/2021 12:45:00 AM 1.6 34.88 0.06 6.8 1 13.71
12/23/2021 1:00:00 AM 1.58 34.844 0.06 6.8 0.85 13.72
12/23/2021 1:15:00 AM 1.57 34.826 0.06 6.8 0.81 13.72
12/23/2021 1:30:00 AM 1.56 34.808 0.06 6.8 0.91 13.73
12/23/2021 1:45:00 AM 1.54 34.772 0.06 6.79 0.8 13.75
12/23/2021 2:00:00 AM 1.52 34.736 0.06 6.79 0.77 13.75
12/23/2021 2:15:00 AM 1.48 34.664 0.06 6.79 0.78 13.77
12/23/2021 2:30:00 AM 1.46 34.628 0.06 6.79 0.76 13.77
12/23/2021 2:45:00 AM 1.43 34.574 0.06 6.79 0.75 13.79
12/23/2021 3:00:00 AM 1.41 34.538 0.06 6.79 0.68 13.8
12/23/2021 3:15:00 AM 1.39 34.502 0.06 6.79 0.68 13.81
12/23/2021 3:30:00 AM 1.37 34.466 0.06 6.79 0.68 13.82
12/23/2021 3:45:00 AM 1.34 34.412 0.06 6.79 0.63 13.83
12/23/2021 4:00:00 AM 1.32 34.376 0.061 6.79 0.63 13.84
12/23/2021 4:15:00 AM 1.31 34.358 0.061 6.78 0.66 13.85
12/23/2021 4:30:00 AM 1.29 34.322 0.06 6.78 0.6 13.86
12/23/2021 4:45:00 AM 1.27 34.286 0.06 6.78 0.6 13.87
12/23/2021 5:00:00 AM 1.25 34.25 0.061 6.78 0.57 13.88
12/23/2021 5:15:00 AM 1.24 34.232 0.061 6.78 0.69 13.89
12/23/2021 5:30:00 AM 1.23 34.214 0.06 6.78 0.61 13.89
12/23/2021 5:45:00 AM 1.22 34.196 0.061 6.78 0.61 13.91
12/23/2021 6:00:00 AM 1.21 34.178 0.061 6.78 0.65 13.91
12/23/2021 6:15:00 AM 1.2 34.16 0.061 6.78 1.42 13.92
12/23/2021 6:30:00 AM 1.19 34.142 0.061 6.78 0.68 13.92
12/23/2021 6:45:00 AM 1.17 34.106 0.061 6.78 0.64 13.93
12/23/2021 7:00:00 AM 1.16 34.088 0.061 6.78 0.58 13.94
12/23/2021 7:15:00 AM 1.15 34.07 0.061 6.78 0.62 13.95
12/23/2021 7:30:00 AM 1.13 34.034 0.061 6.78 0.55 13.96
12/23/2021 7:45:00 AM 1.12 34.016 0.061 6.78 0.47 13.97
12/23/2021 8:00:00 AM 1.1 33.98 0.061 6.78 0.45 14
12/23/2021 8:15:00 AM 1.09 33.962 0.061 6.79 0.5 14.04
12/23/2021 8:30:00 AM 1.08 33.944 0.061 6.79 0.47 14.08
12/23/2021 8:45:00 AM 1.06 33.908 0.061 6.79 0.47 14.12
12/23/2021 9:00:00 AM 1.05 33.89 0.061 6.8 0.43 14.16
12/23/2021 9:15:00 AM 1.06 33.908 0.061 6.8 0.29 14.2
12/23/2021 9:30:00 AM 1.08 33.944 0.061 6.81 0.34 14.23
12/23/2021 9:45:00 AM 1.11 33.998 0.061 6.82 0.3 14.26
12/23/2021 10:00:00 AM 1.14 34.052 0.06 6.83 0.26 14.28
12/23/2021 10:15:00 AM 1.18 34.124 0.06 6.84 0.31 14.29
12/23/2021 10:30:00 AM 1.22 34.196 0.061 6.84 0.26 14.3
12/23/2021 10:45:00 AM 1.28 34.304 0.061 6.85 0.26 14.31
12/23/2021 11:00:00 AM 1.33 34.394 0.061 6.85 0.27 14.32
12/23/2021 11:15:00 AM 1.36 34.448 0.061 6.86 0.26 14.32
12/23/2021 11:30:00 AM 1.41 34.538 0.06 6.86 0.25 14.32
12/23/2021 11:45:00 AM 1.46 34.628 0.061 6.86 0.26 14.31
12/23/2021 12:00:00 PM 1.51 34.718 0.061 6.87 0.27 14.3
12/23/2021 12:15:00 PM 1.54 34.772 0.061 6.87 0.22 14.29
12/23/2021 12:30:00 PM 1.58 34.844 0.061 6.87 0.24 14.28
12/23/2021 12:45:00 PM 1.65 34.97 0.06 6.87 0.24 14.27
12/23/2021 1:00:00 PM 1.71 35.078 0.06 6.88 0.22 14.25
12/23/2021 1:15:00 PM 1.74 35.132 0.061 6.88 0.23 14.23
12/23/2021 1:30:00 PM 1.78 35.204 0.061 6.88 0.16 14.21
12/23/2021 1:45:00 PM 1.82 35.276 0.061 6.88 0.25 14.19
12/23/2021 2:00:00 PM 1.86 35.348 0.061 6.88 0.17 14.18
12/23/2021 2:15:00 PM 1.89 35.402 0.061 6.88 0.18 14.16
12/23/2021 2:30:00 PM 1.92 35.456 0.061 6.89 0.2 14.14
12/23/2021 2:45:00 PM 1.94 35.492 0.061 6.89 0.19 14.12
12/23/2021 3:00:00 PM 1.98 35.564 0.061 6.89 0.23 14.1
12/23/2021 3:15:00 PM 2.01 35.618 0.061 6.89 0.23 14.09
12/23/2021 3:30:00 PM 2.01 35.618 0.061 6.89 0.21 14.06
12/23/2021 3:45:00 PM 2.01 35.618 0.061 6.89 0.22 14.02
12/23/2021 4:00:00 PM 2.01 35.618 0.061 6.88 0.22 13.98
12/23/2021 4:15:00 PM 2.02 35.636 0.061 6.87 0.22 13.93
12/23/2021 4:30:00 PM 2.02 35.636 0.061 6.86 0.25 13.89
12/23/2021 4:45:00 PM 2.02 35.636 0.061 6.85 0.24 13.85
12/23/2021 5:00:00 PM 2 35.6 0.061 6.85 0.22 13.8
12/23/2021 5:15:00 PM 1.99 35.582 0.061 6.84 0.26 13.78
12/23/2021 5:30:00 PM 1.97 35.546 0.061 6.83 0.3 13.75
12/23/2021 5:45:00 PM 1.96 35.528 0.061 6.83 0.32 13.73
12/23/2021 6:00:00 PM 1.94 35.492 0.061 6.82 0.24 13.72
12/23/2021 6:15:00 PM 1.93 35.474 0.062 6.81 0.27 13.71
12/23/2021 6:30:00 PM 1.92 35.456 0.061 6.8 0.34 13.69
12/23/2021 6:45:00 PM 1.92 35.456 0.062 6.8 0.27 13.68
12/23/2021 7:00:00 PM 1.91 35.438 0.062 6.79 0.26 13.67
12/23/2021 7:15:00 PM 1.9 35.42 0.062 6.78 0.34 13.67
12/23/2021 7:30:00 PM 1.9 35.42 0.062 6.78 0.31 13.66
12/23/2021 7:45:00 PM 1.89 35.402 0.062 6.78 0.33 13.66
12/23/2021 8:00:00 PM 1.88 35.384 0.062 6.78 0.35 13.65
12/23/2021 8:15:00 PM 1.88 35.384 0.062 6.79 0.33 13.64
12/23/2021 8:30:00 PM 1.88 35.384 0.062 6.79 0.31 13.65
12/23/2021 8:45:00 PM 1.88 35.384 0.062 6.79 0.36 13.64
12/23/2021 9:00:00 PM 1.87 35.366 0.062 6.79 0.29 13.63
12/23/2021 9:15:00 PM 1.87 35.366 0.062 6.8 0.31 13.63
12/23/2021 9:30:00 PM 1.86 35.348 0.061 6.8 0.32 13.63
12/23/2021 9:45:00 PM 1.87 35.366 0.062 6.79 0.3 13.62
12/23/2021 10:00:00 PM 1.87 35.366 0.062 6.79 0.3 13.62
12/23/2021 10:15:00 PM 1.86 35.348 0.062 6.79 0.3 13.62
12/23/2021 10:30:00 PM 1.84 35.312 0.062 6.8 0.31 13.62
12/23/2021 10:45:00 PM 1.83 35.294 0.062 6.79 0.28 13.62
12/23/2021 11:00:00 PM 1.81 35.258 0.061 6.79 0.33 13.61
12/23/2021 11:15:00 PM 1.79 35.222 0.061 6.79 0.29 13.62
12/23/2021 11:30:00 PM 1.72 35.096 0.061 6.79 0.31 13.62
12/23/2021 11:45:00 PM 1.64 34.952 0.062 6.79 0.31 13.64
12/24/2021 12:00:00 AM 1.62 34.916 0.061 6.79 0.3 13.65
12/24/2021 12:15:00 AM 1.61 34.898 0.061 6.79 0.26 13.66
12/24/2021 12:30:00 AM 1.61 34.898 0.061 6.78 0.27 13.67
12/24/2021 12:45:00 AM 1.6 34.88 0.061 6.78 0.3 13.67
12/24/2021 1:00:00 AM 1.6 34.88 0.061 6.78 0.24 13.68
12/24/2021 1:15:00 AM 1.61 34.898 0.061 6.78 0.3 13.69
12/24/2021 1:30:00 AM 1.61 34.898 0.061 6.77 0.27 13.69
12/24/2021 1:45:00 AM 1.61 34.898 0.061 6.77 0.27 13.69
12/24/2021 2:00:00 AM 1.62 34.916 0.061 6.77 0.28 13.69
12/24/2021 2:15:00 AM 1.63 34.934 0.061 6.77 0.27 13.69
12/24/2021 2:30:00 AM 1.63 34.934 0.061 6.76 0.27 13.69
12/24/2021 2:45:00 AM 1.64 34.952 0.061 6.76 0.29 13.69
12/24/2021 3:00:00 AM 1.65 34.97 0.061 6.76 0.25 13.69
12/24/2021 3:15:00 AM 1.66 34.988 0.061 6.76 0.32 13.69
12/24/2021 3:30:00 AM 1.67 35.006 0.061 6.75 0.34 13.68
12/24/2021 3:45:00 AM 1.68 35.024 0.061 6.76 0.26 13.68
12/24/2021 4:00:00 AM 1.69 35.042 0.061 6.76 0.27 13.67
12/24/2021 4:15:00 AM 1.7 35.06 0.061 6.76 0.23 13.67
12/24/2021 4:30:00 AM 1.71 35.078 0.061 6.75 0.28 13.66
12/24/2021 4:45:00 AM 1.72 35.096 0.061 6.76 0.24 13.67
12/24/2021 5:00:00 AM 1.73 35.114 0.061 6.76 0.32 13.66
12/24/2021 5:15:00 AM 1.74 35.132 0.061 6.76 0.27 13.66
12/24/2021 5:30:00 AM 1.75 35.15 0.062 6.76 0.27 13.66
12/24/2021 5:45:00 AM 1.76 35.168 0.062 6.76 0.29 13.66
12/24/2021 6:00:00 AM 1.76 35.168 0.061 6.76 0.26 13.65
12/24/2021 6:15:00 AM 1.77 35.186 0.061 6.76 0.22 13.65
12/24/2021 6:30:00 AM 1.78 35.204 0.061 6.76 0.23 13.65
12/24/2021 6:45:00 AM 1.79 35.222 0.061 6.76 0.27 13.65
12/24/2021 7:00:00 AM 1.79 35.222 0.062 6.76 0.26 13.64
12/24/2021 7:15:00 AM 1.8 35.24 0.062 6.76 0.32 13.64
12/24/2021 7:30:00 AM 1.8 35.24 0.062 6.75 0.28 13.64
12/24/2021 7:45:00 AM 1.81 35.258 0.062 6.75 0.28 13.65
12/24/2021 8:00:00 AM 1.82 35.276 0.062 6.75 0.22 13.66
12/24/2021 8:15:00 AM 1.83 35.294 0.062 6.76 0.24 13.68
12/24/2021 8:30:00 AM 1.85 35.33 0.062 6.77 0.21 13.7
12/24/2021 8:45:00 AM 1.87 35.366 0.062 6.78 0.23 13.73
12/24/2021 9:00:00 AM 1.89 35.402 0.062 6.79 0.19 13.76
12/24/2021 9:15:00 AM 1.92 35.456 0.062 6.8 0.2 13.8
12/24/2021 9:30:00 AM 1.95 35.51 0.062 6.81 0.18 13.83
12/24/2021 9:45:00 AM 2 35.6 0.061 6.82 0.17 13.85
12/24/2021 10:00:00 AM 2.04 35.672 0.061 6.83 0.17 13.87
12/24/2021 10:15:00 AM 2.08 35.744 0.061 6.83 0.17 13.89
12/24/2021 10:30:00 AM 2.12 35.816 0.061 6.84 0.23 13.9
12/24/2021 10:45:00 AM 2.14 35.852 0.061 6.84 0.22 13.91
12/24/2021 11:00:00 AM 2.17 35.906 0.061 6.85 0.18 13.9
12/24/2021 11:15:00 AM 2.19 35.942 0.062 6.85 0.22 13.9
12/24/2021 11:30:00 AM 2.21 35.978 0.061 6.86 0.19 13.9
12/24/2021 11:45:00 AM 2.25 36.05 0.061 6.86 0.17 13.89
12/24/2021 12:00:00 PM 2.28 36.104 0.061 6.86 0.18 13.88
12/24/2021 12:15:00 PM 2.32 36.176 0.061 6.87 0.14 13.87
12/24/2021 12:30:00 PM 2.36 36.248 0.061 6.87 0.18 13.85
12/24/2021 12:45:00 PM 2.42 36.356 0.061 6.87 0.2 13.84
12/24/2021 1:00:00 PM 2.48 36.464 0.062 6.88 0.16 13.83
12/24/2021 1:15:00 PM 2.55 36.59 0.061 6.88 0.16 13.81
12/24/2021 1:30:00 PM 2.61 36.698 0.061 6.88 0.14 13.79
12/24/2021 1:45:00 PM 2.67 36.806 0.061 6.89 0.17 13.78
12/24/2021 2:00:00 PM 2.74 36.932 0.061 6.89 0.18 13.76
12/24/2021 2:15:00 PM 2.8 37.04 0.061 6.89 0.18 13.74
12/24/2021 2:30:00 PM 2.86 37.148 0.061 6.89 0.13 13.71
12/24/2021 2:45:00 PM 2.93 37.274 0.061 6.9 0.2 13.69
12/24/2021 3:00:00 PM 2.99 37.382 0.061 6.9 0.17 13.67
12/24/2021 3:15:00 PM 3.04 37.472 0.062 6.9 0.15 13.64
12/24/2021 3:30:00 PM 3.08 37.544 0.062 6.9 0.14 13.6
12/24/2021 3:45:00 PM 3.11 37.598 0.061 6.9 0.18 13.56
12/24/2021 4:00:00 PM 3.13 37.634 0.061 6.89 0.19 13.52
12/24/2021 4:15:00 PM 3.15 37.67 0.061 6.89 0.23 13.47
12/24/2021 4:30:00 PM 3.17 37.706 0.061 6.88 0.22 13.42
12/24/2021 4:45:00 PM 3.18 37.724 0.062 6.87 0.21 13.36
12/24/2021 5:00:00 PM 3.19 37.742 0.062 6.86 0.24 13.32
12/24/2021 5:15:00 PM 3.2 37.76 0.062 6.85 0.26 13.27
12/24/2021 5:30:00 PM 3.2 37.76 0.062 6.84 0.23 13.23
12/24/2021 5:45:00 PM 3.2 37.76 0.062 6.83 0.28 13.2
12/24/2021 6:00:00 PM 3.2 37.76 0.062 6.82 0.27 13.18
12/24/2021 6:15:00 PM 3.21 37.778 0.062 6.82 0.33 13.17
12/24/2021 6:30:00 PM 3.21 37.778 0.063 6.81 0.31 13.14
12/24/2021 6:45:00 PM 3.21 37.778 0.062 6.81 0.29 13.13
12/24/2021 7:00:00 PM 3.21 37.778 0.062 6.81 0.33 13.12
12/24/2021 7:15:00 PM 3.22 37.796 0.062 6.8 0.36 13.1
12/24/2021 7:30:00 PM 3.22 37.796 0.063 6.8 0.3 13.09
12/24/2021 7:45:00 PM 3.23 37.814 0.063 6.8 0.4 13.08
12/24/2021 8:00:00 PM 3.23 37.814 0.062 6.8 0.32 13.07
12/24/2021 8:15:00 PM 3.24 37.832 0.063 6.8 0.47 13.06
12/24/2021 8:30:00 PM 3.25 37.85 0.062 6.79 0.35 13.05
12/24/2021 8:45:00 PM 3.26 37.868 0.062 6.79 0.36 13.04
12/24/2021 9:00:00 PM 3.27 37.886 0.062 6.79 0.34 13.03
12/24/2021 9:15:00 PM 3.29 37.922 0.062 6.79 0.32 13.02
12/24/2021 9:30:00 PM 3.3 37.94 0.063 6.79 0.37 13.01
12/24/2021 9:45:00 PM 3.31 37.958 0.063 6.79 0.45 13.01
12/24/2021 10:00:00 PM 3.33 37.994 0.062 6.79 0.34 13
12/24/2021 10:15:00 PM 3.34 38.012 0.062 6.78 0.41 12.99
12/24/2021 10:30:00 PM 3.36 38.048 0.062 6.78 0.35 12.98
12/24/2021 10:45:00 PM 3.37 38.066 0.062 6.78 0.34 12.97
12/24/2021 11:00:00 PM 3.39 38.102 0.063 6.78 0.38 12.97
12/24/2021 11:15:00 PM 3.4 38.12 0.062 6.78 0.36 12.96
12/24/2021 11:30:00 PM 3.41 38.138 0.063 6.78 0.39 12.95
12/24/2021 11:45:00 PM 3.43 38.174 0.062 6.78 0.32 12.95
12/25/2021 12:00:00 AM 3.44 38.192 0.062 6.77 0.32 12.94
12/25/2021 12:15:00 AM 3.45 38.21 0.062 6.77 0.4 12.94
12/25/2021 12:30:00 AM 3.46 38.228 0.063 6.77 0.35 12.92
12/25/2021 12:45:00 AM 3.47 38.246 0.063 6.77 0.35 12.92
12/25/2021 1:00:00 AM 3.48 38.264 0.063 6.77 0.3 12.91
12/25/2021 1:15:00 AM 3.49 38.282 0.062 6.78 0.37 12.9
12/25/2021 1:30:00 AM 3.5 38.3 0.062 6.77 0.39 12.89
12/25/2021 1:45:00 AM 3.51 38.318 0.063 6.77 0.33 12.88
12/25/2021 2:00:00 AM 3.52 38.336 0.062 6.77 0.43 12.87
12/25/2021 2:15:00 AM 3.53 38.354 0.062 6.77 0.39 12.87
12/25/2021 2:30:00 AM 3.54 38.372 0.063 6.77 0.34 12.87
12/25/2021 2:45:00 AM 3.56 38.408 0.063 6.77 0.36 12.86
12/25/2021 3:00:00 AM 3.57 38.426 0.063 6.77 0.37 12.86
12/25/2021 3:15:00 AM 3.58 38.444 0.063 6.77 0.34 12.84
12/25/2021 3:30:00 AM 3.59 38.462 0.063 6.77 0.39 12.84
12/25/2021 3:45:00 AM 3.6 38.48 0.063 6.77 0.37 12.83
12/25/2021 4:00:00 AM 3.61 38.498 0.063 6.77 0.38 12.83
12/25/2021 4:15:00 AM 3.62 38.516 0.063 6.77 0.34 12.82
12/25/2021 4:30:00 AM 3.64 38.552 0.063 6.77 0.33 12.81
12/25/2021 4:45:00 AM 3.65 38.57 0.063 6.77 0.35 12.8
12/25/2021 5:00:00 AM 3.66 38.588 0.063 6.77 0.37 12.79
12/25/2021 5:15:00 AM 3.67 38.606 0.063 6.77 0.48 12.79
12/25/2021 5:30:00 AM 3.68 38.624 0.063 6.77 0.37 12.78
12/25/2021 5:45:00 AM 3.69 38.642 0.063 6.77 0.37 12.77
12/25/2021 6:00:00 AM 3.7 38.66 0.063 6.77 0.39 12.76
12/25/2021 6:15:00 AM 3.71 38.678 0.063 6.77 0.43 12.76
12/25/2021 6:30:00 AM 3.72 38.696 0.063 6.76 0.51 12.75
12/25/2021 6:45:00 AM 3.73 38.714 0.063 6.77 0.54 12.75
12/25/2021 7:00:00 AM 3.74 38.732 0.063 6.77 0.63 12.74
12/25/2021 7:15:00 AM 3.75 38.75 0.063 6.77 0.65 12.73
12/25/2021 7:30:00 AM 3.76 38.768 0.063 6.76 0.91 12.73
12/25/2021 7:45:00 AM 3.77 38.786 0.063 6.76 0.94 12.72
12/25/2021 8:00:00 AM 3.78 38.804 0.063 6.77 1.08 12.72
12/25/2021 8:15:00 AM 3.79 38.822 0.063 6.76 0.99 12.73
12/25/2021 8:30:00 AM 3.81 38.858 0.063 6.77 0.8 12.74
12/25/2021 8:45:00 AM 3.83 38.894 0.063 6.77 0.88 12.74
12/25/2021 9:00:00 AM 3.84 38.912 0.063 6.77 0.89 12.76
12/25/2021 9:15:00 AM 3.86 38.948 0.063 6.78 0.98 12.77
12/25/2021 9:30:00 AM 3.88 38.984 0.063 6.78 1.16 12.79
12/25/2021 9:45:00 AM 3.91 39.038 0.063 6.79 1.26 12.81
12/25/2021 10:00:00 AM 3.93 39.074 0.063 6.8 1.3 12.83
12/25/2021 10:15:00 AM 3.95 39.11 0.063 6.8 1.25 12.83
12/25/2021 10:30:00 AM 3.98 39.164 0.063 6.81 1.26 12.85
12/25/2021 10:45:00 AM 4.01 39.218 0.063 6.81 1.33 12.86
12/25/2021 11:00:00 AM 4.04 39.272 0.063 6.81 1.35 12.87
12/25/2021 11:15:00 AM 4.06 39.308 0.063 6.81 1.29 12.86
12/25/2021 11:30:00 AM 4.09 39.362 0.063 6.82 1.3 12.87
12/25/2021 11:45:00 AM 4.12 39.416 0.063 6.82 1.35 12.86
12/25/2021 12:00:00 PM 4.15 39.47 0.063 6.82 1.28 12.86
12/25/2021 12:15:00 PM 4.18 39.524 0.063 6.83 1.24 12.86
12/25/2021 12:30:00 PM 4.22 39.596 0.064 6.83 1.31 12.88
12/25/2021 12:45:00 PM 4.26 39.668 0.064 6.84 1.3 12.88
12/25/2021 1:00:00 PM 4.3 39.74 0.064 6.84 1.39 12.88
12/25/2021 1:15:00 PM 4.35 39.83 0.064 6.84 1.52 12.88
12/25/2021 1:30:00 PM 4.39 39.902 0.064 6.84 1.53 12.88
12/25/2021 1:45:00 PM 4.42 39.956 0.064 6.84 1.59 12.84
12/25/2021 2:00:00 PM 4.45 40.01 0.064 6.84 1.62 12.82
12/25/2021 2:15:00 PM 4.47 40.046 0.064 6.83 1.89 12.78
12/25/2021 2:30:00 PM 4.5 40.1 0.064 6.83 1.93 12.74
12/25/2021 2:45:00 PM 4.53 40.154 0.064 6.84 2.18 12.71
12/25/2021 3:00:00 PM 4.55 40.19 0.064 6.83 2.52 12.68
12/25/2021 3:15:00 PM 4.57 40.226 0.064 6.83 3.27 12.65
12/25/2021 3:30:00 PM 4.6 40.28 0.064 6.83 3.95 12.65
12/25/2021 3:45:00 PM 4.64 40.352 0.064 6.86 5.92 12.66
12/25/2021 4:00:00 PM 4.67 40.406 0.064 6.84 5.91 12.65
12/25/2021 4:15:00 PM 4.69 40.442 0.065 6.83 6.04 12.61
12/25/2021 4:30:00 PM 4.7 40.46 0.065 6.83 6.7 12.58
12/25/2021 4:45:00 PM 4.72 40.496 0.065 6.82 6.77 12.54
12/25/2021 5:00:00 PM 4.74 40.532 0.065 6.79 6.8 12.5
12/25/2021 5:15:00 PM 4.75 40.55 0.065 6.79 7.09 12.48
12/25/2021 5:30:00 PM 4.77 40.586 0.065 6.78 9.45 12.46
12/25/2021 5:45:00 PM 4.78 40.604 0.066 6.77 9.75 12.44
12/25/2021 6:00:00 PM 4.79 40.622 0.066 6.76 8.14 12.42
12/25/2021 6:15:00 PM 4.81 40.658 0.066 6.76 7.8 12.41
12/25/2021 6:30:00 PM 4.84 40.712 0.066 6.76 7.7 12.4
12/25/2021 6:45:00 PM 4.85 40.73 0.067 6.75 7.74 12.39
12/25/2021 7:00:00 PM 4.86 40.748 0.067 6.75 7.7 12.38
12/25/2021 7:15:00 PM 4.88 40.784 0.068 6.75 7.5 12.37
12/25/2021 7:30:00 PM 4.91 40.838 0.068 6.75 104.42 12.37
12/25/2021 7:45:00 PM 4.94 40.892 0.069 6.76 6.78 12.36
12/25/2021 8:00:00 PM 4.95 40.91 0.07 6.76 30.86 12.36
12/25/2021 8:15:00 PM 4.96 40.928 0.071 6.76 6.97 12.36
12/25/2021 8:30:00 PM 4.99 40.982 0.072 6.76 6.88 12.35
12/25/2021 8:45:00 PM 5.02 41.036 0.074 6.79 7.44 12.34
12/25/2021 9:00:00 PM 5.03 41.054 0.075 6.8 8.25 12.34
12/25/2021 9:15:00 PM 5.05 41.09 0.076 6.81 9.16 12.32
12/25/2021 9:30:00 PM 5.07 41.126 0.077 6.81 10.07 12.31
12/25/2021 9:45:00 PM 5.08 41.144 0.078 6.82 10.48 12.31
12/25/2021 10:00:00 PM 5.11 41.198 0.078 6.83 10.92 12.3
12/25/2021 10:15:00 PM 5.14 41.252 0.079 6.84 11.47 12.29
12/25/2021 10:30:00 PM 5.17 41.306 0.079 6.85 11.72 12.29
12/25/2021 10:45:00 PM 5.18 41.324 0.08 6.86 11.75 12.28
12/25/2021 11:00:00 PM 5.18 41.324 0.08 6.86 11.58 12.28
12/25/2021 11:15:00 PM 5.18 41.324 0.081 6.87 11.53 12.28
12/25/2021 11:30:00 PM 5.2 41.36 0.081 6.88 11.33 12.28
12/25/2021 11:45:00 PM 5.21 41.378 0.081 6.88 11.11 12.27
12/26/2021 12:00:00 AM 5.22 41.396 0.082 6.88 11.11 12.27
12/26/2021 12:15:00 AM 5.22 41.396 0.082 6.88 1177.66 12.27
12/26/2021 12:30:00 AM 5.23 41.414 0.082 6.88 10.37 12.27
12/26/2021 12:45:00 AM 5.22 41.396 0.082 6.88 9.99 12.27
12/26/2021 1:00:00 AM 5.21 41.378 0.078 6.88 10.57 12.28
12/26/2021 1:15:00 AM 5.21 41.378 0.081 6.88 2619.61 12.28
12/26/2021 1:30:00 AM 5.22 41.396 0.081 6.88 9 12.28
12/26/2021 1:45:00 AM 5.22 41.396 0.081 6.87 8.66 12.28
12/26/2021 2:00:00 AM 5.21 41.378 0.081 6.87 8.28 12.28
12/26/2021 2:15:00 AM 5.2 41.36 0.08 6.87 8.05 12.29
12/26/2021 2:30:00 AM 5.18 41.324 0.08 6.87 7.83 12.29
12/26/2021 2:45:00 AM 5.16 41.288 0.08 6.87 7.47 12.3
12/26/2021 3:00:00 AM 5.15 41.27 0.08 6.87 7.19 12.31
12/26/2021 3:15:00 AM 5.14 41.252 0.08 6.87 7.01 12.32
12/26/2021 3:30:00 AM 5.14 41.252 0.08 6.87 6.84 12.32
12/26/2021 3:45:00 AM 5.13 41.234 0.08 6.88 7.04 12.33
12/26/2021 4:00:00 AM 5.12 41.216 0.08 6.87 7.7 12.33
12/26/2021 4:15:00 AM 5.12 41.216 0.08 6.87 6.28 12.34
12/26/2021 4:30:00 AM 5.12 41.216 0.08 6.87 6.33 12.34
12/26/2021 4:45:00 AM 5.12 41.216 0.08 6.86 2582.46 12.34
12/26/2021 5:00:00 AM 5.11 41.198 0.08 6.87 5.74 12.34
12/26/2021 5:15:00 AM 5.1 41.18 0.08 6.87 6.05 12.35
12/26/2021 5:30:00 AM 5.08 41.144 0.08 6.87 923.87 12.36
12/26/2021 5:45:00 AM 5.06 41.108 0.08 6.88 5.41 12.37
12/26/2021 6:00:00 AM 5.04 41.072 0.081 6.88 5.24 12.37
12/26/2021 6:15:00 AM 5.02 41.036 0.08 6.89 12.15 12.38
12/26/2021 6:30:00 AM 5 41 0.08 6.88 600.61 12.39
12/26/2021 6:45:00 AM 4.97 40.946 0.08 6.89 9.72 12.4
12/26/2021 7:00:00 AM 4.93 40.874 0.08 6.89 5.17 12.41
12/26/2021 7:15:00 AM 4.89 40.802 0.08 6.89 4.86 12.42
12/26/2021 7:30:00 AM 4.86 40.748 0.079 6.89 10.02 12.44
12/26/2021 7:45:00 AM 4.82 40.676 0.079 6.89 218.85 12.45
12/26/2021 8:00:00 AM 4.77 40.586 0.079 6.89 8.63 12.49
12/26/2021 8:15:00 AM 4.74 40.532 0.079 6.89 4.49 12.53
12/26/2021 8:30:00 AM 4.72 40.496 0.078 6.9 5.05 12.58
12/26/2021 8:45:00 AM 4.71 40.478 0.078 6.91 4.22 12.61
12/26/2021 9:00:00 AM 4.69 40.442 0.078 6.92 4.19 12.65
12/26/2021 9:15:00 AM 4.69 40.442 0.078 6.92 4.01 12.69
12/26/2021 9:30:00 AM 4.71 40.478 0.077 6.93 3.93 12.75
12/26/2021 9:45:00 AM 4.72 40.496 0.077 6.93 3.95 12.79
12/26/2021 10:00:00 AM 4.73 40.514 0.077 6.93 3.79 12.82
12/26/2021 10:15:00 AM 4.77 40.586 0.076 6.93 3.7 12.86
12/26/2021 10:30:00 AM 4.78 40.604 0.076 6.94 3.6 12.88
12/26/2021 10:45:00 AM 4.81 40.658 0.076 6.94 3.4 12.9
12/26/2021 11:00:00 AM 4.82 40.676 0.076 6.94 3.29 12.92
12/26/2021 11:15:00 AM 4.85 40.73 0.076 6.95 3.29 12.93
12/26/2021 11:30:00 AM 4.88 40.784 0.075 6.95 3.21 12.95
12/26/2021 11:45:00 AM 4.91 40.838 0.075 6.95 3.22 12.96
12/26/2021 12:00:00 PM 4.94 40.892 0.075 6.95 3.11 12.97
12/26/2021 12:15:00 PM 4.97 40.946 0.075 6.96 3.11 12.97
12/26/2021 12:30:00 PM 4.99 40.982 0.074 6.96 5.96 12.97
12/26/2021 12:45:00 PM 5.02 41.036 0.074 6.96 3.03 12.97
12/26/2021 1:00:00 PM 5.06 41.108 0.074 6.97 2.96 12.98
12/26/2021 1:15:00 PM 5.1 41.18 0.073 6.97 2.95 12.99
12/26/2021 1:30:00 PM 5.11 41.198 0.073 6.99 2.77 12.98
12/26/2021 1:45:00 PM 5.12 41.216 0.073 6.99 2.82 12.95
12/26/2021 2:00:00 PM 5.15 41.27 0.073 6.98 3.14 12.94
12/26/2021 2:15:00 PM 5.17 41.306 0.073 6.99 2.54 12.94
12/26/2021 2:30:00 PM 5.18 41.324 0.072 6.99 2.52 12.94
12/26/2021 2:45:00 PM 5.19 41.342 0.072 6.99 2.46 12.94
12/26/2021 3:00:00 PM 5.19 41.342 0.072 6.98 2.51 12.92
12/26/2021 3:15:00 PM 5.21 41.378 0.072 6.99 2.42 12.91
12/26/2021 3:30:00 PM 5.22 41.396 0.071 6.99 2.5 12.9
12/26/2021 3:45:00 PM 5.22 41.396 0.071 6.98 2.36 12.86
12/26/2021 4:00:00 PM 5.2 41.36 0.071 6.97 2.28 12.81
12/26/2021 4:15:00 PM 5.17 41.306 0.071 6.96 2.34 12.77
12/26/2021 4:30:00 PM 5.12 41.216 0.071 6.94 2.33 12.75
12/26/2021 4:45:00 PM 5.06 41.108 0.071 6.91 2.15 12.72
12/26/2021 5:00:00 PM 5 41 0.071 6.91 2.08 12.7
12/26/2021 5:15:00 PM 4.93 40.874 0.071 6.91 2.13 12.68
12/26/2021 5:30:00 PM 4.88 40.784 0.071 6.9 2.21 12.66
12/26/2021 5:45:00 PM 4.82 40.676 0.071 6.89 2.15 12.66
12/26/2021 6:00:00 PM 4.76 40.568 0.071 6.89 2.12 12.64
12/26/2021 6:15:00 PM 4.7 40.46 0.07 6.89 2.03 12.65
12/26/2021 6:30:00 PM 4.64 40.352 0.07 6.88 2.1 12.65
12/26/2021 6:45:00 PM 4.59 40.262 0.07 6.88 2.04 12.65
12/26/2021 7:00:00 PM 4.54 40.172 0.071 6.87 2.02 12.66
12/26/2021 7:15:00 PM 4.48 40.064 0.07 6.87 2.02 12.67
12/26/2021 7:30:00 PM 4.43 39.974 0.07 6.86 1.95 12.68
12/26/2021 7:45:00 PM 4.38 39.884 0.071 6.86 1.98 12.69
12/26/2021 8:00:00 PM 4.32 39.776 0.07 6.86 1.91 12.7
12/26/2021 8:15:00 PM 4.27 39.686 0.07 6.85 1.95 12.72
12/26/2021 8:30:00 PM 4.22 39.596 0.07 6.85 1.83 12.74
12/26/2021 8:45:00 PM 4.17 39.506 0.07 6.85 1.82 12.76
12/26/2021 9:00:00 PM 4.12 39.416 0.07 6.84 1.85 12.77
12/26/2021 9:15:00 PM 4.07 39.326 0.069 6.84 1.84 12.79
12/26/2021 9:30:00 PM 4.02 39.236 0.069 6.84 1.75 12.8
12/26/2021 9:45:00 PM 3.98 39.164 0.069 6.84 1.72 12.82
12/26/2021 10:00:00 PM 3.95 39.11 0.069 6.84 1.72 12.83
12/26/2021 10:15:00 PM 3.92 39.056 0.069 6.83 1.67 12.84
12/26/2021 10:30:00 PM 3.88 38.984 0.069 6.83 1.65 12.86
12/26/2021 10:45:00 PM 3.85 38.93 0.069 6.83 1.72 12.88
12/26/2021 11:00:00 PM 3.82 38.876 0.069 6.83 1.68 12.89
12/26/2021 11:15:00 PM 3.79 38.822 0.069 6.82 1.59 12.91
12/26/2021 11:30:00 PM 3.76 38.768 0.069 6.82 1.53 12.92
12/26/2021 11:45:00 PM 3.71 38.678 0.069 6.82 1.45 12.93
12/27/2021 12:00:00 AM 3.67 38.606 0.069 6.81 1.49 12.96
12/27/2021 12:15:00 AM 3.63 38.534 0.069 6.81 2.31 12.97
12/27/2021 12:30:00 AM 3.59 38.462 0.068 6.81 1.46 12.98
12/27/2021 12:45:00 AM 3.54 38.372 0.068 6.8 1.45 12.99
12/27/2021 1:00:00 AM 3.5 38.3 0.068 6.8 1.39 13
12/27/2021 1:15:00 AM 3.46 38.228 0.068 6.8 1.4 13.01
12/27/2021 1:30:00 AM 3.42 38.156 0.068 6.8 1.35 13.03
12/27/2021 1:45:00 AM 3.37 38.066 0.068 6.8 1.4 13.04
12/27/2021 2:00:00 AM 3.33 37.994 0.068 6.8 1.42 13.06
12/27/2021 2:15:00 AM 3.29 37.922 0.068 6.79 1.43 13.07
12/27/2021 2:30:00 AM 3.26 37.868 0.068 6.79 1.58 13.09
12/27/2021 2:45:00 AM 3.23 37.814 0.068 6.79 1.31 13.09
12/27/2021 3:00:00 AM 3.21 37.778 0.068 6.79 1.55 13.11
12/27/2021 3:15:00 AM 3.19 37.742 0.068 6.79 1.3 13.11
12/27/2021 3:30:00 AM 3.16 37.688 0.068 6.79 1.26 13.12
12/27/2021 3:45:00 AM 3.14 37.652 0.068 6.79 1.28 13.13
12/27/2021 4:00:00 AM 3.12 37.616 0.067 6.79 1.21 13.14
12/27/2021 4:15:00 AM 3.11 37.598 0.067 6.79 1.31 13.15
12/27/2021 4:30:00 AM 3.09 37.562 0.067 6.78 1.19 13.16
12/27/2021 4:45:00 AM 3.06 37.508 0.067 6.78 1.14 13.17
12/27/2021 5:00:00 AM 3.04 37.472 0.067 6.78 1.16 13.18
12/27/2021 5:15:00 AM 3.03 37.454 0.067 6.78 1.16 13.18
12/27/2021 5:30:00 AM 3.01 37.418 0.067 6.78 1.23 13.18
12/27/2021 5:45:00 AM 2.99 37.382 0.067 6.78 1.18 13.2
12/27/2021 6:00:00 AM 2.97 37.346 0.067 6.78 1.18 13.2
12/27/2021 6:15:00 AM 2.95 37.31 0.067 6.78 1.12 13.22
12/27/2021 6:30:00 AM 2.93 37.274 0.067 6.78 1.09 13.22
12/27/2021 6:45:00 AM 2.91 37.238 0.067 6.78 1.02 13.23
12/27/2021 7:00:00 AM 2.9 37.22 0.067 6.78 1.06 13.23
12/27/2021 7:15:00 AM 2.89 37.202 0.067 6.78 1.08 13.24
12/27/2021 7:30:00 AM 2.88 37.184 0.067 6.78 1.06 13.24
12/27/2021 7:45:00 AM 2.87 37.166 0.066 6.77 1.2 13.25
12/27/2021 8:00:00 AM 2.86 37.148 0.05 6.78 1.18 13.26
12/27/2021 8:15:00 AM 2.86 37.148 0.066 6.78 4.74 13.26
12/27/2021 8:30:00 AM 2.85 37.13 0.066 6.78 1.5 13.28
12/27/2021 8:45:00 AM 2.74 36.932 0.066 6.79 1.09 13.3
12/27/2021 9:00:00 AM 2.65 36.77 0.066 6.79 1.07 13.33
12/27/2021 9:15:00 AM 2.63 36.734 0.066 6.81 0.96 13.37
12/27/2021 9:30:00 AM 2.65 36.77 0.066 6.82 1.07 13.43
12/27/2021 9:45:00 AM 2.66 36.788 0.066 6.83 0.96 13.47
12/27/2021 10:00:00 AM 2.63 36.734 0.065 6.84 1.35 13.51
12/27/2021 10:15:00 AM 2.62 36.716 0.065 6.85 4.89 13.54
12/27/2021 10:30:00 AM 2.65 36.77 0.065 6.86 1.41 13.56
12/27/2021 10:45:00 AM 2.67 36.806 0.065 6.87 1.18 13.57
12/27/2021 11:00:00 AM 2.67 36.806 0.065 6.88 51.38 13.59
12/27/2021 11:15:00 AM 2.64 36.752 0.065 6.87 1.59 13.61
12/27/2021 11:30:00 AM 2.65 36.77 0.065 6.87 1.06 13.62
12/27/2021 11:45:00 AM 2.65 36.77 0.064 6.88 1.08 13.62
12/27/2021 12:00:00 PM 2.65 36.77 0.064 6.87 0.99 13.6
12/27/2021 12:15:00 PM 2.66 36.788 0.064 6.88 1.07 13.62
12/27/2021 12:30:00 PM 2.69 36.842 0.064 6.88 1.03 13.63
12/27/2021 12:45:00 PM 2.71 36.878 0.064 6.88 1.04 13.62
12/27/2021 1:00:00 PM 2.73 36.914 0.064 6.88 0.98 13.61
12/27/2021 1:15:00 PM 2.75 36.95 0.064 6.88 1.03 13.59
12/27/2021 1:30:00 PM 2.77 36.986 0.064 6.88 0.99 13.58
12/27/2021 1:45:00 PM 2.78 37.004 0.064 6.87 1.01 13.56
12/27/2021 2:00:00 PM 2.79 37.022 0.064 6.88 1 13.55
12/27/2021 2:15:00 PM 2.81 37.058 0.064 6.87 1.01 13.53
12/27/2021 2:30:00 PM 2.81 37.058 0.064 6.87 1.02 13.52
12/27/2021 2:45:00 PM 2.82 37.076 0.064 6.87 0.94 13.5
12/27/2021 3:00:00 PM 2.82 37.076 0.064 6.86 0.97 13.46
12/27/2021 3:15:00 PM 2.83 37.094 0.064 6.85 1.09 13.44
12/27/2021 3:30:00 PM 2.84 37.112 0.064 6.85 1.1 13.42
12/27/2021 3:45:00 PM 2.85 37.13 0.064 6.84 1.04 13.4
12/27/2021 4:00:00 PM 2.85 37.13 0.064 6.84 1.08 13.37
12/27/2021 4:15:00 PM 2.86 37.148 0.064 6.83 1.08 13.34
12/27/2021 4:30:00 PM 2.87 37.166 0.064 6.83 1.11 13.31
12/27/2021 4:45:00 PM 2.88 37.184 0.064 6.82 1.09 13.29
12/27/2021 5:00:00 PM 2.89 37.202 0.064 6.81 1.1 13.27
12/27/2021 5:15:00 PM 2.89 37.202 0.064 6.81 1.17 13.25
12/27/2021 5:30:00 PM 2.89 37.202 0.064 6.8 1.07 13.23
12/27/2021 5:45:00 PM 2.9 37.22 0.064 6.79 1.14 13.21
12/27/2021 6:00:00 PM 2.91 37.238 0.064 6.79 1.09 13.2
12/27/2021 6:15:00 PM 2.91 37.238 0.064 6.79 1.2 13.19
12/27/2021 6:30:00 PM 2.91 37.238 0.064 6.79 1.09 13.18
12/27/2021 6:45:00 PM 2.92 37.256 0.064 6.78 1.12 13.17
12/27/2021 7:00:00 PM 2.92 37.256 0.063 6.78 1.16 13.16
12/27/2021 7:15:00 PM 2.92 37.256 0.063 6.78 1.18 13.16
12/27/2021 7:30:00 PM 2.92 37.256 0.064 6.78 1.15 13.15
12/27/2021 7:45:00 PM 2.93 37.274 0.063 6.78 1.27 13.15
12/27/2021 8:00:00 PM 2.93 37.274 0.063 6.78 1.14 13.14
12/27/2021 8:15:00 PM 2.94 37.292 0.063 6.78 1.23 13.13
12/27/2021 8:30:00 PM 2.95 37.31 0.063 6.78 1.19 13.13
12/27/2021 8:45:00 PM 2.95 37.31 0.063 6.78 1.21 13.12
12/27/2021 9:00:00 PM 2.96 37.328 0.063 6.78 1.23 13.11
12/27/2021 9:15:00 PM 2.97 37.346 0.063 6.78 1.2 13.11
12/27/2021 9:30:00 PM 2.98 37.364 0.063 6.78 1.21 13.1
12/27/2021 9:45:00 PM 2.99 37.382 0.063 6.77 1.23 13.1
12/27/2021 10:00:00 PM 3 37.4 0.063 6.77 1.3 13.09
12/27/2021 10:15:00 PM 3.01 37.418 0.063 6.78 1.26 13.09
12/27/2021 10:30:00 PM 3.02 37.436 0.063 6.77 1.2 13.08
12/27/2021 10:45:00 PM 3.03 37.454 0.063 6.77 1.21 13.08
12/27/2021 11:00:00 PM 3.04 37.472 0.063 6.77 1.21 13.07
12/27/2021 11:15:00 PM 3.05 37.49 0.063 6.77 1.16 13.07
12/27/2021 11:30:00 PM 3.06 37.508 0.063 6.77 1.18 13.06
12/27/2021 11:45:00 PM 3.07 37.526 0.063 6.76 1.15 13.06
12/28/2021 12:00:00 AM 3.08 37.544 0.063 6.78 1.25 13.06
12/28/2021 12:15:00 AM 3.09 37.562 0.063 6.78 1.23 13.05
12/28/2021 12:30:00 AM 3.11 37.598 0.064 6.77 1.39 13.05
12/28/2021 12:45:00 AM 3.12 37.616 0.064 6.77 1.32 13.05
12/28/2021 1:00:00 AM 3.13 37.634 0.064 6.78 2.73 13.05
12/28/2021 1:15:00 AM 3.14 37.652 0.064 6.78 1.35 13.04
12/28/2021 1:30:00 AM 3.15 37.67 0.064 6.78 1.39 13.04
12/28/2021 1:45:00 AM 3.15 37.67 0.064 6.79 1.36 13.04
12/28/2021 2:00:00 AM 3.16 37.688 0.064 6.79 1.29 13.03
12/28/2021 2:15:00 AM 3.16 37.688 0.064 6.79 1.36 13.04
12/28/2021 2:30:00 AM 3.17 37.706 0.064 6.8 1.41 13.04
12/28/2021 2:45:00 AM 3.18 37.724 0.064 6.8 1.35 13.03
12/28/2021 3:00:00 AM 3.18 37.724 0.065 6.8 1.36 13.03
12/28/2021 3:15:00 AM 3.19 37.742 0.064 6.81 1.32 13.04
12/28/2021 3:30:00 AM 3.19 37.742 0.064 6.81 1.41 13.03
12/28/2021 3:45:00 AM 3.19 37.742 0.064 6.81 1.38 13.03
12/28/2021 4:00:00 AM 3.19 37.742 0.065 6.81 1.39 13.04
12/28/2021 4:15:00 AM 3.17 37.706 0.065 6.81 1.33 13.04
12/28/2021 4:30:00 AM 3.16 37.688 0.065 6.81 1.38 13.04
12/28/2021 4:45:00 AM 3.14 37.652 0.065 6.81 1.44 13.04
12/28/2021 5:00:00 AM 3.11 37.598 0.065 6.81 1.36 13.05
12/28/2021 5:15:00 AM 3.08 37.544 0.065 6.81 1.46 13.06
12/28/2021 5:30:00 AM 3.05 37.49 0.065 6.8 1.39 13.07
12/28/2021 5:45:00 AM 3.02 37.436 0.065 6.8 1.38 13.08
12/28/2021 6:00:00 AM 3 37.4 0.065 6.8 1.32 13.08
12/28/2021 6:15:00 AM 2.97 37.346 0.065 6.8 1.45 13.09
12/28/2021 6:30:00 AM 2.95 37.31 0.065 6.79 1.42 13.1
12/28/2021 6:45:00 AM 2.93 37.274 0.065 6.79 1.45 13.11
12/28/2021 7:00:00 AM 2.9 37.22 0.065 6.79 1.49 13.12
12/28/2021 7:15:00 AM 2.88 37.184 0.065 6.8 1.47 13.13
12/28/2021 7:30:00 AM 2.86 37.148 0.066 6.81 1.46 13.14
12/28/2021 7:45:00 AM 2.84 37.112 0.066 6.8 1.52 13.16
12/28/2021 8:00:00 AM 2.83 37.094 0.066 6.8 1.92 13.19
12/28/2021 8:15:00 AM 2.82 37.076 0.066 6.81 1.77 13.22
12/28/2021 8:30:00 AM 2.82 37.076 0.066 6.81 1.63 13.26
12/28/2021 8:45:00 AM 2.81 37.058 0.066 6.81 1.69 13.29
12/28/2021 9:00:00 AM 2.81 37.058 0.066 6.82 1.75 13.31
12/28/2021 9:15:00 AM 2.83 37.094 0.067 6.82 1.95 13.34
12/28/2021 9:30:00 AM 2.85 37.13 0.067 6.84 1.69 13.37
12/28/2021 9:45:00 AM 2.87 37.166 0.067 6.85 1.51 13.38
12/28/2021 10:00:00 AM 2.9 37.22 0.067 6.85 1.51 13.41
12/28/2021 10:15:00 AM 2.96 37.328 0.067 6.87 1.48 13.44
12/28/2021 10:30:00 AM 3.02 37.436 0.068 6.87 1.51 13.45
12/28/2021 10:45:00 AM 3.08 37.544 0.068 6.88 1.43 13.47
12/28/2021 11:00:00 AM 3.16 37.688 0.068 6.89 1.46 13.49
12/28/2021 11:15:00 AM 3.24 37.832 0.068 6.9 1.45 13.49
12/28/2021 11:30:00 AM 3.32 37.976 0.069 6.91 1.69 13.49
12/28/2021 11:45:00 AM 3.39 38.102 0.069 6.91 1.51 13.48
12/28/2021 12:00:00 PM 3.44 38.192 0.069 6.92 1.58 13.47
12/28/2021 12:15:00 PM 3.5 38.3 0.07 6.92 1.54 13.45
12/28/2021 12:30:00 PM 3.55 38.39 0.07 6.93 549.16 13.42
12/28/2021 12:45:00 PM 3.59 38.462 0.07 6.92 1.6 13.41
12/28/2021 1:00:00 PM 3.62 38.516 0.071 6.93 1.54 13.39
12/28/2021 1:15:00 PM 3.65 38.57 0.071 6.93 1.48 13.37
12/28/2021 1:30:00 PM 3.69 38.642 0.071 6.93 1.56 13.34
12/28/2021 1:45:00 PM 3.73 38.714 0.071 6.94 1.57 13.35
12/28/2021 2:00:00 PM 3.77 38.786 0.071 6.94 1.61 13.33
12/28/2021 2:15:00 PM 3.8 38.84 0.072 6.95 1.65 13.31
12/28/2021 2:30:00 PM 3.82 38.876 0.072 6.94 1.62 13.27
12/28/2021 2:45:00 PM 3.84 38.912 0.072 6.93 3.7 13.23
12/28/2021 3:00:00 PM 3.85 38.93 0.072 6.92 6.21 13.18
12/28/2021 3:15:00 PM 3.86 38.948 0.072 6.92 1.76 13.15
12/28/2021 3:30:00 PM 3.87 38.966 0.072 6.92 1.68 13.12
12/28/2021 3:45:00 PM 3.87 38.966 0.072 6.92 1.66 13.1
12/28/2021 4:00:00 PM 3.87 38.966 0.072 6.91 1.74 13.06
12/28/2021 4:15:00 PM 3.88 38.984 0.072 6.9 1.74 13.03
12/28/2021 4:30:00 PM 3.88 38.984 0.072 6.89 1.73 13
12/28/2021 4:45:00 PM 3.88 38.984 0.072 6.88 1.75 12.97
12/28/2021 5:00:00 PM 3.88 38.984 0.072 6.86 1.79 12.94
12/28/2021 5:15:00 PM 3.88 38.984 0.072 6.85 1.8 12.93
12/28/2021 5:30:00 PM 3.87 38.966 0.072 6.85 1.86 12.91
12/28/2021 5:45:00 PM 3.84 38.912 0.072 6.83 1.8 12.89
12/28/2021 6:00:00 PM 3.8 38.84 0.072 6.83 1.93 12.89
12/28/2021 6:15:00 PM 3.71 38.678 0.072 6.82 1.88 12.87
12/28/2021 6:30:00 PM 3.63 38.534 0.072 6.82 2.09 12.87
12/28/2021 6:45:00 PM 3.53 38.354 0.072 6.81 2.31 12.88
12/28/2021 7:00:00 PM 3.45 38.21 0.072 6.81 1.95 12.89
12/28/2021 7:15:00 PM 3.31 37.958 0.072 6.81 1.93 12.89
12/28/2021 7:30:00 PM 3.2 37.76 0.072 6.81 2.01 12.9
12/28/2021 7:45:00 PM 3.14 37.652 0.072 6.8 2.03 12.92
12/28/2021 8:00:00 PM 3.1 37.58 0.072 6.8 2.07 12.94
12/28/2021 8:15:00 PM 2.99 37.382 0.072 6.8 2.12 12.97
12/28/2021 8:30:00 PM 2.96 37.328 0.072 6.81 2.05 12.99
12/28/2021 8:45:00 PM 2.94 37.292 0.072 6.81 2.17 13.01
12/28/2021 9:00:00 PM 2.94 37.292 0.072 6.81 2.19 13.02
12/28/2021 9:15:00 PM 2.94 37.292 0.072 6.81 2.17 13.04
12/28/2021 9:30:00 PM 2.94 37.292 0.072 6.82 2.19 13.05
12/28/2021 9:45:00 PM 2.95 37.31 0.071 6.81 2.14 13.06
12/28/2021 10:00:00 PM 2.97 37.346 0.071 6.81 2.22 13.06
12/28/2021 10:15:00 PM 2.99 37.382 0.071 6.8 2.18 13.06
12/28/2021 10:30:00 PM 3.01 37.418 0.071 6.8 2.16 13.05
12/28/2021 10:45:00 PM 3.03 37.454 0.071 6.8 2.26 13.05
12/28/2021 11:00:00 PM 3.04 37.472 0.071 6.8 2.23 13.05
12/28/2021 11:15:00 PM 3.05 37.49 0.071 6.8 2.27 13.05
12/28/2021 11:30:00 PM 3.06 37.508 0.071 6.8 2.24 13.05
12/28/2021 11:45:00 PM 3.06 37.508 0.071 6.8 2.13 13.05
12/29/2021 12:00:00 AM 3.07 37.526 0.071 6.8 2.15 13.04
12/29/2021 12:15:00 AM 3.07 37.526 0.071 6.8 2.23 13.05
12/29/2021 12:30:00 AM 3.07 37.526 0.071 6.8 2.14 13.05
12/29/2021 12:45:00 AM 3.06 37.508 0.071 6.8 2.17 13.05
12/29/2021 1:00:00 AM 3.06 37.508 0.071 6.8 2.16 13.05
12/29/2021 1:15:00 AM 3.05 37.49 0.071 6.8 2.14 13.05
12/29/2021 1:30:00 AM 3.05 37.49 0.071 6.8 1.98 13.05
12/29/2021 1:45:00 AM 3.05 37.49 0.071 6.8 2.08 13.05
12/29/2021 2:00:00 AM 3.05 37.49 0.071 6.8 1.98 13.05
12/29/2021 2:15:00 AM 3.05 37.49 0.071 6.8 1.87 13.05
12/29/2021 2:30:00 AM 3.05 37.49 0.071 6.8 2 13.05
12/29/2021 2:45:00 AM 3.06 37.508 0.072 6.8 2.16 13.05
12/29/2021 3:00:00 AM 3.06 37.508 0.072 6.8 1.99 13.05
12/29/2021 3:15:00 AM 3.07 37.526 0.072 6.8 1.99 13.05
12/29/2021 3:30:00 AM 3.07 37.526 0.072 6.8 2.08 13.05
12/29/2021 3:45:00 AM 3.07 37.526 0.072 6.8 2.2 13.05
12/29/2021 4:00:00 AM 3.08 37.544 0.073 6.8 2.21 13.04
12/29/2021 4:15:00 AM 3.08 37.544 0.073 6.8 2.17 13.05
12/29/2021 4:30:00 AM 3.08 37.544 0.073 6.8 2.15 13.05
12/29/2021 4:45:00 AM 3.08 37.544 0.073 6.8 2.12 13.04
12/29/2021 5:00:00 AM 3.08 37.544 0.073 6.8 2.13 13.05
12/29/2021 5:15:00 AM 3.08 37.544 0.073 6.8 2.15 13.05
12/29/2021 5:30:00 AM 3.08 37.544 0.073 6.8 2.18 13.05
12/29/2021 5:45:00 AM 3.08 37.544 0.073 6.81 2.36 13.05
12/29/2021 6:00:00 AM 3.08 37.544 0.073 6.81 2.23 13.04
12/29/2021 6:15:00 AM 3.09 37.562 0.073 6.81 2.23 13.05
12/29/2021 6:30:00 AM 3.09 37.562 0.073 6.81 2.21 13.04
12/29/2021 6:45:00 AM 3.1 37.58 0.073 6.81 2.33 13.05
12/29/2021 7:00:00 AM 3.11 37.598 0.073 6.8 2.24 13.04
12/29/2021 7:15:00 AM 3.11 37.598 0.073 6.81 2.24 13.05
12/29/2021 7:30:00 AM 3.12 37.616 0.073 6.81 2.5 13.04
12/29/2021 7:45:00 AM 3.13 37.634 0.073 6.81 2.38 13.05
12/29/2021 8:00:00 AM 3.14 37.652 0.073 6.81 2.25 13.05
12/29/2021 8:15:00 AM 3.14 37.652 0.073 6.81 2.32 13.06
12/29/2021 8:30:00 AM 3.15 37.67 0.073 6.82 2.31 13.08
12/29/2021 8:45:00 AM 3.17 37.706 0.073 6.82 2.22 13.09
12/29/2021 9:00:00 AM 3.18 37.724 0.073 6.82 2.34 13.11
12/29/2021 9:15:00 AM 3.2 37.76 0.073 6.83 2.28 13.13
12/29/2021 9:30:00 AM 3.22 37.796 0.073 6.83 2.21 13.14
12/29/2021 9:45:00 AM 3.24 37.832 0.073 6.84 2.25 13.16
12/29/2021 10:00:00 AM 3.27 37.886 0.073 6.85 2.14 13.18
12/29/2021 10:15:00 AM 3.3 37.94 0.073 6.86 2.1 13.2
12/29/2021 10:30:00 AM 3.33 37.994 0.073 6.86 2.13 13.22
12/29/2021 10:45:00 AM 3.36 38.048 0.073 6.87 2.16 13.23
12/29/2021 11:00:00 AM 3.39 38.102 0.073 6.87 2.14 13.23
12/29/2021 11:15:00 AM 3.41 38.138 0.073 6.88 2.19 13.23
12/29/2021 11:30:00 AM 3.45 38.21 0.073 6.88 2.06 13.25
12/29/2021 11:45:00 AM 3.49 38.282 0.073 6.89 2.08 13.25
12/29/2021 12:00:00 PM 3.52 38.336 0.073 6.89 2.04 13.25
12/29/2021 12:15:00 PM 3.55 38.39 0.073 6.89 2.07 13.26
12/29/2021 12:30:00 PM 3.59 38.462 0.073 6.9 2.09 13.26
12/29/2021 12:45:00 PM 3.64 38.552 0.073 6.9 2.05 13.28
12/29/2021 1:00:00 PM 3.68 38.624 0.074 6.91 2.03 13.28
12/29/2021 1:15:00 PM 3.72 38.696 0.073 6.92 2.38 13.27
12/29/2021 1:30:00 PM 3.76 38.768 0.073 6.92 2.09 13.26
12/29/2021 1:45:00 PM 3.81 38.858 0.073 6.92 2.16 13.25
12/29/2021 2:00:00 PM 3.86 38.948 0.073 6.92 2.07 13.25
12/29/2021 2:15:00 PM 3.9 39.02 0.073 6.93 2.11 13.24
12/29/2021 2:30:00 PM 3.94 39.092 0.073 6.92 2.11 13.21
12/29/2021 2:45:00 PM 3.97 39.146 0.074 6.92 2.03 13.19
12/29/2021 3:00:00 PM 4 39.2 0.073 6.92 2.15 13.17
12/29/2021 3:15:00 PM 4.03 39.254 0.074 6.92 2.05 13.15
12/29/2021 3:30:00 PM 4.06 39.308 0.074 6.92 1.99 13.13
12/29/2021 3:45:00 PM 4.09 39.362 0.074 6.92 2.05 13.09
12/29/2021 4:00:00 PM 4.11 39.398 0.074 6.91 2.11 13.04
12/29/2021 4:15:00 PM 4.13 39.434 0.074 6.91 2.56 13
12/29/2021 4:30:00 PM 4.14 39.452 0.074 6.9 2.68 12.97
12/29/2021 4:45:00 PM 4.16 39.488 0.074 6.9 2.99 12.93
12/29/2021 5:00:00 PM 4.17 39.506 0.074 6.88 2.85 12.89
12/29/2021 5:15:00 PM 4.18 39.524 0.074 6.87 2.27 12.86
12/29/2021 5:30:00 PM 4.19 39.542 0.074 6.87 2.36 12.84
12/29/2021 5:45:00 PM 4.2 39.56 0.075 6.86 2.45 12.82
12/29/2021 6:00:00 PM 4.22 39.596 0.075 6.86 2.48 12.8
12/29/2021 6:15:00 PM 4.23 39.614 0.075 6.86 2.36 12.78
12/29/2021 6:30:00 PM 4.24 39.632 0.075 6.85 2.49 12.76
12/29/2021 6:45:00 PM 4.25 39.65 0.075 6.85 2.79 12.75
12/29/2021 7:00:00 PM 4.27 39.686 0.075 6.85 2.75 12.74
12/29/2021 7:15:00 PM 4.28 39.704 0.075 6.85 3.03 12.73
12/29/2021 7:30:00 PM 4.29 39.722 0.076 6.84 3.33 12.72
12/29/2021 7:45:00 PM 4.3 39.74 0.076 6.84 3.48 12.71
12/29/2021 8:00:00 PM 4.31 39.758 0.076 6.84 3.87 12.71
12/29/2021 8:15:00 PM 4.32 39.776 0.076 6.83 3.83 12.7
12/29/2021 8:30:00 PM 4.33 39.794 0.077 6.83 4.12 12.69
12/29/2021 8:45:00 PM 4.34 39.812 0.077 6.83 4.39 12.69
12/29/2021 9:00:00 PM 4.35 39.83 0.077 6.83 4.22 12.69
12/29/2021 9:15:00 PM 4.35 39.83 0.077 6.83 4.53 12.68
12/29/2021 9:30:00 PM 4.36 39.848 0.078 6.83 5.09 12.68
12/29/2021 9:45:00 PM 4.36 39.848 0.078 6.83 6.34 12.67
12/29/2021 10:00:00 PM 4.37 39.866 0.078 6.82 4.77 12.67
12/29/2021 10:15:00 PM 4.37 39.866 0.079 6.82 4.54 12.67
12/29/2021 10:30:00 PM 4.38 39.884 0.078 6.82 326.04 12.66
12/29/2021 10:45:00 PM 4.39 39.902 0.079 6.84 4.78 12.66
12/29/2021 11:00:00 PM 4.4 39.92 0.08 6.82 4.65 12.65
12/29/2021 11:15:00 PM 4.4 39.92 0.08 6.83 8.71 12.65
12/29/2021 11:30:00 PM 4.41 39.938 0.081 6.82 4.61 12.65
12/29/2021 11:45:00 PM 4.42 39.956 0.082 6.83 4.91 12.64
12/30/2021 12:00:00 AM 4.42 39.956 0.082 6.84 4.74 12.64
12/30/2021 12:15:00 AM 4.43 39.974 0.083 6.83 4.7 12.64
12/30/2021 12:30:00 AM 4.43 39.974 0.084 6.84 4.89 12.64
12/30/2021 12:45:00 AM 4.43 39.974 0.085 6.84 5.06 12.63
12/30/2021 1:00:00 AM 4.44 39.992 0.085 6.84 5.14 12.63
12/30/2021 1:15:00 AM 4.44 39.992 0.086 6.85 5.33 12.62
12/30/2021 1:30:00 AM 4.44 39.992 0.086 6.86 5.68 12.62
12/30/2021 1:45:00 AM 4.45 40.01 0.086 6.86 5.77 12.62
12/30/2021 2:00:00 AM 4.45 40.01 0.087 6.86 6.05 12.62
12/30/2021 2:15:00 AM 4.45 40.01 0.087 6.86 6.09 12.62
12/30/2021 2:30:00 AM 4.46 40.028 0.088 6.86 6.46 12.61
12/30/2021 2:45:00 AM 4.46 40.028 0.088 6.87 7.47 12.61
12/30/2021 3:00:00 AM 4.46 40.028 0.089 6.86 6.51 12.61
12/30/2021 3:15:00 AM 4.47 40.046 0.089 6.87 6.71 12.61
12/30/2021 3:30:00 AM 4.47 40.046 0.089 6.87 7.01 12.6
12/30/2021 3:45:00 AM 4.47 40.046 0.089 6.87 6.73 12.6
12/30/2021 4:00:00 AM 4.48 40.064 0.089 6.87 7.37 12.6
12/30/2021 4:15:00 AM 4.48 40.064 0.089 6.87 7.46 12.6
12/30/2021 4:30:00 AM 4.48 40.064 0.089 6.87 7.3 12.59
12/30/2021 4:45:00 AM 4.49 40.082 0.089 6.87 7.3 12.59
12/30/2021 5:00:00 AM 4.49 40.082 0.089 6.88 7.33 12.59
12/30/2021 5:15:00 AM 4.5 40.1 0.089 6.88 6.75 12.6
12/30/2021 5:30:00 AM 4.5 40.1 0.089 6.88 7.05 12.59
12/30/2021 5:45:00 AM 4.5 40.1 0.088 6.88 7.11 12.59
12/30/2021 6:00:00 AM 4.51 40.118 0.088 6.88 6.59 12.59
12/30/2021 6:15:00 AM 4.51 40.118 0.088 6.88 6.69 12.59
12/30/2021 6:30:00 AM 4.52 40.136 0.087 6.88 5.94 12.59
12/30/2021 6:45:00 AM 4.52 40.136 0.087 6.88 5.77 12.59
12/30/2021 7:00:00 AM 4.53 40.154 0.087 6.87 5.55 12.59
12/30/2021 7:15:00 AM 4.53 40.154 0.087 6.87 5.43 12.59
12/30/2021 7:30:00 AM 4.54 40.172 0.086 6.87 5.39 12.58
12/30/2021 7:45:00 AM 4.54 40.172 0.086 6.87 5.16 12.59
12/30/2021 8:00:00 AM 4.55 40.19 0.086 6.87 4.92 12.59
12/30/2021 8:15:00 AM 4.55 40.19 0.085 6.87 4.9 12.6
12/30/2021 8:30:00 AM 4.56 40.208 0.086 6.87 4.69 12.6
12/30/2021 8:45:00 AM 4.57 40.226 0.085 6.87 4.62 12.62
12/30/2021 9:00:00 AM 4.58 40.244 0.084 6.88 4.47 12.63
12/30/2021 9:15:00 AM 4.6 40.28 0.085 6.88 4.34 12.65
12/30/2021 9:30:00 AM 4.62 40.316 0.085 6.89 4.32 12.67
12/30/2021 9:45:00 AM 4.65 40.37 0.085 6.9 4.15 12.71
12/30/2021 10:00:00 AM 4.68 40.424 0.083 6.91 4.26 12.75
12/30/2021 10:15:00 AM 4.71 40.478 0.084 6.91 4.13 12.76
12/30/2021 10:30:00 AM 4.74 40.532 0.083 6.92 3.97 12.78
12/30/2021 10:45:00 AM 4.78 40.604 0.083 6.93 3.83 12.8
12/30/2021 11:00:00 AM 4.82 40.676 0.083 6.94 3.82 12.82
12/30/2021 11:15:00 AM 4.85 40.73 0.083 6.94 3.76 12.83
12/30/2021 11:30:00 AM 4.89 40.802 0.083 6.95 3.54 12.83
12/30/2021 11:45:00 AM 4.93 40.874 0.082 6.96 3 12.84
12/30/2021 12:00:00 PM 4.97 40.946 0.081 6.96 3.02 12.84
12/30/2021 12:15:00 PM 5 41 0.081 6.97 2.99 12.84
12/30/2021 12:30:00 PM 5.04 41.072 0.081 6.97 2.9 12.83
12/30/2021 12:45:00 PM 5.09 41.162 0.08 6.98 2.78 12.82
12/30/2021 1:00:00 PM 5.14 41.252 0.08 6.99 2.65 12.83
12/30/2021 1:15:00 PM 5.18 41.324 0.079 6.99 2.69 12.82
12/30/2021 1:30:00 PM 5.23 41.414 0.079 6.99 2.69 12.81
12/30/2021 1:45:00 PM 5.28 41.504 0.079 6.99 2.62 12.8
12/30/2021 2:00:00 PM 5.32 41.576 0.078 6.99 2.84 12.78
12/30/2021 2:15:00 PM 5.36 41.648 0.077 7 2.6 12.77
12/30/2021 2:30:00 PM 5.39 41.702 0.077 7 2.64 12.75
12/30/2021 2:45:00 PM 5.42 41.756 0.077 7 2.53 12.72
12/30/2021 3:00:00 PM 5.45 41.81 0.077 6.99 2.44 12.7
12/30/2021 3:15:00 PM 5.47 41.846 0.077 6.98 2.53 12.65
12/30/2021 3:30:00 PM 5.49 41.882 0.077 6.97 2.62 12.61
12/30/2021 3:45:00 PM 5.52 41.936 0.076 6.97 2.52 12.6
12/30/2021 4:00:00 PM 5.53 41.954 0.076 6.96 2.39 12.56
12/30/2021 4:15:00 PM 5.55 41.99 0.076 6.95 2.47 12.54
12/30/2021 4:30:00 PM 5.55 41.99 0.075 6.94 2.51 12.51
12/30/2021 4:45:00 PM 5.56 42.008 0.075 6.93 2.47 12.48
12/30/2021 5:00:00 PM 5.57 42.026 0.074 6.92 2.37 12.44
12/30/2021 5:15:00 PM 5.58 42.044 0.074 6.91 2.6 12.4
12/30/2021 5:30:00 PM 5.59 42.062 0.074 6.9 2.48 12.37
12/30/2021 5:45:00 PM 5.6 42.08 0.074 6.89 2.49 12.35
12/30/2021 6:00:00 PM 5.61 42.098 0.073 6.89 2.53 12.32
12/30/2021 6:15:00 PM 5.62 42.116 0.073 6.88 2.53 12.3
12/30/2021 6:30:00 PM 5.62 42.116 0.073 6.87 2.66 12.29
12/30/2021 6:45:00 PM 5.63 42.134 0.073 6.86 2.65 12.27
12/30/2021 7:00:00 PM 5.63 42.134 0.073 6.86 2.45 12.26
12/30/2021 7:15:00 PM 5.63 42.134 0.072 6.85 2.46 12.25
12/30/2021 7:30:00 PM 5.63 42.134 0.072 6.85 2.44 12.24
12/30/2021 7:45:00 PM 5.62 42.116 0.072 6.85 2.53 12.24
12/30/2021 8:00:00 PM 5.63 42.134 0.072 6.85 2.57 12.23
12/30/2021 8:15:00 PM 5.63 42.134 0.071 6.84 2.41 12.23
12/30/2021 8:30:00 PM 5.63 42.134 0.071 6.84 2.55 12.23
12/30/2021 8:45:00 PM 5.63 42.134 0.071 6.83 2.51 12.22
12/30/2021 9:00:00 PM 5.64 42.152 0.071 6.83 2.54 12.22
12/30/2021 9:15:00 PM 5.64 42.152 0.071 6.82 2.4 12.22
12/30/2021 9:30:00 PM 5.64 42.152 0.07 6.82 2.35 12.21
12/30/2021 9:45:00 PM 5.65 42.17 0.07 6.82 2.49 12.21
12/30/2021 10:00:00 PM 5.66 42.188 0.07 6.82 2.34 12.21
12/30/2021 10:15:00 PM 5.66 42.188 0.07 6.81 2.35 12.21
12/30/2021 10:30:00 PM 5.67 42.206 0.07 6.81 2.46 12.21
12/30/2021 10:45:00 PM 5.67 42.206 0.069 6.81 2.26 12.21
12/30/2021 11:00:00 PM 5.68 42.224 0.069 6.81 2.33 12.2
12/30/2021 11:15:00 PM 5.68 42.224 0.069 6.81 2.26 12.2
12/30/2021 11:30:00 PM 5.68 42.224 0.069 6.81 2.23 12.2
12/30/2021 11:45:00 PM 5.69 42.242 0.069 6.81 2.24 12.2
12/31/2021 12:00:00 AM 5.7 42.26 0.069 6.81 2.18 12.19
12/31/2021 12:15:00 AM 5.7 42.26 0.068 6.8 2.2 12.19
12/31/2021 12:30:00 AM 5.71 42.278 0.068 6.8 2.21 12.19
12/31/2021 12:45:00 AM 5.72 42.296 0.068 6.8 2.24 12.19
12/31/2021 1:00:00 AM 5.72 42.296 0.068 6.8 2.44 12.19
12/31/2021 1:15:00 AM 5.73 42.314 0.068 6.8 2.15 12.18
12/31/2021 1:30:00 AM 5.74 42.332 0.068 6.8 2.11 12.18
12/31/2021 1:45:00 AM 5.74 42.332 0.068 6.8 2.14 12.18
12/31/2021 2:00:00 AM 5.75 42.35 0.068 6.8 2.13 12.17
12/31/2021 2:15:00 AM 5.75 42.35 0.068 6.8 2.45 12.17
12/31/2021 2:30:00 AM 5.76 42.368 0.067 6.8 2.16 12.17
12/31/2021 2:45:00 AM 5.76 42.368 0.067 6.8 2.42 12.17
12/31/2021 3:00:00 AM 5.77 42.386 0.067 6.8 1.97 12.16
12/31/2021 3:15:00 AM 5.77 42.386 0.067 6.8 2.14 12.16
12/31/2021 3:30:00 AM 5.77 42.386 0.067 6.8 2.09 12.16
12/31/2021 3:45:00 AM 5.78 42.404 0.067 6.8 2 12.16
12/31/2021 4:00:00 AM 5.78 42.404 0.067 6.8 1.95 12.15
12/31/2021 4:15:00 AM 5.78 42.404 0.067 6.8 2.19 12.15
12/31/2021 4:30:00 AM 5.79 42.422 0.067 6.8 1.94 12.15
12/31/2021 4:45:00 AM 5.79 42.422 0.066 6.79 2 12.15
12/31/2021 5:00:00 AM 5.79 42.422 0.066 6.8 2.04 12.15
12/31/2021 5:15:00 AM 5.8 42.44 0.066 6.79 2.02 12.14
12/31/2021 5:30:00 AM 5.8 42.44 0.066 6.79 2.03 12.14
12/31/2021 5:45:00 AM 5.8 42.44 0.066 6.79 1.97 12.13
12/31/2021 6:00:00 AM 5.81 42.458 0.066 6.79 1.81 12.14
12/31/2021 6:15:00 AM 5.81 42.458 0.066 6.79 1.89 12.14
12/31/2021 6:30:00 AM 5.81 42.458 0.066 6.79 1.92 12.13
12/31/2021 6:45:00 AM 5.82 42.476 0.066 6.79 2.23 12.13
12/31/2021 7:00:00 AM 5.82 42.476 0.066 6.79 2.01 12.14
12/31/2021 7:15:00 AM 5.82 42.476 0.066 6.79 1.95 12.14
12/31/2021 7:30:00 AM 5.83 42.494 0.066 6.79 2.06 12.13
12/31/2021 7:45:00 AM 5.83 42.494 0.065 6.78 2.08 12.13
12/31/2021 8:00:00 AM 5.83 42.494 0.065 6.79 2.02 12.15
12/31/2021 8:15:00 AM 5.84 42.512 0.065 6.79 1.89 12.17
12/31/2021 8:30:00 AM 5.85 42.53 0.065 6.79 1.86 12.19
12/31/2021 8:45:00 AM 5.86 42.548 0.065 6.79 1.9 12.22
12/31/2021 9:00:00 AM 5.87 42.566 0.065 6.8 1.91 12.26
12/31/2021 9:15:00 AM 5.89 42.602 0.065 6.81 1.75 12.29
12/31/2021 9:30:00 AM 5.9 42.62 0.065 6.82 1.84 12.31
12/31/2021 9:45:00 AM 5.91 42.638 0.065 6.82 1.64 12.29
12/31/2021 10:00:00 AM 5.92 42.656 0.064 6.83 1.6 12.3
12/31/2021 10:15:00 AM 5.94 42.692 0.064 6.83 1.55 12.34
12/31/2021 10:30:00 AM 5.97 42.746 0.064 6.85 1.61 12.37
12/31/2021 10:45:00 AM 6 42.8 0.064 6.86 1.62 12.4
12/31/2021 11:00:00 AM 6.04 42.872 0.064 6.87 1.57 12.43
12/31/2021 11:15:00 AM 6.07 42.926 0.064 6.88 1.57 12.44
12/31/2021 11:30:00 AM 6.11 42.998 0.064 6.89 1.55 12.45
12/31/2021 11:45:00 AM 6.16 43.088 0.064 6.9 1.81 12.46
12/31/2021 12:00:00 PM 6.23 43.214 0.064 6.9 1.9 12.48
12/31/2021 12:15:00 PM 6.3 43.34 0.064 6.91 1.78 12.48
12/31/2021 12:30:00 PM 6.34 43.412 0.063 6.92 1.54 12.48
12/31/2021 12:45:00 PM 6.41 43.538 0.063 6.93 1.57 12.47
12/31/2021 1:00:00 PM 6.48 43.664 0.063 6.94 1.53 12.47
12/31/2021 1:15:00 PM 6.55 43.79 0.063 6.95 1.55 12.47
12/31/2021 1:30:00 PM 6.62 43.916 0.063 6.96 1.67 12.46
12/31/2021 1:45:00 PM 6.67 44.006 0.063 6.96 25.93 12.44
12/31/2021 2:00:00 PM 6.73 44.114 0.063 6.97 2591.5 12.41
12/31/2021 2:15:00 PM 6.78 44.204 0.062 6.99 45.01 12.4
12/31/2021 2:30:00 PM 6.83 44.294 0.061 6.98 720 12.37
12/31/2021 2:45:00 PM 6.87 44.366 0.063 6.98 4929.23 12.36
12/31/2021 3:00:00 PM 6.91 44.438 0.063 6.98 421.78 12.33
12/31/2021 3:15:00 PM 6.93 44.474 0.062 6.96 25.3 12.3
12/31/2021 3:30:00 PM 6.95 44.51 0.062 6.94 2.41 12.27
12/31/2021 3:45:00 PM 6.95 44.51 0.062 6.93 1210.5 12.23
12/31/2021 4:00:00 PM 6.95 44.51 0.062 6.91 2.02 12.19
12/31/2021 4:15:00 PM 6.94 44.492 0.062 6.91 1.82 12.15
12/31/2021 4:30:00 PM 6.92 44.456 0.062 6.89 1.88 12.1
12/31/2021 4:45:00 PM 6.91 44.438 0.062 6.87 31.6 12.05
12/31/2021 5:00:00 PM 6.9 44.42 0.062 6.86 2 12.02
12/31/2021 5:15:00 PM 6.89 44.402 0.062 6.85 2.37 11.98
12/31/2021 5:30:00 PM 6.87 44.366 0.062 6.84 2.56 11.95
12/31/2021 5:45:00 PM 6.87 44.366 0.062 6.82 2.23 11.93
12/31/2021 6:00:00 PM 6.85 44.33 0.062 6.81 2.5 11.91
12/31/2021 6:15:00 PM 6.84 44.312 0.062 6.8 2.18 11.9
12/31/2021 6:30:00 PM 6.83 44.294 0.062 6.79 2.39 11.89
12/31/2021 6:45:00 PM 6.82 44.276 0.062 6.79 2.42 11.88
12/31/2021 7:00:00 PM 6.8 44.24 0.062 6.78 2.49 11.88
12/31/2021 7:15:00 PM 6.79 44.222 0.062 6.78 2.35 11.86
12/31/2021 7:30:00 PM 6.77 44.186 0.062 6.77 2.49 11.86
12/31/2021 7:45:00 PM 6.75 44.15 0.062 6.77 2.53 11.86
12/31/2021 8:00:00 PM 6.73 44.114 0.062 6.76 2.4 11.86
12/31/2021 8:15:00 PM 6.71 44.078 0.062 6.76 2.34 11.86
12/31/2021 8:30:00 PM 6.68 44.024 0.062 6.76 1.8 11.86
12/31/2021 8:45:00 PM 6.66 43.988 0.062 6.75 1.95 11.86
12/31/2021 9:00:00 PM 6.64 43.952 0.062 6.75 1.87 11.86
12/31/2021 9:15:00 PM 6.62 43.916 0.062 6.75 1.82 11.87
12/31/2021 9:30:00 PM 6.59 43.862 0.062 6.75 1.89 11.87
12/31/2021 9:45:00 PM 6.56 43.808 0.062 6.76 1.9 11.87
12/31/2021 10:00:00 PM 6.54 43.772 0.061 6.75 1.65 11.88
12/31/2021 10:15:00 PM 6.52 43.736 0.061 6.75 1.84 11.88
12/31/2021 10:30:00 PM 6.5 43.7 0.061 6.75 1.79 11.89
12/31/2021 10:45:00 PM 6.48 43.664 0.061 6.75 1.91 11.89
12/31/2021 11:00:00 PM 6.47 43.646 0.061 6.75 1.76 11.89
12/31/2021 11:15:00 PM 6.46 43.628 0.061 6.76 1.63 11.89
12/31/2021 11:30:00 PM 6.45 43.61 0.061 6.76 1.74 11.89
12/31/2021 11:45:00 PM 6.44 43.592 0.061 6.76 1.62 11.9
1/1/2022 12:00:00 AM 6.43 43.574 0.061 6.76 1.65 11.9
1/1/2022 12:15:00 AM 6.41 43.538 0.061 6.76 1.62 11.9
1/1/2022 12:30:00 AM 6.4 43.52 0.061 6.76 1.82 11.91
1/1/2022 12:45:00 AM 6.39 43.502 0.061 6.75 1.73 11.91
1/1/2022 1:00:00 AM 6.38 43.484 0.061 6.75 1.6 11.91
1/1/2022 1:15:00 AM 6.37 43.466 0.061 6.75 1.69 11.92
1/1/2022 1:30:00 AM 6.36 43.448 0.061 6.75 1.66 11.91
1/1/2022 1:45:00 AM 6.36 43.448 0.061 6.74 1.76 11.92
1/1/2022 2:00:00 AM 6.35 43.43 0.061 6.74 1.79 11.92
1/1/2022 2:15:00 AM 6.35 43.43 0.061 6.74 1.64 11.93
1/1/2022 2:30:00 AM 6.34 43.412 0.061 6.74 1.69 11.92
1/1/2022 2:45:00 AM 6.34 43.412 0.061 6.74 1.63 11.93
1/1/2022 3:00:00 AM 6.34 43.412 0.061 6.74 1.61 11.93
1/1/2022 3:15:00 AM 6.33 43.394 0.061 6.74 1.61 11.92
1/1/2022 3:30:00 AM 6.33 43.394 0.061 6.74 1.67 11.93
1/1/2022 3:45:00 AM 6.33 43.394 0.061 6.75 1.61 11.94
1/1/2022 4:00:00 AM 6.33 43.394 0.061 6.74 1.65 11.93
1/1/2022 4:15:00 AM 6.32 43.376 0.061 6.74 1.56 11.93
1/1/2022 4:30:00 AM 6.32 43.376 0.061 6.74 1.49 11.93
1/1/2022 4:45:00 AM 6.32 43.376 0.061 6.73 1.59 11.94
1/1/2022 5:00:00 AM 6.31 43.358 0.061 6.73 1.5 11.94
1/1/2022 5:15:00 AM 6.31 43.358 0.061 6.73 1.71 11.94
1/1/2022 5:30:00 AM 6.3 43.34 0.061 6.73 1.88 11.93
1/1/2022 5:45:00 AM 6.29 43.322 0.061 6.72 1.61 11.95
1/1/2022 6:00:00 AM 6.28 43.304 0.061 6.72 1.59 11.94
1/1/2022 6:15:00 AM 6.28 43.304 0.061 6.72 1.63 11.95
1/1/2022 6:30:00 AM 6.27 43.286 0.061 6.72 1.63 11.94
1/1/2022 6:45:00 AM 6.26 43.268 0.061 6.72 1.46 11.94
1/1/2022 7:00:00 AM 6.25 43.25 0.061 6.72 1.6 11.95
1/1/2022 7:15:00 AM 6.25 43.25 0.061 6.72 1.6 11.96
1/1/2022 7:30:00 AM 6.24 43.232 0.061 6.72 1.64 11.95
1/1/2022 7:45:00 AM 6.23 43.214 0.061 6.72 1.51 11.95
1/1/2022 8:00:00 AM 6.23 43.214 0.061 6.72 1.59 11.96
1/1/2022 8:15:00 AM 6.23 43.214 0.06 6.72 1.48 11.98
1/1/2022 8:30:00 AM 6.23 43.214 0.06 6.72 1.6 11.99
1/1/2022 8:45:00 AM 6.23 43.214 0.06 6.73 1.54 12.01
1/1/2022 9:00:00 AM 6.23 43.214 0.06 6.73 1.44 12.05
1/1/2022 9:15:00 AM 6.24 43.232 0.06 6.74 1.35 12.06
1/1/2022 9:30:00 AM 6.25 43.25 0.06 6.74 1.41 12.1
1/1/2022 9:45:00 AM 6.26 43.268 0.06 6.75 1.42 12.13
1/1/2022 10:00:00 AM 6.27 43.286 0.06 6.76 1.28 12.16
1/1/2022 10:15:00 AM 6.28 43.304 0.06 6.77 1.24 12.16
1/1/2022 10:30:00 AM 6.3 43.34 0.06 6.78 1.25 12.19
1/1/2022 10:45:00 AM 6.31 43.358 0.06 6.79 1.27 12.21
1/1/2022 11:00:00 AM 6.34 43.412 0.06 6.79 1.25 12.23
1/1/2022 11:15:00 AM 6.37 43.466 0.06 6.8 1.34 12.27
1/1/2022 11:30:00 AM 6.39 43.502 0.06 6.82 1.2 12.28
1/1/2022 11:45:00 AM 6.42 43.556 0.06 6.83 10.71 12.28
1/1/2022 12:00:00 PM 6.44 43.592 0.06 6.83 1.25 12.28
1/1/2022 12:15:00 PM 6.47 43.646 0.06 6.83 1.2 12.29
1/1/2022 12:30:00 PM 6.51 43.718 0.06 6.84 1.23 12.3
1/1/2022 12:45:00 PM 6.55 43.79 0.06 6.85 1.2 12.31
1/1/2022 1:00:00 PM 6.58 43.844 0.06 6.85 1.15 12.32
1/1/2022 1:15:00 PM 6.61 43.898 0.059 6.86 1.2 12.31
1/1/2022 1:30:00 PM 6.65 43.97 0.059 6.87 1.22 12.3
1/1/2022 1:45:00 PM 6.68 44.024 0.059 6.86 1.23 12.3
1/1/2022 2:00:00 PM 6.71 44.078 0.059 6.86 1.24 12.28
1/1/2022 2:15:00 PM 6.73 44.114 0.059 6.86 1.25 12.25
1/1/2022 2:30:00 PM 6.75 44.15 0.059 6.86 1.26 12.23
1/1/2022 2:45:00 PM 6.78 44.204 0.059 6.86 1.28 12.2
1/1/2022 3:00:00 PM 6.8 44.24 0.059 6.86 1.23 12.18
1/1/2022 3:15:00 PM 6.82 44.276 0.059 6.85 1.23 12.13
1/1/2022 3:30:00 PM 6.84 44.312 0.059 6.84 1.33 12.1
1/1/2022 3:45:00 PM 6.86 44.348 0.059 6.83 1.35 12.07
1/1/2022 4:00:00 PM 6.87 44.366 0.059 6.83 1.39 12.03
1/1/2022 4:15:00 PM 6.89 44.402 0.059 6.82 1.43 12
1/1/2022 4:30:00 PM 6.9 44.42 0.059 6.81 1.37 11.95
1/1/2022 4:45:00 PM 6.92 44.456 0.059 6.8 1.41 11.92
1/1/2022 5:00:00 PM 6.94 44.492 0.059 6.79 1.35 11.89
1/1/2022 5:15:00 PM 6.95 44.51 0.059 6.78 1.46 11.86
1/1/2022 5:30:00 PM 6.96 44.528 0.059 6.78 1.49 11.83
1/1/2022 5:45:00 PM 6.97 44.546 0.059 6.77 1.53 11.81
1/1/2022 6:00:00 PM 6.99 44.582 0.059 6.76 1.62 11.79
1/1/2022 6:15:00 PM 7 44.6 0.059 6.76 1.67 11.77
1/1/2022 6:30:00 PM 7.01 44.618 0.059 6.76 1.66 11.76
1/1/2022 6:45:00 PM 7.02 44.636 0.059 6.75 1.63 11.74
1/1/2022 7:00:00 PM 7.03 44.654 0.059 6.74 1.7 11.73
1/1/2022 7:15:00 PM 7.04 44.672 0.059 6.74 1.7 11.72
1/1/2022 7:30:00 PM 7.05 44.69 0.059 6.73 1.78 11.71
1/1/2022 7:45:00 PM 7.06 44.708 0.059 6.73 1.73 11.7
1/1/2022 8:00:00 PM 7.07 44.726 0.059 6.73 1.72 11.7
1/1/2022 8:15:00 PM 7.08 44.744 0.059 6.73 1.7 11.68
1/1/2022 8:30:00 PM 7.09 44.762 0.059 6.73 1.64 11.68
1/1/2022 8:45:00 PM 7.1 44.78 0.059 6.72 1.78 11.67
1/1/2022 9:00:00 PM 7.1 44.78 0.059 6.72 1.75 11.66
1/1/2022 9:15:00 PM 7.11 44.798 0.059 6.72 1.74 11.65
1/1/2022 9:30:00 PM 7.12 44.816 0.059 6.72 1.71 11.65
1/1/2022 9:45:00 PM 7.13 44.834 0.059 6.72 1.69 11.65
1/1/2022 10:00:00 PM 7.14 44.852 0.059 6.72 1.58 11.64
1/1/2022 10:15:00 PM 7.16 44.888 0.059 6.72 1.75 11.63
1/1/2022 10:30:00 PM 7.17 44.906 0.059 6.72 1.86 11.62
1/1/2022 10:45:00 PM 7.18 44.924 0.059 6.72 1.83 11.62
1/1/2022 11:00:00 PM 7.19 44.942 0.059 6.72 1.89 11.61
1/1/2022 11:15:00 PM 7.21 44.978 0.059 6.72 1.85 11.62
1/1/2022 11:30:00 PM 7.23 45.014 0.059 6.72 2.12 11.61
1/1/2022 11:45:00 PM 7.24 45.032 0.058 6.73 2.78 11.6
1/2/2022 12:00:00 AM 7.24 45.032 0.059 6.73 3.69 11.6
1/2/2022 12:15:00 AM 7.25 45.05 0.059 6.73 3.23 11.59
1/2/2022 12:30:00 AM 7.25 45.05 0.059 6.73 2.93 11.6
1/2/2022 12:45:00 AM 7.25 45.05 0.059 6.73 2.92 11.59
1/2/2022 1:00:00 AM 7.24 45.032 0.059 6.74 4.71 11.58
1/2/2022 1:15:00 AM 7.24 45.032 0.059 6.74 5.82 11.58
1/2/2022 1:30:00 AM 7.24 45.032 0.059 6.74 4.86 11.58
1/2/2022 1:45:00 AM 7.23 45.014 0.059 6.75 3.89 11.58
1/2/2022 2:00:00 AM 7.23 45.014 0.059 6.75 3.74 11.58
1/2/2022 2:15:00 AM 7.22 44.996 0.059 6.74 3.41 11.58
1/2/2022 2:30:00 AM 7.21 44.978 0.059 6.74 3.41 11.58
1/2/2022 2:45:00 AM 7.21 44.978 0.059 6.74 3.6 11.59
1/2/2022 3:00:00 AM 7.2 44.96 0.059 6.73 3.45 11.59
1/2/2022 3:15:00 AM 7.19 44.942 0.059 6.73 3.61 11.59
1/2/2022 3:30:00 AM 7.18 44.924 0.059 6.74 3.81 11.59
1/2/2022 3:45:00 AM 7.17 44.906 0.059 6.75 3.94 11.6
1/2/2022 4:00:00 AM 7.16 44.888 0.06 6.75 4.25 11.6
1/2/2022 4:15:00 AM 7.15 44.87 0.06 6.75 4.48 11.6
1/2/2022 4:30:00 AM 7.14 44.852 0.06 6.75 4.83 11.6
1/2/2022 4:45:00 AM 7.13 44.834 0.06 6.76 5.14 11.61
1/2/2022 5:00:00 AM 7.11 44.798 0.06 6.75 5.44 11.61
1/2/2022 5:15:00 AM 7.1 44.78 0.06 6.76 5.42 11.61
1/2/2022 5:30:00 AM 7.09 44.762 0.06 6.76 2098.15 11.61
1/2/2022 5:45:00 AM 7.07 44.726 0.06 6.76 5.78 11.62
1/2/2022 6:00:00 AM 7.06 44.708 0.061 6.76 5.81 11.63
1/2/2022 6:15:00 AM 7.05 44.69 0.061 6.76 6.83 11.63
1/2/2022 6:30:00 AM 7.04 44.672 0.061 6.76 7.56 11.63
1/2/2022 6:45:00 AM 7.02 44.636 0.061 6.76 8.28 11.64
1/2/2022 7:00:00 AM 7.01 44.618 0.061 6.76 9.34 11.65
1/2/2022 7:15:00 AM 7 44.6 0.062 6.76 9.63 11.65
1/2/2022 7:30:00 AM 6.98 44.564 0.062 6.75 9.85 11.66
1/2/2022 7:45:00 AM 6.97 44.546 0.062 6.76 9.9 11.66
1/2/2022 8:00:00 AM 6.96 44.528 0.062 6.75 9.65 11.67
1/2/2022 8:15:00 AM 6.94 44.492 0.062 6.76 9.13 11.68
1/2/2022 8:30:00 AM 6.93 44.474 0.062 6.76 8.72 11.7
1/2/2022 8:45:00 AM 6.91 44.438 0.063 6.76 8.27 11.71
1/2/2022 9:00:00 AM 6.9 44.42 0.063 6.76 7.94 11.73
1/2/2022 9:15:00 AM 6.89 44.402 0.063 6.77 7.89 11.75
1/2/2022 9:30:00 AM 6.87 44.366 0.064 6.77 7.88 11.76
1/2/2022 9:45:00 AM 6.86 44.348 0.064 6.78 7.67 11.79
1/2/2022 10:00:00 AM 6.84 44.312 0.065 6.79 7.29 11.82
1/2/2022 10:15:00 AM 6.83 44.294 0.065 6.8 7.28 11.86
1/2/2022 10:30:00 AM 6.81 44.258 0.066 6.81 7.06 11.89
1/2/2022 10:45:00 AM 6.78 44.204 0.066 6.82 7.01 11.91
1/2/2022 11:00:00 AM 6.76 44.168 0.067 6.83 7.04 11.94
1/2/2022 11:15:00 AM 6.74 44.132 0.068 6.84 7.24 11.98
1/2/2022 11:30:00 AM 6.74 44.132 0.068 6.86 7.79 12.01
1/2/2022 11:45:00 AM 6.72 44.096 0.069 6.87 8.43 12.03
1/2/2022 12:00:00 PM 6.71 44.078 0.069 6.88 8.76 12.06
1/2/2022 12:15:00 PM 6.69 44.042 0.069 6.88 9.1 12.06
1/2/2022 12:30:00 PM 6.69 44.042 0.069 6.89 9.2 12.08
1/2/2022 12:45:00 PM 6.68 44.024 0.07 6.9 9.35 12.1
1/2/2022 1:00:00 PM 6.67 44.006 0.07 6.91 9.1 12.1
1/2/2022 1:15:00 PM 6.65 43.97 0.07 6.91 9.02 12.12
1/2/2022 1:30:00 PM 6.63 43.934 0.07 6.92 8.62 12.13
1/2/2022 1:45:00 PM 6.61 43.898 0.07 6.92 8.47 12.15
1/2/2022 2:00:00 PM 6.59 43.862 0.07 6.93 8.51 12.17
1/2/2022 2:15:00 PM 6.57 43.826 0.07 6.93 8.4 12.18
1/2/2022 2:30:00 PM 6.56 43.808 0.07 6.94 8.14 12.19
1/2/2022 2:45:00 PM 6.54 43.772 0.07 6.94 8.07 12.19
1/2/2022 3:00:00 PM 6.51 43.718 0.07 6.93 7.82 12.18
1/2/2022 3:15:00 PM 6.48 43.664 0.071 6.93 7.53 12.16
1/2/2022 3:30:00 PM 6.45 43.61 0.071 6.93 7.45 12.16
1/2/2022 3:45:00 PM 6.41 43.538 0.071 6.92 7.24 12.14
1/2/2022 4:00:00 PM 6.37 43.466 0.071 6.91 7.12 12.13
1/2/2022 4:15:00 PM 6.33 43.394 0.071 6.91 6.86 12.11
1/2/2022 4:30:00 PM 6.28 43.304 0.071 6.9 6.5 12.11
1/2/2022 4:45:00 PM 6.25 43.25 0.071 6.9 6.52 12.1
1/2/2022 5:00:00 PM 6.19 43.142 0.071 6.89 6.41 12.11
1/2/2022 5:15:00 PM 6.16 43.088 0.071 6.88 6.2 12.11
1/2/2022 5:30:00 PM 6.13 43.034 0.071 6.87 6.09 12.1
1/2/2022 5:45:00 PM 6.09 42.962 0.071 6.87 6 12.1
1/2/2022 6:00:00 PM 6.05 42.89 0.071 6.86 6.06 12.12
1/2/2022 6:15:00 PM 6.02 42.836 0.071 6.87 5.84 12.11
1/2/2022 6:30:00 PM 5.98 42.764 0.071 6.86 5.59 12.12
1/2/2022 6:45:00 PM 5.94 42.692 0.07 6.86 5.6 12.14
1/2/2022 7:00:00 PM 5.9 42.62 0.07 6.86 5.4 12.14
1/2/2022 7:15:00 PM 5.86 42.548 0.07 6.85 5.02 12.15
1/2/2022 7:30:00 PM 5.82 42.476 0.07 6.85 4.85 12.17
1/2/2022 7:45:00 PM 5.77 42.386 0.07 6.85 4.68 12.18
1/2/2022 8:00:00 PM 5.71 42.278 0.07 6.84 4.69 12.2
1/2/2022 8:15:00 PM 5.66 42.188 0.07 6.84 4.42 12.22
1/2/2022 8:30:00 PM 5.61 42.098 0.07 6.84 4.31 12.23
1/2/2022 8:45:00 PM 5.56 42.008 0.07 6.84 4.31 12.25
1/2/2022 9:00:00 PM 5.5 41.9 0.07 6.84 4.24 12.27
1/2/2022 9:15:00 PM 5.45 41.81 0.07 6.83 4.49 12.29
1/2/2022 9:30:00 PM 5.41 41.738 0.07 6.85 4.04 12.3
1/2/2022 9:45:00 PM 5.36 41.648 0.069 6.85 3.91 12.32
1/2/2022 10:00:00 PM 5.32 41.576 0.069 6.84 779.84 12.34
1/2/2022 10:15:00 PM 5.27 41.486 0.069 6.84 3.94 12.35
1/2/2022 10:30:00 PM 5.22 41.396 0.069 6.84 3.4 12.37
1/2/2022 10:45:00 PM 5.17 41.306 0.069 6.84 3.61 12.39
1/2/2022 11:00:00 PM 5.12 41.216 0.069 6.84 3.47 12.41
1/2/2022 11:15:00 PM 5.08 41.144 0.069 6.83 3.42 12.43
1/2/2022 11:30:00 PM 5.03 41.054 0.061 6.83 3.48 12.44
1/2/2022 11:45:00 PM 4.97 40.946 0.069 6.83 3.41 12.46
1/3/2022 12:00:00 AM 4.93 40.874 0.069 6.82 3.27 12.48
1/3/2022 12:15:00 AM 4.87 40.766 0.068 6.82 3.36 12.5
1/3/2022 12:30:00 AM 4.83 40.694 0.068 6.81 3.19 12.52
1/3/2022 12:45:00 AM 4.78 40.604 0.068 6.81 3.07 12.54
1/3/2022 1:00:00 AM 4.73 40.514 0.068 6.81 3.08 12.56
1/3/2022 1:15:00 AM 4.68 40.424 0.068 6.8 2.95 12.58
1/3/2022 1:30:00 AM 4.63 40.334 0.05 6.81 3.27 12.59
1/3/2022 1:45:00 AM 4.58 40.244 0.068 6.81 7.01 12.61
1/3/2022 2:00:00 AM 4.53 40.154 0.068 6.81 3.69 12.63
1/3/2022 2:15:00 AM 4.46 40.028 0.068 6.81 3.37 12.65
1/3/2022 2:30:00 AM 4.42 39.956 0.068 6.81 41.58 12.67
1/3/2022 2:45:00 AM 4.36 39.848 0.068 6.81 17.47 12.69
1/3/2022 3:00:00 AM 4.3 39.74 0.067 6.8 2.69 12.71
1/3/2022 3:15:00 AM 4.24 39.632 0.067 6.8 6.34 12.74
1/3/2022 3:30:00 AM 4.17 39.506 0.067 6.8 2.6 12.76
1/3/2022 3:45:00 AM 4.11 39.398 0.067 6.78 3.43 12.78
1/3/2022 4:00:00 AM 4.06 39.308 0.067 6.78 11.85 12.8
1/3/2022 4:15:00 AM 4 39.2 0.067 6.77 12.75 12.81
1/3/2022 4:30:00 AM 3.97 39.146 0.067 6.77 4.9 12.83
1/3/2022 4:45:00 AM 3.92 39.056 0.067 6.76 12.07 12.85
1/3/2022 5:00:00 AM 3.87 38.966 0.067 6.75 7.59 12.87
1/3/2022 5:15:00 AM 3.83 38.894 0.067 6.76 23.49 12.88
1/3/2022 5:30:00 AM 3.78 38.804 0.067 6.75 2.65 12.9
1/3/2022 5:45:00 AM 3.75 38.75 0.066 6.75 2.44 12.91
1/3/2022 6:00:00 AM 3.71 38.678 0.066 6.75 2.36 12.92
1/3/2022 6:15:00 AM 3.65 38.57 0.066 6.74 2.78 12.94
1/3/2022 6:30:00 AM 3.6 38.48 0.066 6.73 2.47 12.97
1/3/2022 6:45:00 AM 3.56 38.408 0.065 6.73 2.6 12.98
1/3/2022 7:00:00 AM 3.52 38.336 0.066 6.73 2.44 12.99
1/3/2022 7:15:00 AM 3.47 38.246 0.066 6.73 2.56 13.01
1/3/2022 7:30:00 AM 3.42 38.156 0.066 6.73 2.44 13.02
1/3/2022 7:45:00 AM 3.37 38.066 0.066 6.73 2.43 13.05
1/3/2022 8:00:00 AM 3.33 37.994 0.066 6.73 2.44 13.07
1/3/2022 8:15:00 AM 3.3 37.94 0.066 6.74 2.43 13.1
1/3/2022 8:30:00 AM 3.26 37.868 0.066 6.75 2.31 13.15
1/3/2022 8:45:00 AM 3.23 37.814 0.065 6.75 2.32 13.2
1/3/2022 9:00:00 AM 3.2 37.76 0.065 6.76 2.26 13.24
1/3/2022 9:15:00 AM 3.17 37.706 0.065 6.77 3.28 13.29
1/3/2022 9:30:00 AM 3.14 37.652 0.065 6.78 2.18 13.34
1/3/2022 9:45:00 AM 3.11 37.598 0.065 6.79 2.17 13.38
1/3/2022 10:00:00 AM 3.09 37.562 0.065 6.8 2.58 13.42
1/3/2022 10:15:00 AM 3.05 37.49 0.065 6.81 2.39 13.46
1/3/2022 10:30:00 AM 3.03 37.454 0.065 6.81 2.36 13.49
1/3/2022 10:45:00 AM 3 37.4 0.065 6.82 2.38 13.52
1/3/2022 11:00:00 AM 2.97 37.346 0.065 6.82 1.82 13.54
1/3/2022 11:15:00 AM 2.94 37.292 0.064 6.82 1.77 13.57
1/3/2022 11:30:00 AM 2.91 37.238 0.064 6.83 1.81 13.59
1/3/2022 11:45:00 AM 2.87 37.166 0.064 6.83 1.8 13.6
1/3/2022 12:00:00 PM 2.88 37.184 0.064 6.83 1.71 13.62
1/3/2022 12:15:00 PM 2.88 37.184 0.064 6.84 1.73 13.63
1/3/2022 12:30:00 PM 2.88 37.184 0.064 6.84 1.68 13.63
1/3/2022 12:45:00 PM 2.86 37.148 0.064 6.85 1.68 13.65
1/3/2022 1:00:00 PM 2.87 37.166 0.064 6.85 1.61 13.64
1/3/2022 1:15:00 PM 2.88 37.184 0.064 6.85 1.61 13.65
1/3/2022 1:30:00 PM 2.87 37.166 0.063 6.85 1.61 13.65
1/3/2022 1:45:00 PM 2.87 37.166 0.063 6.86 1.61 13.65
1/3/2022 2:00:00 PM 2.87 37.166 0.063 6.86 1.57 13.65
1/3/2022 2:15:00 PM 2.87 37.166 0.063 6.86 1.53 13.64
1/3/2022 2:30:00 PM 2.85 37.13 0.063 6.86 1.59 13.64
1/3/2022 2:45:00 PM 2.85 37.13 0.063 6.86 1.58 13.63
1/3/2022 3:00:00 PM 2.84 37.112 0.063 6.86 1.57 13.62
1/3/2022 3:15:00 PM 2.82 37.076 0.063 6.86 1.57 13.62
1/3/2022 3:30:00 PM 2.81 37.058 0.063 6.86 2.01 13.61
1/3/2022 3:45:00 PM 2.8 37.04 0.063 6.86 2.51 13.6
1/3/2022 4:00:00 PM 2.79 37.022 0.063 6.86 1.35 13.59
1/3/2022 4:15:00 PM 2.75 36.95 0.063 6.85 10.94 13.6
1/3/2022 4:30:00 PM 2.7 36.86 0.063 6.85 1.69 13.59
1/3/2022 4:45:00 PM 2.65 36.77 0.063 6.85 1.29 13.59
1/3/2022 5:00:00 PM 2.6 36.68 0.063 6.84 1.38 13.58
1/3/2022 5:15:00 PM 2.54 36.572 0.063 6.83 1.38 13.58
1/3/2022 5:30:00 PM 2.49 36.482 0.063 6.82 1.32 13.57
1/3/2022 5:45:00 PM 2.43 36.374 0.063 6.81 1.31 13.58
1/3/2022 6:00:00 PM 2.37 36.266 0.063 6.8 1.29 13.58
1/3/2022 6:15:00 PM 2.31 36.158 0.062 6.8 1.39 13.58
1/3/2022 6:30:00 PM 2.25 36.05 0.062 6.79 1.31 13.58
1/3/2022 6:45:00 PM 2.21 35.978 0.062 6.78 1.38 13.59
1/3/2022 7:00:00 PM 2.16 35.888 0.062 6.77 1.34 13.6
1/3/2022 7:15:00 PM 2.11 35.798 0.062 6.77 1.39 13.61
1/3/2022 7:30:00 PM 2.07 35.726 0.062 6.76 1.35 13.62
1/3/2022 7:45:00 PM 2.03 35.654 0.062 6.76 1.29 13.64
1/3/2022 8:00:00 PM 1.98 35.564 0.062 6.75 1.28 13.66
1/3/2022 8:15:00 PM 1.93 35.474 0.062 6.75 1.27 13.68
1/3/2022 8:30:00 PM 1.88 35.384 0.062 6.75 1.29 13.69
1/3/2022 8:45:00 PM 1.83 35.294 0.062 6.74 1.34 13.71
1/3/2022 9:00:00 PM 1.78 35.204 0.062 6.74 1.34 13.73
1/3/2022 9:15:00 PM 1.73 35.114 0.062 6.74 1.29 13.74
1/3/2022 9:30:00 PM 1.69 35.042 0.062 6.74 1.28 13.76
1/3/2022 9:45:00 PM 1.64 34.952 0.062 6.73 1.3 13.78
1/3/2022 10:00:00 PM 1.6 34.88 0.062 6.73 1.27 13.8
1/3/2022 10:15:00 PM 1.56 34.808 0.062 6.73 1.29 13.81
1/3/2022 10:30:00 PM 1.51 34.718 0.062 6.73 1.24 13.83
1/3/2022 10:45:00 PM 1.47 34.646 0.062 6.73 1.25 13.85
1/3/2022 11:00:00 PM 1.43 34.574 0.062 6.72 1.25 13.87
1/3/2022 11:15:00 PM 1.4 34.52 0.062 6.73 1.18 13.89
1/3/2022 11:30:00 PM 1.36 34.448 0.062 6.73 1.26 13.9
1/3/2022 11:45:00 PM 1.32 34.376 0.062 6.73 1.27 13.92
1/4/2022 12:00:00 AM 1.29 34.322 0.062 6.73 1.41 13.93
1/4/2022 12:15:00 AM 1.27 34.286 0.062 6.73 1.47 13.94
1/4/2022 12:30:00 AM 1.25 34.25 0.062 6.72 1.53 13.95
1/4/2022 12:45:00 AM 1.23 34.214 0.062 6.73 1.69 13.96
1/4/2022 1:00:00 AM 1.22 34.196 0.062 6.73 1.78 13.97
1/4/2022 1:15:00 AM 1.2 34.16 0.062 6.73 1.91 13.98
1/4/2022 1:30:00 AM 1.18 34.124 0.062 6.73 2.04 13.99
1/4/2022 1:45:00 AM 1.14 34.052 0.061 6.73 2.05 14
1/4/2022 2:00:00 AM 1.12 34.016 0.061 6.73 2.1 14.01
1/4/2022 2:15:00 AM 1.08 33.944 0.061 6.73 2.05 14.02
1/4/2022 2:30:00 AM 1.05 33.89 0.061 6.73 1.99 14.04
1/4/2022 2:45:00 AM 1.03 33.854 0.061 6.73 1.85 14.05
1/4/2022 3:00:00 AM 1 33.8 0.061 6.72 1.85 14.07
1/4/2022 3:15:00 AM 0.96 33.728 0.061 6.71 1.8 14.08
1/4/2022 3:30:00 AM 0.93 33.674 0.061 6.71 1.67 14.09
1/4/2022 3:45:00 AM 0.89 33.602 0.061 6.71 1.54 14.11
1/4/2022 4:00:00 AM 0.85 33.53 0.061 6.71 1.5 14.12
1/4/2022 4:15:00 AM 0.82 33.476 0.061 6.7 1.54 14.13
1/4/2022 4:30:00 AM 0.78 33.404 0.061 6.7 1.46 14.15
1/4/2022 4:45:00 AM 0.75 33.35 0.061 6.7 1.37 14.16
1/4/2022 5:00:00 AM 0.71 33.278 0.061 6.71 1.34 14.17
1/4/2022 5:15:00 AM 0.68 33.224 0.061 6.71 1.31 14.18
1/4/2022 5:30:00 AM 0.64 33.152 0.061 6.71 1.24 14.2
1/4/2022 5:45:00 AM 0.61 33.098 0.061 6.71 1.17 14.21
1/4/2022 6:00:00 AM 0.58 33.044 0.061 6.71 1.2 14.22
1/4/2022 6:15:00 AM 0.55 32.99 0.061 6.71 1.08 14.24
1/4/2022 6:30:00 AM 0.52 32.936 0.061 6.71 1.11 14.25
1/4/2022 6:45:00 AM 0.49 32.882 0.061 6.71 1.08 14.26
1/4/2022 7:00:00 AM 0.46 32.828 0.061 6.71 1.21 14.27
1/4/2022 7:15:00 AM 0.43 32.774 0.061 6.71 1.16 14.29
1/4/2022 7:30:00 AM 0.41 32.738 0.061 6.7 1.14 14.31
1/4/2022 7:45:00 AM 0.38 32.684 0.061 6.71 1.16 14.33
1/4/2022 8:00:00 AM 0.36 32.648 0.061 6.71 1.06 14.36
1/4/2022 8:15:00 AM 0.34 32.612 0.061 6.71 1.07 14.4
1/4/2022 8:30:00 AM 0.32 32.576 0.061 6.72 0.99 14.43
1/4/2022 8:45:00 AM 0.3 32.54 0.061 6.73 1.02 14.46
1/4/2022 9:00:00 AM 0.29 32.522 0.061 6.73 1.09 14.49
1/4/2022 9:15:00 AM 0.28 32.504 0.061